<?xml version="1.0" encoding="UTF-8" standalone="no" ?>
<gpx xmlns="http://www.topografix.com/GPX/1/1" xmlns:xsi="http://www.w3.org/2001/XMLSchema-instance" xsi:schemaLocation="http://www.topografix.com/GPX/1/1 http://www.topografix.com/GPX/1/1/gpx.xsd" version="1.1" creator="VisuGPX - https://www.visugpx.com">
  <metadata>
    <name>Aubais nord</name>
    <desc><![CDATA[#ombre #court #enregistré]]></desc>
  </metadata>
  <trk>
    <name><![CDATA[2025-06-07 19:09]]></name>
    <extensions>
      <line xmlns="http://www.topografix.com/GPX/gpx_style/0/2">
        <color>0000FF</color>
        <opacity>0.59</opacity>
        <width>6.0</width>
      </line>
    </extensions>
    <trkseg>
      <trkpt lat="43.76176" lon="4.13994">
        <ele>60.57</ele>
        <time>2025-06-07T17:09:56.188Z</time>
      </trkpt>
      <trkpt lat="43.76182" lon="4.13989">
        <ele>61.2</ele>
        <time>2025-06-07T17:10:01.718Z</time>
      </trkpt>
      <trkpt lat="43.76187" lon="4.13984">
        <ele>61.97</ele>
        <time>2025-06-07T17:10:06.745Z</time>
      </trkpt>
      <trkpt lat="43.76192" lon="4.1398">
        <ele>62.15</ele>
        <time>2025-06-07T17:10:11.805Z</time>
      </trkpt>
      <trkpt lat="43.76198" lon="4.13974">
        <ele>62.17</ele>
        <time>2025-06-07T17:10:17.224Z</time>
      </trkpt>
      <trkpt lat="43.76205" lon="4.13969">
        <ele>60.18</ele>
        <time>2025-06-07T17:10:22.701Z</time>
      </trkpt>
      <trkpt lat="43.7621" lon="4.13964">
        <ele>60.58</ele>
        <time>2025-06-07T17:10:28.126Z</time>
      </trkpt>
      <trkpt lat="43.76216" lon="4.1396">
        <ele>62.68</ele>
        <time>2025-06-07T17:10:33.419Z</time>
      </trkpt>
      <trkpt lat="43.76222" lon="4.13956">
        <ele>66.37</ele>
        <time>2025-06-07T17:10:38.524Z</time>
      </trkpt>
      <trkpt lat="43.76228" lon="4.13957">
        <ele>56.36</ele>
        <time>2025-06-07T17:10:43.825Z</time>
      </trkpt>
      <trkpt lat="43.76235" lon="4.13951">
        <ele>59.67</ele>
        <time>2025-06-07T17:10:49.172Z</time>
      </trkpt>
      <trkpt lat="43.76238" lon="4.1394">
        <ele>62.09</ele>
        <time>2025-06-07T17:10:54.310Z</time>
      </trkpt>
      <trkpt lat="43.76233" lon="4.13926">
        <ele>61.84</ele>
        <time>2025-06-07T17:11:00.033Z</time>
      </trkpt>
      <trkpt lat="43.76228" lon="4.13915">
        <ele>61.49</ele>
        <time>2025-06-07T17:11:05.304Z</time>
      </trkpt>
      <trkpt lat="43.76223" lon="4.13907">
        <ele>60.92</ele>
        <time>2025-06-07T17:11:10.591Z</time>
      </trkpt>
      <trkpt lat="43.7622" lon="4.139">
        <ele>61.13</ele>
        <time>2025-06-07T17:11:16.034Z</time>
      </trkpt>
      <trkpt lat="43.76216" lon="4.13892">
        <ele>61.11</ele>
        <time>2025-06-07T17:11:21.314Z</time>
      </trkpt>
      <trkpt lat="43.76216" lon="4.13883">
        <ele>62.05</ele>
        <time>2025-06-07T17:11:27.071Z</time>
      </trkpt>
      <trkpt lat="43.76224" lon="4.13878">
        <ele>60.98</ele>
        <time>2025-06-07T17:11:32.550Z</time>
      </trkpt>
      <trkpt lat="43.76231" lon="4.13875">
        <ele>62.74</ele>
        <time>2025-06-07T17:11:37.932Z</time>
      </trkpt>
      <trkpt lat="43.76239" lon="4.13874">
        <ele>62.41</ele>
        <time>2025-06-07T17:11:43.204Z</time>
      </trkpt>
      <trkpt lat="43.76246" lon="4.13873">
        <ele>61.69</ele>
        <time>2025-06-07T17:11:48.744Z</time>
      </trkpt>
      <trkpt lat="43.76256" lon="4.13874">
        <ele>60.92</ele>
        <time>2025-06-07T17:11:54.293Z</time>
      </trkpt>
      <trkpt lat="43.76264" lon="4.13872">
        <ele>62.4</ele>
        <time>2025-06-07T17:12:00.007Z</time>
      </trkpt>
      <trkpt lat="43.7627" lon="4.13866">
        <ele>62.52</ele>
        <time>2025-06-07T17:12:05.287Z</time>
      </trkpt>
      <trkpt lat="43.76277" lon="4.13863">
        <ele>63.32</ele>
        <time>2025-06-07T17:12:10.814Z</time>
      </trkpt>
      <trkpt lat="43.76282" lon="4.13858">
        <ele>66.87</ele>
        <time>2025-06-07T17:12:16.230Z</time>
      </trkpt>
      <trkpt lat="43.76283" lon="4.13854">
        <ele>67.02</ele>
        <time>2025-06-07T17:12:21.296Z</time>
      </trkpt>
      <trkpt lat="43.76284" lon="4.13848">
        <ele>64.56</ele>
        <time>2025-06-07T17:12:26.305Z</time>
      </trkpt>
      <trkpt lat="43.76287" lon="4.13843">
        <ele>65.41</ele>
        <time>2025-06-07T17:12:31.328Z</time>
      </trkpt>
      <trkpt lat="43.76293" lon="4.1384">
        <ele>61.98</ele>
        <time>2025-06-07T17:12:36.489Z</time>
      </trkpt>
      <trkpt lat="43.76297" lon="4.13835">
        <ele>64.19</ele>
        <time>2025-06-07T17:12:42.322Z</time>
      </trkpt>
      <trkpt lat="43.76303" lon="4.13829">
        <ele>64.09</ele>
        <time>2025-06-07T17:12:47.829Z</time>
      </trkpt>
      <trkpt lat="43.76309" lon="4.13823">
        <ele>63.41</ele>
        <time>2025-06-07T17:12:53.070Z</time>
      </trkpt>
      <trkpt lat="43.76315" lon="4.13819">
        <ele>64.25</ele>
        <time>2025-06-07T17:12:58.514Z</time>
      </trkpt>
      <trkpt lat="43.76316" lon="4.13811">
        <ele>67.42</ele>
        <time>2025-06-07T17:13:04.088Z</time>
      </trkpt>
      <trkpt lat="43.76323" lon="4.13807">
        <ele>67.98</ele>
        <time>2025-06-07T17:13:09.113Z</time>
      </trkpt>
      <trkpt lat="43.76329" lon="4.13801">
        <ele>64.74</ele>
        <time>2025-06-07T17:13:14.257Z</time>
      </trkpt>
      <trkpt lat="43.76333" lon="4.13792">
        <ele>68.72</ele>
        <time>2025-06-07T17:13:19.850Z</time>
      </trkpt>
      <trkpt lat="43.76335" lon="4.13785">
        <ele>66.7</ele>
        <time>2025-06-07T17:13:25.226Z</time>
      </trkpt>
      <trkpt lat="43.76334" lon="4.13776">
        <ele>68.23</ele>
        <time>2025-06-07T17:13:30.752Z</time>
      </trkpt>
      <trkpt lat="43.76335" lon="4.13769">
        <ele>69.44</ele>
        <time>2025-06-07T17:13:36.006Z</time>
      </trkpt>
      <trkpt lat="43.76338" lon="4.13762">
        <ele>67.6</ele>
        <time>2025-06-07T17:13:41.309Z</time>
      </trkpt>
      <trkpt lat="43.76343" lon="4.13759">
        <ele>69.25</ele>
        <time>2025-06-07T17:13:46.770Z</time>
      </trkpt>
      <trkpt lat="43.76344" lon="4.13752">
        <ele>68.91</ele>
        <time>2025-06-07T17:13:51.911Z</time>
      </trkpt>
      <trkpt lat="43.76346" lon="4.13744">
        <ele>69.84</ele>
        <time>2025-06-07T17:13:57.273Z</time>
      </trkpt>
      <trkpt lat="43.7635" lon="4.13737">
        <ele>68.16</ele>
        <time>2025-06-07T17:14:03.125Z</time>
      </trkpt>
      <trkpt lat="43.76357" lon="4.13732">
        <ele>72.41</ele>
        <time>2025-06-07T17:14:08.231Z</time>
      </trkpt>
      <trkpt lat="43.76362" lon="4.13728">
        <ele>71.76</ele>
        <time>2025-06-07T17:14:13.254Z</time>
      </trkpt>
      <trkpt lat="43.76363" lon="4.13719">
        <ele>71.13</ele>
        <time>2025-06-07T17:14:18.291Z</time>
      </trkpt>
      <trkpt lat="43.76363" lon="4.1371">
        <ele>69.96</ele>
        <time>2025-06-07T17:14:24.018Z</time>
      </trkpt>
      <trkpt lat="43.76361" lon="4.13699">
        <ele>72.74</ele>
        <time>2025-06-07T17:14:30.048Z</time>
      </trkpt>
      <trkpt lat="43.76364" lon="4.13691">
        <ele>71.35</ele>
        <time>2025-06-07T17:14:35.248Z</time>
      </trkpt>
      <trkpt lat="43.76368" lon="4.13683">
        <ele>72.61</ele>
        <time>2025-06-07T17:14:40.264Z</time>
      </trkpt>
      <trkpt lat="43.76373" lon="4.13674">
        <ele>72.67</ele>
        <time>2025-06-07T17:14:45.665Z</time>
      </trkpt>
      <trkpt lat="43.76375" lon="4.13664">
        <ele>73.99</ele>
        <time>2025-06-07T17:14:51.249Z</time>
      </trkpt>
      <trkpt lat="43.7638" lon="4.13656">
        <ele>74.1</ele>
        <time>2025-06-07T17:14:57.152Z</time>
      </trkpt>
      <trkpt lat="43.76387" lon="4.13648">
        <ele>73.76</ele>
        <time>2025-06-07T17:15:03.089Z</time>
      </trkpt>
      <trkpt lat="43.7639" lon="4.13641">
        <ele>73.41</ele>
        <time>2025-06-07T17:15:08.333Z</time>
      </trkpt>
      <trkpt lat="43.76395" lon="4.13635">
        <ele>74.71</ele>
        <time>2025-06-07T17:15:14.152Z</time>
      </trkpt>
      <trkpt lat="43.76396" lon="4.13626">
        <ele>74.86</ele>
        <time>2025-06-07T17:15:20.130Z</time>
      </trkpt>
      <trkpt lat="43.76392" lon="4.13621">
        <ele>75.22</ele>
        <time>2025-06-07T17:15:25.320Z</time>
      </trkpt>
      <trkpt lat="43.76388" lon="4.13614">
        <ele>73.02</ele>
        <time>2025-06-07T17:15:31.272Z</time>
      </trkpt>
      <trkpt lat="43.76391" lon="4.13617">
        <ele>68.2</ele>
        <time>2025-06-07T17:15:37.273Z</time>
      </trkpt>
      <trkpt lat="43.76392" lon="4.13617">
        <ele>80.88</ele>
        <time>2025-06-07T17:15:42.289Z</time>
      </trkpt>
      <trkpt lat="43.76393" lon="4.13616">
        <ele>66.64</ele>
        <time>2025-06-07T17:15:48.266Z</time>
      </trkpt>
      <trkpt lat="43.76394" lon="4.13614">
        <ele>76.82</ele>
        <time>2025-06-07T17:15:53.282Z</time>
      </trkpt>
      <trkpt lat="43.76399" lon="4.13603">
        <ele>73.98</ele>
        <time>2025-06-07T17:15:58.790Z</time>
      </trkpt>
      <trkpt lat="43.76402" lon="4.13594">
        <ele>77.45</ele>
        <time>2025-06-07T17:16:03.983Z</time>
      </trkpt>
      <trkpt lat="43.76405" lon="4.13587">
        <ele>76.01</ele>
        <time>2025-06-07T17:16:09.292Z</time>
      </trkpt>
      <trkpt lat="43.7641" lon="4.13581">
        <ele>75.81</ele>
        <time>2025-06-07T17:16:15.119Z</time>
      </trkpt>
      <trkpt lat="43.76411" lon="4.13573">
        <ele>75.77</ele>
        <time>2025-06-07T17:16:20.284Z</time>
      </trkpt>
      <trkpt lat="43.76411" lon="4.13563">
        <ele>76.33</ele>
        <time>2025-06-07T17:16:25.728Z</time>
      </trkpt>
      <trkpt lat="43.76414" lon="4.13555">
        <ele>76.5</ele>
        <time>2025-06-07T17:16:30.745Z</time>
      </trkpt>
      <trkpt lat="43.76418" lon="4.13546">
        <ele>72.95</ele>
        <time>2025-06-07T17:16:36.294Z</time>
      </trkpt>
      <trkpt lat="43.76419" lon="4.13537">
        <ele>74.97</ele>
        <time>2025-06-07T17:16:41.480Z</time>
      </trkpt>
      <trkpt lat="43.76421" lon="4.13527">
        <ele>75.13</ele>
        <time>2025-06-07T17:16:46.746Z</time>
      </trkpt>
      <trkpt lat="43.76421" lon="4.13517">
        <ele>75.62</ele>
        <time>2025-06-07T17:16:51.922Z</time>
      </trkpt>
      <trkpt lat="43.7642" lon="4.13508">
        <ele>78.15</ele>
        <time>2025-06-07T17:16:57.001Z</time>
      </trkpt>
      <trkpt lat="43.76418" lon="4.135">
        <ele>76.11</ele>
        <time>2025-06-07T17:17:02.544Z</time>
      </trkpt>
      <trkpt lat="43.76417" lon="4.13493">
        <ele>76.59</ele>
        <time>2025-06-07T17:17:07.779Z</time>
      </trkpt>
      <trkpt lat="43.76418" lon="4.13483">
        <ele>77.55</ele>
        <time>2025-06-07T17:17:12.965Z</time>
      </trkpt>
      <trkpt lat="43.76422" lon="4.13477">
        <ele>77.17</ele>
        <time>2025-06-07T17:17:18.144Z</time>
      </trkpt>
      <trkpt lat="43.76426" lon="4.13471">
        <ele>80.45</ele>
        <time>2025-06-07T17:17:23.254Z</time>
      </trkpt>
      <trkpt lat="43.76428" lon="4.13463">
        <ele>80.25</ele>
        <time>2025-06-07T17:17:28.887Z</time>
      </trkpt>
      <trkpt lat="43.76428" lon="4.13454">
        <ele>77.71</ele>
        <time>2025-06-07T17:17:34.169Z</time>
      </trkpt>
      <trkpt lat="43.76428" lon="4.13445">
        <ele>75.65</ele>
        <time>2025-06-07T17:17:39.268Z</time>
      </trkpt>
      <trkpt lat="43.76432" lon="4.13437">
        <ele>73.53</ele>
        <time>2025-06-07T17:17:44.280Z</time>
      </trkpt>
      <trkpt lat="43.76431" lon="4.13431">
        <ele>81.51</ele>
        <time>2025-06-07T17:17:49.618Z</time>
      </trkpt>
      <trkpt lat="43.76426" lon="4.13429">
        <ele>80.99</ele>
        <time>2025-06-07T17:17:55.273Z</time>
      </trkpt>
      <trkpt lat="43.76419" lon="4.13426">
        <ele>81.8</ele>
        <time>2025-06-07T17:18:00.683Z</time>
      </trkpt>
      <trkpt lat="43.76412" lon="4.1342">
        <ele>82.23</ele>
        <time>2025-06-07T17:18:06.063Z</time>
      </trkpt>
      <trkpt lat="43.76406" lon="4.13414">
        <ele>79.98</ele>
        <time>2025-06-07T17:18:11.282Z</time>
      </trkpt>
      <trkpt lat="43.76403" lon="4.13406">
        <ele>79.11</ele>
        <time>2025-06-07T17:18:16.298Z</time>
      </trkpt>
      <trkpt lat="43.76398" lon="4.13398">
        <ele>81.11</ele>
        <time>2025-06-07T17:18:21.743Z</time>
      </trkpt>
      <trkpt lat="43.76393" lon="4.13389">
        <ele>80.67</ele>
        <time>2025-06-07T17:18:27.180Z</time>
      </trkpt>
      <trkpt lat="43.76389" lon="4.13381">
        <ele>81.94</ele>
        <time>2025-06-07T17:18:32.222Z</time>
      </trkpt>
      <trkpt lat="43.76388" lon="4.1337">
        <ele>77.73</ele>
        <time>2025-06-07T17:18:37.681Z</time>
      </trkpt>
      <trkpt lat="43.76391" lon="4.13361">
        <ele>79.17</ele>
        <time>2025-06-07T17:18:43.240Z</time>
      </trkpt>
      <trkpt lat="43.76395" lon="4.13354">
        <ele>82.45</ele>
        <time>2025-06-07T17:18:48.657Z</time>
      </trkpt>
      <trkpt lat="43.76398" lon="4.13343">
        <ele>84.8</ele>
        <time>2025-06-07T17:18:54.295Z</time>
      </trkpt>
      <trkpt lat="43.764" lon="4.13335">
        <ele>81.97</ele>
        <time>2025-06-07T17:18:59.722Z</time>
      </trkpt>
      <trkpt lat="43.76405" lon="4.13328">
        <ele>80.37</ele>
        <time>2025-06-07T17:19:05.243Z</time>
      </trkpt>
      <trkpt lat="43.76405" lon="4.1332">
        <ele>79.26</ele>
        <time>2025-06-07T17:19:10.304Z</time>
      </trkpt>
      <trkpt lat="43.76405" lon="4.13313">
        <ele>83.38</ele>
        <time>2025-06-07T17:19:15.819Z</time>
      </trkpt>
      <trkpt lat="43.76406" lon="4.13304">
        <ele>81.44</ele>
        <time>2025-06-07T17:19:21.296Z</time>
      </trkpt>
      <trkpt lat="43.76409" lon="4.13296">
        <ele>81.49</ele>
        <time>2025-06-07T17:19:26.312Z</time>
      </trkpt>
      <trkpt lat="43.76409" lon="4.13286">
        <ele>80.73</ele>
        <time>2025-06-07T17:19:32.024Z</time>
      </trkpt>
      <trkpt lat="43.76405" lon="4.13279">
        <ele>84.59</ele>
        <time>2025-06-07T17:19:37.305Z</time>
      </trkpt>
      <trkpt lat="43.76401" lon="4.1327">
        <ele>80.77</ele>
        <time>2025-06-07T17:19:42.776Z</time>
      </trkpt>
      <trkpt lat="43.764" lon="4.13258">
        <ele>85.41</ele>
        <time>2025-06-07T17:19:48.140Z</time>
      </trkpt>
      <trkpt lat="43.764" lon="4.13248">
        <ele>83.38</ele>
        <time>2025-06-07T17:19:53.314Z</time>
      </trkpt>
      <trkpt lat="43.764" lon="4.13238">
        <ele>83.09</ele>
        <time>2025-06-07T17:19:58.840Z</time>
      </trkpt>
      <trkpt lat="43.76395" lon="4.13231">
        <ele>79.86</ele>
        <time>2025-06-07T17:20:04.223Z</time>
      </trkpt>
      <trkpt lat="43.76389" lon="4.13227">
        <ele>81.23</ele>
        <time>2025-06-07T17:20:09.823Z</time>
      </trkpt>
      <trkpt lat="43.76383" lon="4.13222">
        <ele>77.12</ele>
        <time>2025-06-07T17:20:15.300Z</time>
      </trkpt>
      <trkpt lat="43.76383" lon="4.13211">
        <ele>79.69</ele>
        <time>2025-06-07T17:20:20.604Z</time>
      </trkpt>
      <trkpt lat="43.76382" lon="4.132">
        <ele>86.9</ele>
        <time>2025-06-07T17:20:26.293Z</time>
      </trkpt>
      <trkpt lat="43.76381" lon="4.1319">
        <ele>82.04</ele>
        <time>2025-06-07T17:20:31.577Z</time>
      </trkpt>
      <trkpt lat="43.76383" lon="4.13181">
        <ele>81.37</ele>
        <time>2025-06-07T17:20:37.286Z</time>
      </trkpt>
      <trkpt lat="43.76384" lon="4.13172">
        <ele>81.57</ele>
        <time>2025-06-07T17:20:42.303Z</time>
      </trkpt>
      <trkpt lat="43.76383" lon="4.13164">
        <ele>81.57</ele>
        <time>2025-06-07T17:20:47.839Z</time>
      </trkpt>
      <trkpt lat="43.76382" lon="4.13156">
        <ele>80.18</ele>
        <time>2025-06-07T17:20:52.855Z</time>
      </trkpt>
      <trkpt lat="43.7638" lon="4.13147">
        <ele>81.54</ele>
        <time>2025-06-07T17:20:58.136Z</time>
      </trkpt>
      <trkpt lat="43.76378" lon="4.13137">
        <ele>81.01</ele>
        <time>2025-06-07T17:21:03.197Z</time>
      </trkpt>
      <trkpt lat="43.76374" lon="4.1313">
        <ele>80.56</ele>
        <time>2025-06-07T17:21:08.344Z</time>
      </trkpt>
      <trkpt lat="43.76366" lon="4.13129">
        <ele>81.26</ele>
        <time>2025-06-07T17:21:13.372Z</time>
      </trkpt>
      <trkpt lat="43.76359" lon="4.13128">
        <ele>81.27</ele>
        <time>2025-06-07T17:21:19.054Z</time>
      </trkpt>
      <trkpt lat="43.76353" lon="4.13131">
        <ele>80.28</ele>
        <time>2025-06-07T17:21:24.213Z</time>
      </trkpt>
      <trkpt lat="43.76351" lon="4.13136">
        <ele>81.66</ele>
        <time>2025-06-07T17:21:29.263Z</time>
      </trkpt>
      <trkpt lat="43.76347" lon="4.13137">
        <ele>79.01</ele>
        <time>2025-06-07T17:21:34.278Z</time>
      </trkpt>
      <trkpt lat="43.76343" lon="4.13144">
        <ele>80.63</ele>
        <time>2025-06-07T17:21:39.874Z</time>
      </trkpt>
      <trkpt lat="43.76327" lon="4.13119">
        <ele>76.64</ele>
        <time>2025-06-07T17:21:45.271Z</time>
      </trkpt>
      <trkpt lat="43.76321" lon="4.1311">
        <ele>80.94</ele>
        <time>2025-06-07T17:21:50.307Z</time>
      </trkpt>
      <trkpt lat="43.76316" lon="4.131">
        <ele>81.36</ele>
        <time>2025-06-07T17:21:56.293Z</time>
      </trkpt>
      <trkpt lat="43.76309" lon="4.13094">
        <ele>83.22</ele>
        <time>2025-06-07T17:22:02.233Z</time>
      </trkpt>
      <trkpt lat="43.76307" lon="4.13084">
        <ele>74.45</ele>
        <time>2025-06-07T17:22:07.257Z</time>
      </trkpt>
      <trkpt lat="43.76304" lon="4.13074">
        <ele>80.38</ele>
        <time>2025-06-07T17:22:12.568Z</time>
      </trkpt>
      <trkpt lat="43.76304" lon="4.13065">
        <ele>79.86</ele>
        <time>2025-06-07T17:22:18.156Z</time>
      </trkpt>
      <trkpt lat="43.76309" lon="4.13064">
        <ele>85.47</ele>
        <time>2025-06-07T17:22:23.275Z</time>
      </trkpt>
      <trkpt lat="43.76317" lon="4.1306">
        <ele>80.39</ele>
        <time>2025-06-07T17:22:28.300Z</time>
      </trkpt>
      <trkpt lat="43.76326" lon="4.13057">
        <ele>79.89</ele>
        <time>2025-06-07T17:22:33.995Z</time>
      </trkpt>
      <trkpt lat="43.76333" lon="4.13061">
        <ele>76.8</ele>
        <time>2025-06-07T17:22:39.243Z</time>
      </trkpt>
      <trkpt lat="43.7634" lon="4.13059">
        <ele>77.91</ele>
        <time>2025-06-07T17:22:44.277Z</time>
      </trkpt>
      <trkpt lat="43.76346" lon="4.13061">
        <ele>77.26</ele>
        <time>2025-06-07T17:22:49.687Z</time>
      </trkpt>
      <trkpt lat="43.76352" lon="4.13061">
        <ele>76.16</ele>
        <time>2025-06-07T17:22:55.305Z</time>
      </trkpt>
      <trkpt lat="43.76357" lon="4.13057">
        <ele>77.13</ele>
        <time>2025-06-07T17:23:00.764Z</time>
      </trkpt>
      <trkpt lat="43.76362" lon="4.13056">
        <ele>77.71</ele>
        <time>2025-06-07T17:23:05.780Z</time>
      </trkpt>
      <trkpt lat="43.76368" lon="4.13046">
        <ele>76.88</ele>
        <time>2025-06-07T17:23:10.828Z</time>
      </trkpt>
      <trkpt lat="43.76366" lon="4.13036">
        <ele>78.15</ele>
        <time>2025-06-07T17:23:16.321Z</time>
      </trkpt>
      <trkpt lat="43.76364" lon="4.13028">
        <ele>76.26</ele>
        <time>2025-06-07T17:23:21.362Z</time>
      </trkpt>
      <trkpt lat="43.76361" lon="4.13022">
        <ele>76.06</ele>
        <time>2025-06-07T17:23:26.363Z</time>
      </trkpt>
      <trkpt lat="43.76357" lon="4.13013">
        <ele>74.53</ele>
        <time>2025-06-07T17:23:32.003Z</time>
      </trkpt>
      <trkpt lat="43.76355" lon="4.13006">
        <ele>75.6</ele>
        <time>2025-06-07T17:23:37.264Z</time>
      </trkpt>
      <trkpt lat="43.76357" lon="4.12995">
        <ele>73.69</ele>
        <time>2025-06-07T17:23:42.280Z</time>
      </trkpt>
      <trkpt lat="43.76358" lon="4.12986">
        <ele>73.97</ele>
        <time>2025-06-07T17:23:47.296Z</time>
      </trkpt>
      <trkpt lat="43.76359" lon="4.12977">
        <ele>74.14</ele>
        <time>2025-06-07T17:23:52.965Z</time>
      </trkpt>
      <trkpt lat="43.76364" lon="4.12971">
        <ele>73.49</ele>
        <time>2025-06-07T17:23:58.328Z</time>
      </trkpt>
      <trkpt lat="43.76365" lon="4.12966">
        <ele>71.53</ele>
        <time>2025-06-07T17:24:03.782Z</time>
      </trkpt>
      <trkpt lat="43.7636" lon="4.12965">
        <ele>72.91</ele>
        <time>2025-06-07T17:24:09.267Z</time>
      </trkpt>
      <trkpt lat="43.76356" lon="4.1296">
        <ele>69.99</ele>
        <time>2025-06-07T17:24:14.728Z</time>
      </trkpt>
      <trkpt lat="43.76349" lon="4.12955">
        <ele>70.78</ele>
        <time>2025-06-07T17:24:20.101Z</time>
      </trkpt>
      <trkpt lat="43.76348" lon="4.12946">
        <ele>70.15</ele>
        <time>2025-06-07T17:24:25.144Z</time>
      </trkpt>
      <trkpt lat="43.76347" lon="4.12939">
        <ele>72.19</ele>
        <time>2025-06-07T17:24:30.201Z</time>
      </trkpt>
      <trkpt lat="43.7635" lon="4.12929">
        <ele>70.57</ele>
        <time>2025-06-07T17:24:35.699Z</time>
      </trkpt>
      <trkpt lat="43.76354" lon="4.12921">
        <ele>73.53</ele>
        <time>2025-06-07T17:24:40.893Z</time>
      </trkpt>
      <trkpt lat="43.76358" lon="4.12913">
        <ele>72.45</ele>
        <time>2025-06-07T17:24:46.135Z</time>
      </trkpt>
      <trkpt lat="43.7636" lon="4.12907">
        <ele>68.36</ele>
        <time>2025-06-07T17:24:51.247Z</time>
      </trkpt>
      <trkpt lat="43.76362" lon="4.12901">
        <ele>71.89</ele>
        <time>2025-06-07T17:24:56.693Z</time>
      </trkpt>
      <trkpt lat="43.7636" lon="4.12891">
        <ele>77.03</ele>
        <time>2025-06-07T17:25:02.325Z</time>
      </trkpt>
      <trkpt lat="43.76361" lon="4.1288">
        <ele>76.25</ele>
        <time>2025-06-07T17:25:07.486Z</time>
      </trkpt>
      <trkpt lat="43.76351" lon="4.1287">
        <ele>76.18</ele>
        <time>2025-06-07T17:25:13.054Z</time>
      </trkpt>
      <trkpt lat="43.76347" lon="4.12862">
        <ele>75.49</ele>
        <time>2025-06-07T17:25:18.265Z</time>
      </trkpt>
      <trkpt lat="43.76336" lon="4.12861">
        <ele>75.46</ele>
        <time>2025-06-07T17:25:23.790Z</time>
      </trkpt>
      <trkpt lat="43.7633" lon="4.12858">
        <ele>76.88</ele>
        <time>2025-06-07T17:25:28.894Z</time>
      </trkpt>
      <trkpt lat="43.76329" lon="4.12845">
        <ele>77.89</ele>
        <time>2025-06-07T17:25:34.027Z</time>
      </trkpt>
      <trkpt lat="43.76334" lon="4.12836">
        <ele>74.96</ele>
        <time>2025-06-07T17:25:39.709Z</time>
      </trkpt>
      <trkpt lat="43.76335" lon="4.12825">
        <ele>76.61</ele>
        <time>2025-06-07T17:25:45.153Z</time>
      </trkpt>
      <trkpt lat="43.7634" lon="4.12817">
        <ele>74.78</ele>
        <time>2025-06-07T17:25:50.245Z</time>
      </trkpt>
      <trkpt lat="43.76343" lon="4.12809">
        <ele>73.8</ele>
        <time>2025-06-07T17:25:55.261Z</time>
      </trkpt>
      <trkpt lat="43.76347" lon="4.12799">
        <ele>74.34</ele>
        <time>2025-06-07T17:26:01.238Z</time>
      </trkpt>
      <trkpt lat="43.7635" lon="4.12793">
        <ele>73.87</ele>
        <time>2025-06-07T17:26:06.262Z</time>
      </trkpt>
      <trkpt lat="43.76349" lon="4.12786">
        <ele>72.55</ele>
        <time>2025-06-07T17:26:11.279Z</time>
      </trkpt>
      <trkpt lat="43.76349" lon="4.12779">
        <ele>72.3</ele>
        <time>2025-06-07T17:26:16.295Z</time>
      </trkpt>
      <trkpt lat="43.7635" lon="4.12777">
        <ele>70.81</ele>
        <time>2025-06-07T17:26:23.338Z</time>
      </trkpt>
      <trkpt lat="43.76356" lon="4.12772">
        <ele>71.49</ele>
        <time>2025-06-07T17:26:28.354Z</time>
      </trkpt>
      <trkpt lat="43.7636" lon="4.12766">
        <ele>70.41</ele>
        <time>2025-06-07T17:26:34.331Z</time>
      </trkpt>
      <trkpt lat="43.76361" lon="4.1276">
        <ele>71.55</ele>
        <time>2025-06-07T17:26:39.716Z</time>
      </trkpt>
      <trkpt lat="43.76362" lon="4.12751">
        <ele>68.28</ele>
        <time>2025-06-07T17:26:45.324Z</time>
      </trkpt>
      <trkpt lat="43.7636" lon="4.12744">
        <ele>68.27</ele>
        <time>2025-06-07T17:26:50.653Z</time>
      </trkpt>
      <trkpt lat="43.76365" lon="4.12736">
        <ele>66.78</ele>
        <time>2025-06-07T17:26:55.875Z</time>
      </trkpt>
      <trkpt lat="43.76368" lon="4.12731">
        <ele>66.63</ele>
        <time>2025-06-07T17:27:01.332Z</time>
      </trkpt>
      <trkpt lat="43.76366" lon="4.12722">
        <ele>66.49</ele>
        <time>2025-06-07T17:27:06.939Z</time>
      </trkpt>
      <trkpt lat="43.7637" lon="4.12716">
        <ele>65.61</ele>
        <time>2025-06-07T17:27:12.325Z</time>
      </trkpt>
      <trkpt lat="43.76375" lon="4.12714">
        <ele>64.35</ele>
        <time>2025-06-07T17:27:17.479Z</time>
      </trkpt>
      <trkpt lat="43.76378" lon="4.12722">
        <ele>63.57</ele>
        <time>2025-06-07T17:27:22.858Z</time>
      </trkpt>
      <trkpt lat="43.76381" lon="4.12728">
        <ele>65.43</ele>
        <time>2025-06-07T17:27:27.875Z</time>
      </trkpt>
      <trkpt lat="43.76384" lon="4.12736">
        <ele>66.29</ele>
        <time>2025-06-07T17:27:32.922Z</time>
      </trkpt>
      <trkpt lat="43.76387" lon="4.12746">
        <ele>63.08</ele>
        <time>2025-06-07T17:27:38.176Z</time>
      </trkpt>
      <trkpt lat="43.76389" lon="4.12756">
        <ele>65.7</ele>
        <time>2025-06-07T17:27:43.318Z</time>
      </trkpt>
      <trkpt lat="43.76391" lon="4.12766">
        <ele>65.32</ele>
        <time>2025-06-07T17:27:48.853Z</time>
      </trkpt>
      <trkpt lat="43.76392" lon="4.12774">
        <ele>64.78</ele>
        <time>2025-06-07T17:27:54.267Z</time>
      </trkpt>
      <trkpt lat="43.76396" lon="4.12782">
        <ele>66.5</ele>
        <time>2025-06-07T17:27:59.283Z</time>
      </trkpt>
      <trkpt lat="43.76397" lon="4.12791">
        <ele>67.16</ele>
        <time>2025-06-07T17:28:04.299Z</time>
      </trkpt>
      <trkpt lat="43.76397" lon="4.128">
        <ele>68</ele>
        <time>2025-06-07T17:28:09.353Z</time>
      </trkpt>
      <trkpt lat="43.764" lon="4.12809">
        <ele>69.1</ele>
        <time>2025-06-07T17:28:15.072Z</time>
      </trkpt>
      <trkpt lat="43.76402" lon="4.12818">
        <ele>67.4</ele>
        <time>2025-06-07T17:28:20.212Z</time>
      </trkpt>
      <trkpt lat="43.76404" lon="4.12827">
        <ele>69.24</ele>
        <time>2025-06-07T17:28:25.324Z</time>
      </trkpt>
      <trkpt lat="43.76403" lon="4.12836">
        <ele>69.73</ele>
        <time>2025-06-07T17:28:30.341Z</time>
      </trkpt>
      <trkpt lat="43.76405" lon="4.12843">
        <ele>69.78</ele>
        <time>2025-06-07T17:28:36.239Z</time>
      </trkpt>
      <trkpt lat="43.76407" lon="4.12851">
        <ele>70.42</ele>
        <time>2025-06-07T17:28:41.332Z</time>
      </trkpt>
      <trkpt lat="43.76407" lon="4.12862">
        <ele>69.57</ele>
        <time>2025-06-07T17:28:46.333Z</time>
      </trkpt>
      <trkpt lat="43.76403" lon="4.12875">
        <ele>68.73</ele>
        <time>2025-06-07T17:28:51.892Z</time>
      </trkpt>
      <trkpt lat="43.76401" lon="4.12887">
        <ele>67.81</ele>
        <time>2025-06-07T17:28:57.396Z</time>
      </trkpt>
      <trkpt lat="43.764" lon="4.12898">
        <ele>67.91</ele>
        <time>2025-06-07T17:29:02.816Z</time>
      </trkpt>
      <trkpt lat="43.76404" lon="4.12906">
        <ele>66.85</ele>
        <time>2025-06-07T17:29:08.333Z</time>
      </trkpt>
      <trkpt lat="43.76406" lon="4.12912">
        <ele>66.45</ele>
        <time>2025-06-07T17:29:13.759Z</time>
      </trkpt>
      <trkpt lat="43.76406" lon="4.12921">
        <ele>69.01</ele>
        <time>2025-06-07T17:29:19.219Z</time>
      </trkpt>
      <trkpt lat="43.76406" lon="4.1293">
        <ele>66.47</ele>
        <time>2025-06-07T17:29:25.302Z</time>
      </trkpt>
      <trkpt lat="43.76406" lon="4.12936">
        <ele>67.77</ele>
        <time>2025-06-07T17:29:30.835Z</time>
      </trkpt>
      <trkpt lat="43.76405" lon="4.12946">
        <ele>66.96</ele>
        <time>2025-06-07T17:29:36.295Z</time>
      </trkpt>
      <trkpt lat="43.76406" lon="4.12954">
        <ele>70.08</ele>
        <time>2025-06-07T17:29:41.321Z</time>
      </trkpt>
      <trkpt lat="43.76401" lon="4.12962">
        <ele>68.91</ele>
        <time>2025-06-07T17:29:46.533Z</time>
      </trkpt>
      <trkpt lat="43.764" lon="4.1297">
        <ele>69.62</ele>
        <time>2025-06-07T17:29:51.852Z</time>
      </trkpt>
      <trkpt lat="43.76403" lon="4.12977">
        <ele>69.08</ele>
        <time>2025-06-07T17:29:57.251Z</time>
      </trkpt>
      <trkpt lat="43.76404" lon="4.12987">
        <ele>72.76</ele>
        <time>2025-06-07T17:30:03.049Z</time>
      </trkpt>
      <trkpt lat="43.76407" lon="4.12993">
        <ele>77.97</ele>
        <time>2025-06-07T17:30:08.215Z</time>
      </trkpt>
      <trkpt lat="43.7641" lon="4.13">
        <ele>75.22</ele>
        <time>2025-06-07T17:30:13.269Z</time>
      </trkpt>
      <trkpt lat="43.76413" lon="4.13006">
        <ele>74.16</ele>
        <time>2025-06-07T17:30:18.775Z</time>
      </trkpt>
      <trkpt lat="43.76411" lon="4.13014">
        <ele>73.89</ele>
        <time>2025-06-07T17:30:24.092Z</time>
      </trkpt>
      <trkpt lat="43.76413" lon="4.13021">
        <ele>75.41</ele>
        <time>2025-06-07T17:30:29.127Z</time>
      </trkpt>
      <trkpt lat="43.76419" lon="4.13029">
        <ele>75.85</ele>
        <time>2025-06-07T17:30:34.933Z</time>
      </trkpt>
      <trkpt lat="43.76419" lon="4.13038">
        <ele>75.79</ele>
        <time>2025-06-07T17:30:40.332Z</time>
      </trkpt>
      <trkpt lat="43.76422" lon="4.13046">
        <ele>75.32</ele>
        <time>2025-06-07T17:30:45.829Z</time>
      </trkpt>
      <trkpt lat="43.76426" lon="4.13052">
        <ele>76.85</ele>
        <time>2025-06-07T17:30:51.049Z</time>
      </trkpt>
      <trkpt lat="43.76425" lon="4.13065">
        <ele>74.26</ele>
        <time>2025-06-07T17:30:56.634Z</time>
      </trkpt>
      <trkpt lat="43.76425" lon="4.13074">
        <ele>78.27</ele>
        <time>2025-06-07T17:31:01.650Z</time>
      </trkpt>
      <trkpt lat="43.76426" lon="4.13084">
        <ele>78.54</ele>
        <time>2025-06-07T17:31:06.933Z</time>
      </trkpt>
      <trkpt lat="43.76427" lon="4.13093">
        <ele>78.59</ele>
        <time>2025-06-07T17:31:12.528Z</time>
      </trkpt>
      <trkpt lat="43.76429" lon="4.13099">
        <ele>78.22</ele>
        <time>2025-06-07T17:31:17.552Z</time>
      </trkpt>
      <trkpt lat="43.76431" lon="4.13109">
        <ele>77.08</ele>
        <time>2025-06-07T17:31:22.889Z</time>
      </trkpt>
      <trkpt lat="43.76432" lon="4.13118">
        <ele>76.75</ele>
        <time>2025-06-07T17:31:28.611Z</time>
      </trkpt>
      <trkpt lat="43.76432" lon="4.13126">
        <ele>76.99</ele>
        <time>2025-06-07T17:31:33.829Z</time>
      </trkpt>
      <trkpt lat="43.76431" lon="4.13132">
        <ele>76.26</ele>
        <time>2025-06-07T17:31:38.871Z</time>
      </trkpt>
      <trkpt lat="43.76431" lon="4.1314">
        <ele>75.81</ele>
        <time>2025-06-07T17:31:44.031Z</time>
      </trkpt>
      <trkpt lat="43.76429" lon="4.13148">
        <ele>75.31</ele>
        <time>2025-06-07T17:31:49.080Z</time>
      </trkpt>
      <trkpt lat="43.76428" lon="4.13156">
        <ele>76.25</ele>
        <time>2025-06-07T17:31:54.095Z</time>
      </trkpt>
      <trkpt lat="43.76429" lon="4.13166">
        <ele>75.55</ele>
        <time>2025-06-07T17:31:59.111Z</time>
      </trkpt>
      <trkpt lat="43.76431" lon="4.13175">
        <ele>75.75</ele>
        <time>2025-06-07T17:32:04.128Z</time>
      </trkpt>
      <trkpt lat="43.76433" lon="4.13184">
        <ele>77.18</ele>
        <time>2025-06-07T17:32:09.547Z</time>
      </trkpt>
      <trkpt lat="43.76439" lon="4.13188">
        <ele>77.85</ele>
        <time>2025-06-07T17:32:15.229Z</time>
      </trkpt>
      <trkpt lat="43.76443" lon="4.13199">
        <ele>77.94</ele>
        <time>2025-06-07T17:32:21.294Z</time>
      </trkpt>
      <trkpt lat="43.76446" lon="4.13211">
        <ele>76.47</ele>
        <time>2025-06-07T17:32:27.296Z</time>
      </trkpt>
      <trkpt lat="43.76444" lon="4.13222">
        <ele>75.67</ele>
        <time>2025-06-07T17:32:32.670Z</time>
      </trkpt>
      <trkpt lat="43.76445" lon="4.13229">
        <ele>77.79</ele>
        <time>2025-06-07T17:32:38.087Z</time>
      </trkpt>
      <trkpt lat="43.76445" lon="4.13237">
        <ele>79.25</ele>
        <time>2025-06-07T17:32:43.305Z</time>
      </trkpt>
      <trkpt lat="43.76444" lon="4.1325">
        <ele>78.22</ele>
        <time>2025-06-07T17:32:49.151Z</time>
      </trkpt>
      <trkpt lat="43.76443" lon="4.13259">
        <ele>78.56</ele>
        <time>2025-06-07T17:32:54.247Z</time>
      </trkpt>
      <trkpt lat="43.76442" lon="4.13269">
        <ele>78.71</ele>
        <time>2025-06-07T17:32:59.929Z</time>
      </trkpt>
      <trkpt lat="43.76446" lon="4.13276">
        <ele>79.91</ele>
        <time>2025-06-07T17:33:05.212Z</time>
      </trkpt>
      <trkpt lat="43.76451" lon="4.13272">
        <ele>80.51</ele>
        <time>2025-06-07T17:33:10.714Z</time>
      </trkpt>
      <trkpt lat="43.76456" lon="4.13271">
        <ele>81.36</ele>
        <time>2025-06-07T17:33:16.072Z</time>
      </trkpt>
      <trkpt lat="43.76461" lon="4.13268">
        <ele>78.44</ele>
        <time>2025-06-07T17:33:21.299Z</time>
      </trkpt>
      <trkpt lat="43.76467" lon="4.13264">
        <ele>77.87</ele>
        <time>2025-06-07T17:33:26.315Z</time>
      </trkpt>
      <trkpt lat="43.76473" lon="4.13271">
        <ele>79.9</ele>
        <time>2025-06-07T17:33:32.292Z</time>
      </trkpt>
      <trkpt lat="43.76476" lon="4.13278">
        <ele>78.9</ele>
        <time>2025-06-07T17:33:37.308Z</time>
      </trkpt>
      <trkpt lat="43.76476" lon="4.13284">
        <ele>78.66</ele>
        <time>2025-06-07T17:33:42.324Z</time>
      </trkpt>
      <trkpt lat="43.76474" lon="4.13294">
        <ele>82.78</ele>
        <time>2025-06-07T17:33:48.190Z</time>
      </trkpt>
      <trkpt lat="43.76479" lon="4.13302">
        <ele>79.85</ele>
        <time>2025-06-07T17:33:53.213Z</time>
      </trkpt>
      <trkpt lat="43.76482" lon="4.13308">
        <ele>80.18</ele>
        <time>2025-06-07T17:33:58.226Z</time>
      </trkpt>
      <trkpt lat="43.76483" lon="4.13309">
        <ele>81.23</ele>
        <time>2025-06-07T17:34:03.413Z</time>
      </trkpt>
      <trkpt lat="43.76484" lon="4.13309">
        <ele>81.53</ele>
        <time>2025-06-07T17:34:14.212Z</time>
      </trkpt>
      <trkpt lat="43.76489" lon="4.1332">
        <ele>80.61</ele>
        <time>2025-06-07T17:34:19.449Z</time>
      </trkpt>
      <trkpt lat="43.76495" lon="4.13328">
        <ele>80.69</ele>
        <time>2025-06-07T17:34:24.652Z</time>
      </trkpt>
      <trkpt lat="43.76503" lon="4.13329">
        <ele>78.99</ele>
        <time>2025-06-07T17:34:29.998Z</time>
      </trkpt>
      <trkpt lat="43.76508" lon="4.13336">
        <ele>78.69</ele>
        <time>2025-06-07T17:34:35.253Z</time>
      </trkpt>
      <trkpt lat="43.76513" lon="4.13342">
        <ele>80.85</ele>
        <time>2025-06-07T17:34:40.572Z</time>
      </trkpt>
      <trkpt lat="43.7652" lon="4.13351">
        <ele>85.02</ele>
        <time>2025-06-07T17:34:46.280Z</time>
      </trkpt>
      <trkpt lat="43.76522" lon="4.13357">
        <ele>82.96</ele>
        <time>2025-06-07T17:34:51.296Z</time>
      </trkpt>
      <trkpt lat="43.76518" lon="4.13364">
        <ele>82.81</ele>
        <time>2025-06-07T17:34:56.312Z</time>
      </trkpt>
      <trkpt lat="43.76518" lon="4.13371">
        <ele>82.71</ele>
        <time>2025-06-07T17:35:01.328Z</time>
      </trkpt>
      <trkpt lat="43.76518" lon="4.13372">
        <ele>83.69</ele>
        <time>2025-06-07T17:35:06.409Z</time>
      </trkpt>
      <trkpt lat="43.76518" lon="4.13383">
        <ele>82.77</ele>
        <time>2025-06-07T17:35:11.986Z</time>
      </trkpt>
      <trkpt lat="43.76521" lon="4.13392">
        <ele>81.58</ele>
        <time>2025-06-07T17:35:17.152Z</time>
      </trkpt>
      <trkpt lat="43.76522" lon="4.13398">
        <ele>80.1</ele>
        <time>2025-06-07T17:35:22.186Z</time>
      </trkpt>
      <trkpt lat="43.76526" lon="4.13399">
        <ele>79.35</ele>
        <time>2025-06-07T17:35:27.263Z</time>
      </trkpt>
      <trkpt lat="43.76525" lon="4.13398">
        <ele>80.55</ele>
        <time>2025-06-07T17:35:32.279Z</time>
      </trkpt>
      <trkpt lat="43.76526" lon="4.13398">
        <ele>85.53</ele>
        <time>2025-06-07T17:35:39.216Z</time>
      </trkpt>
      <trkpt lat="43.76533" lon="4.13404">
        <ele>82.75</ele>
        <time>2025-06-07T17:35:44.626Z</time>
      </trkpt>
      <trkpt lat="43.76538" lon="4.13411">
        <ele>81.83</ele>
        <time>2025-06-07T17:35:49.730Z</time>
      </trkpt>
      <trkpt lat="43.76544" lon="4.13416">
        <ele>84.91</ele>
        <time>2025-06-07T17:35:55.332Z</time>
      </trkpt>
      <trkpt lat="43.76544" lon="4.1342">
        <ele>79.48</ele>
        <time>2025-06-07T17:36:00.938Z</time>
      </trkpt>
      <trkpt lat="43.76543" lon="4.13426">
        <ele>85.57</ele>
        <time>2025-06-07T17:36:05.980Z</time>
      </trkpt>
      <trkpt lat="43.76539" lon="4.13434">
        <ele>83.24</ele>
        <time>2025-06-07T17:36:11.094Z</time>
      </trkpt>
      <trkpt lat="43.76535" lon="4.13442">
        <ele>83.24</ele>
        <time>2025-06-07T17:36:16.252Z</time>
      </trkpt>
      <trkpt lat="43.76534" lon="4.13451">
        <ele>84.55</ele>
        <time>2025-06-07T17:36:21.267Z</time>
      </trkpt>
      <trkpt lat="43.76537" lon="4.13458">
        <ele>84.42</ele>
        <time>2025-06-07T17:36:26.596Z</time>
      </trkpt>
      <trkpt lat="43.76534" lon="4.13466">
        <ele>85.65</ele>
        <time>2025-06-07T17:36:31.933Z</time>
      </trkpt>
      <trkpt lat="43.76528" lon="4.13471">
        <ele>84.34</ele>
        <time>2025-06-07T17:36:36.968Z</time>
      </trkpt>
      <trkpt lat="43.76522" lon="4.13476">
        <ele>86.34</ele>
        <time>2025-06-07T17:36:42.472Z</time>
      </trkpt>
      <trkpt lat="43.76518" lon="4.13486">
        <ele>89.62</ele>
        <time>2025-06-07T17:36:48.308Z</time>
      </trkpt>
      <trkpt lat="43.76514" lon="4.13493">
        <ele>86.05</ele>
        <time>2025-06-07T17:36:53.865Z</time>
      </trkpt>
      <trkpt lat="43.7651" lon="4.13502">
        <ele>85.48</ele>
        <time>2025-06-07T17:36:59.326Z</time>
      </trkpt>
      <trkpt lat="43.76507" lon="4.13509">
        <ele>85.09</ele>
        <time>2025-06-07T17:37:04.705Z</time>
      </trkpt>
      <trkpt lat="43.76505" lon="4.13518">
        <ele>84.24</ele>
        <time>2025-06-07T17:37:09.786Z</time>
      </trkpt>
      <trkpt lat="43.76502" lon="4.13527">
        <ele>83.87</ele>
        <time>2025-06-07T17:37:15.150Z</time>
      </trkpt>
      <trkpt lat="43.76501" lon="4.13535">
        <ele>83.7</ele>
        <time>2025-06-07T17:37:20.288Z</time>
      </trkpt>
      <trkpt lat="43.76498" lon="4.13542">
        <ele>83.27</ele>
        <time>2025-06-07T17:37:25.289Z</time>
      </trkpt>
      <trkpt lat="43.76494" lon="4.13551">
        <ele>83.07</ele>
        <time>2025-06-07T17:37:30.810Z</time>
      </trkpt>
      <trkpt lat="43.76491" lon="4.13562">
        <ele>82.9</ele>
        <time>2025-06-07T17:37:36.307Z</time>
      </trkpt>
      <trkpt lat="43.76487" lon="4.13567">
        <ele>81.88</ele>
        <time>2025-06-07T17:37:42.133Z</time>
      </trkpt>
      <trkpt lat="43.76486" lon="4.13576">
        <ele>81.38</ele>
        <time>2025-06-07T17:37:47.709Z</time>
      </trkpt>
      <trkpt lat="43.76484" lon="4.13585">
        <ele>81.83</ele>
        <time>2025-06-07T17:37:53.265Z</time>
      </trkpt>
      <trkpt lat="43.7648" lon="4.13595">
        <ele>81.03</ele>
        <time>2025-06-07T17:37:58.853Z</time>
      </trkpt>
      <trkpt lat="43.76478" lon="4.13604">
        <ele>80.73</ele>
        <time>2025-06-07T17:38:04.330Z</time>
      </trkpt>
      <trkpt lat="43.76476" lon="4.13612">
        <ele>79.48</ele>
        <time>2025-06-07T17:38:09.827Z</time>
      </trkpt>
      <trkpt lat="43.76476" lon="4.13619">
        <ele>78.24</ele>
        <time>2025-06-07T17:38:15.572Z</time>
      </trkpt>
      <trkpt lat="43.76474" lon="4.13625">
        <ele>78.21</ele>
        <time>2025-06-07T17:38:21.227Z</time>
      </trkpt>
      <trkpt lat="43.76474" lon="4.13623">
        <ele>78.98</ele>
        <time>2025-06-07T17:38:26.728Z</time>
      </trkpt>
      <trkpt lat="43.76478" lon="4.13613">
        <ele>80.32</ele>
        <time>2025-06-07T17:38:31.935Z</time>
      </trkpt>
      <trkpt lat="43.76483" lon="4.13607">
        <ele>79.12</ele>
        <time>2025-06-07T17:38:37.050Z</time>
      </trkpt>
      <trkpt lat="43.76488" lon="4.1361">
        <ele>80.3</ele>
        <time>2025-06-07T17:38:42.252Z</time>
      </trkpt>
      <trkpt lat="43.76494" lon="4.13606">
        <ele>74.62</ele>
        <time>2025-06-07T17:38:47.652Z</time>
      </trkpt>
      <trkpt lat="43.76501" lon="4.13607">
        <ele>76.55</ele>
        <time>2025-06-07T17:38:52.828Z</time>
      </trkpt>
      <trkpt lat="43.76506" lon="4.13616">
        <ele>77.03</ele>
        <time>2025-06-07T17:38:58.230Z</time>
      </trkpt>
      <trkpt lat="43.76512" lon="4.13623">
        <ele>62.13</ele>
        <time>2025-06-07T17:39:03.840Z</time>
      </trkpt>
      <trkpt lat="43.76516" lon="4.13628">
        <ele>81.04</ele>
        <time>2025-06-07T17:39:09.290Z</time>
      </trkpt>
      <trkpt lat="43.76525" lon="4.13625">
        <ele>77.4</ele>
        <time>2025-06-07T17:39:14.560Z</time>
      </trkpt>
      <trkpt lat="43.76533" lon="4.13625">
        <ele>77.64</ele>
        <time>2025-06-07T17:39:19.937Z</time>
      </trkpt>
      <trkpt lat="43.76539" lon="4.13625">
        <ele>76.86</ele>
        <time>2025-06-07T17:39:25.025Z</time>
      </trkpt>
      <trkpt lat="43.76546" lon="4.13629">
        <ele>77.21</ele>
        <time>2025-06-07T17:39:30.604Z</time>
      </trkpt>
      <trkpt lat="43.76554" lon="4.13628">
        <ele>76.77</ele>
        <time>2025-06-07T17:39:36.260Z</time>
      </trkpt>
      <trkpt lat="43.7656" lon="4.13628">
        <ele>75.53</ele>
        <time>2025-06-07T17:39:41.307Z</time>
      </trkpt>
      <trkpt lat="43.76565" lon="4.13635">
        <ele>76.21</ele>
        <time>2025-06-07T17:39:46.750Z</time>
      </trkpt>
      <trkpt lat="43.7657" lon="4.13628">
        <ele>75.84</ele>
        <time>2025-06-07T17:39:52.019Z</time>
      </trkpt>
      <trkpt lat="43.76576" lon="4.13625">
        <ele>77.75</ele>
        <time>2025-06-07T17:39:57.316Z</time>
      </trkpt>
      <trkpt lat="43.76581" lon="4.13624">
        <ele>76.23</ele>
        <time>2025-06-07T17:40:02.492Z</time>
      </trkpt>
      <trkpt lat="43.76589" lon="4.13626">
        <ele>76.83</ele>
        <time>2025-06-07T17:40:08.000Z</time>
      </trkpt>
      <trkpt lat="43.76594" lon="4.13633">
        <ele>76.28</ele>
        <time>2025-06-07T17:40:13.325Z</time>
      </trkpt>
      <trkpt lat="43.76602" lon="4.13635">
        <ele>76.92</ele>
        <time>2025-06-07T17:40:18.341Z</time>
      </trkpt>
      <trkpt lat="43.7661" lon="4.13638">
        <ele>76.92</ele>
        <time>2025-06-07T17:40:23.358Z</time>
      </trkpt>
      <trkpt lat="43.76611" lon="4.13647">
        <ele>78.45</ele>
        <time>2025-06-07T17:40:28.659Z</time>
      </trkpt>
      <trkpt lat="43.76608" lon="4.13653">
        <ele>76.63</ele>
        <time>2025-06-07T17:40:33.782Z</time>
      </trkpt>
      <trkpt lat="43.76602" lon="4.1366">
        <ele>75.78</ele>
        <time>2025-06-07T17:40:38.940Z</time>
      </trkpt>
      <trkpt lat="43.76599" lon="4.13668">
        <ele>75.93</ele>
        <time>2025-06-07T17:40:43.983Z</time>
      </trkpt>
      <trkpt lat="43.76598" lon="4.13677">
        <ele>78.04</ele>
        <time>2025-06-07T17:40:49.265Z</time>
      </trkpt>
      <trkpt lat="43.76595" lon="4.13686">
        <ele>77.68</ele>
        <time>2025-06-07T17:40:55.020Z</time>
      </trkpt>
      <trkpt lat="43.76594" lon="4.13693">
        <ele>70.45</ele>
        <time>2025-06-07T17:41:00.283Z</time>
      </trkpt>
      <trkpt lat="43.76594" lon="4.13699">
        <ele>77.51</ele>
        <time>2025-06-07T17:41:05.299Z</time>
      </trkpt>
      <trkpt lat="43.76592" lon="4.13707">
        <ele>74.91</ele>
        <time>2025-06-07T17:41:10.316Z</time>
      </trkpt>
      <trkpt lat="43.76589" lon="4.13714">
        <ele>74.51</ele>
        <time>2025-06-07T17:41:15.331Z</time>
      </trkpt>
      <trkpt lat="43.76589" lon="4.13723">
        <ele>75.7</ele>
        <time>2025-06-07T17:41:21.308Z</time>
      </trkpt>
      <trkpt lat="43.76589" lon="4.13725">
        <ele>72.45</ele>
        <time>2025-06-07T17:41:26.601Z</time>
      </trkpt>
      <trkpt lat="43.7659" lon="4.13736">
        <ele>70.98</ele>
        <time>2025-06-07T17:41:32.125Z</time>
      </trkpt>
      <trkpt lat="43.76589" lon="4.13744">
        <ele>77.66</ele>
        <time>2025-06-07T17:41:37.210Z</time>
      </trkpt>
      <trkpt lat="43.76586" lon="4.13748">
        <ele>75.39</ele>
        <time>2025-06-07T17:41:42.226Z</time>
      </trkpt>
      <trkpt lat="43.76581" lon="4.13752">
        <ele>72.44</ele>
        <time>2025-06-07T17:41:47.242Z</time>
      </trkpt>
      <trkpt lat="43.76576" lon="4.13758">
        <ele>74.38</ele>
        <time>2025-06-07T17:41:52.487Z</time>
      </trkpt>
      <trkpt lat="43.76571" lon="4.13762">
        <ele>73.72</ele>
        <time>2025-06-07T17:41:57.729Z</time>
      </trkpt>
      <trkpt lat="43.76567" lon="4.1377">
        <ele>74.22</ele>
        <time>2025-06-07T17:42:02.817Z</time>
      </trkpt>
      <trkpt lat="43.76567" lon="4.13779">
        <ele>71.38</ele>
        <time>2025-06-07T17:42:07.958Z</time>
      </trkpt>
      <trkpt lat="43.76564" lon="4.13788">
        <ele>71.34</ele>
        <time>2025-06-07T17:42:13.055Z</time>
      </trkpt>
      <trkpt lat="43.76563" lon="4.13797">
        <ele>73.33</ele>
        <time>2025-06-07T17:42:18.300Z</time>
      </trkpt>
      <trkpt lat="43.7656" lon="4.13805">
        <ele>74.86</ele>
        <time>2025-06-07T17:42:24.313Z</time>
      </trkpt>
      <trkpt lat="43.76556" lon="4.1381">
        <ele>76</ele>
        <time>2025-06-07T17:42:29.374Z</time>
      </trkpt>
      <trkpt lat="43.76552" lon="4.13817">
        <ele>75.17</ele>
        <time>2025-06-07T17:42:34.790Z</time>
      </trkpt>
      <trkpt lat="43.76549" lon="4.13825">
        <ele>74.99</ele>
        <time>2025-06-07T17:42:40.055Z</time>
      </trkpt>
      <trkpt lat="43.76548" lon="4.13835">
        <ele>76.11</ele>
        <time>2025-06-07T17:42:45.074Z</time>
      </trkpt>
      <trkpt lat="43.76549" lon="4.13846">
        <ele>71.36</ele>
        <time>2025-06-07T17:42:50.612Z</time>
      </trkpt>
      <trkpt lat="43.7655" lon="4.13852">
        <ele>78.47</ele>
        <time>2025-06-07T17:42:55.762Z</time>
      </trkpt>
      <trkpt lat="43.76554" lon="4.13856">
        <ele>72.59</ele>
        <time>2025-06-07T17:43:01.310Z</time>
      </trkpt>
      <trkpt lat="43.76553" lon="4.13865">
        <ele>83.04</ele>
        <time>2025-06-07T17:43:06.897Z</time>
      </trkpt>
      <trkpt lat="43.76555" lon="4.13876">
        <ele>76.39</ele>
        <time>2025-06-07T17:43:12.491Z</time>
      </trkpt>
      <trkpt lat="43.76559" lon="4.13879">
        <ele>81.8</ele>
        <time>2025-06-07T17:43:17.569Z</time>
      </trkpt>
      <trkpt lat="43.76563" lon="4.13883">
        <ele>80.65</ele>
        <time>2025-06-07T17:43:22.729Z</time>
      </trkpt>
      <trkpt lat="43.76565" lon="4.13891">
        <ele>83.31</ele>
        <time>2025-06-07T17:43:27.851Z</time>
      </trkpt>
      <trkpt lat="43.76561" lon="4.13898">
        <ele>81.12</ele>
        <time>2025-06-07T17:43:33.071Z</time>
      </trkpt>
      <trkpt lat="43.76558" lon="4.13905">
        <ele>81.92</ele>
        <time>2025-06-07T17:43:38.230Z</time>
      </trkpt>
      <trkpt lat="43.76558" lon="4.13915">
        <ele>82.43</ele>
        <time>2025-06-07T17:43:43.931Z</time>
      </trkpt>
      <trkpt lat="43.76556" lon="4.13924">
        <ele>82.7</ele>
        <time>2025-06-07T17:43:49.336Z</time>
      </trkpt>
      <trkpt lat="43.76555" lon="4.13935">
        <ele>81.84</ele>
        <time>2025-06-07T17:43:55.343Z</time>
      </trkpt>
      <trkpt lat="43.76553" lon="4.13943">
        <ele>82.13</ele>
        <time>2025-06-07T17:44:01.068Z</time>
      </trkpt>
      <trkpt lat="43.76557" lon="4.13949">
        <ele>83.33</ele>
        <time>2025-06-07T17:44:06.468Z</time>
      </trkpt>
      <trkpt lat="43.76558" lon="4.13958">
        <ele>83.94</ele>
        <time>2025-06-07T17:44:12.168Z</time>
      </trkpt>
      <trkpt lat="43.76555" lon="4.13965">
        <ele>79.05</ele>
        <time>2025-06-07T17:44:17.256Z</time>
      </trkpt>
      <trkpt lat="43.76559" lon="4.13968">
        <ele>83.97</ele>
        <time>2025-06-07T17:44:22.352Z</time>
      </trkpt>
      <trkpt lat="43.76559" lon="4.13977">
        <ele>83.02</ele>
        <time>2025-06-07T17:44:28.035Z</time>
      </trkpt>
      <trkpt lat="43.76556" lon="4.13983">
        <ele>81.73</ele>
        <time>2025-06-07T17:44:33.307Z</time>
      </trkpt>
      <trkpt lat="43.76553" lon="4.13989">
        <ele>81.24</ele>
        <time>2025-06-07T17:44:38.323Z</time>
      </trkpt>
      <trkpt lat="43.76547" lon="4.13993">
        <ele>80.81</ele>
        <time>2025-06-07T17:44:43.849Z</time>
      </trkpt>
      <trkpt lat="43.76546" lon="4.14002">
        <ele>79.54</ele>
        <time>2025-06-07T17:44:49.131Z</time>
      </trkpt>
      <trkpt lat="43.76546" lon="4.14011">
        <ele>79.64</ele>
        <time>2025-06-07T17:44:54.225Z</time>
      </trkpt>
      <trkpt lat="43.76545" lon="4.14018">
        <ele>79.02</ele>
        <time>2025-06-07T17:44:59.430Z</time>
      </trkpt>
      <trkpt lat="43.76542" lon="4.14027">
        <ele>76.95</ele>
        <time>2025-06-07T17:45:04.492Z</time>
      </trkpt>
      <trkpt lat="43.76537" lon="4.14032">
        <ele>80.39</ele>
        <time>2025-06-07T17:45:09.569Z</time>
      </trkpt>
      <trkpt lat="43.76532" lon="4.14036">
        <ele>78.39</ele>
        <time>2025-06-07T17:45:14.816Z</time>
      </trkpt>
      <trkpt lat="43.76527" lon="4.14043">
        <ele>78.2</ele>
        <time>2025-06-07T17:45:20.012Z</time>
      </trkpt>
      <trkpt lat="43.76523" lon="4.14043">
        <ele>74.96</ele>
        <time>2025-06-07T17:45:25.282Z</time>
      </trkpt>
      <trkpt lat="43.76516" lon="4.14042">
        <ele>75.39</ele>
        <time>2025-06-07T17:45:30.477Z</time>
      </trkpt>
      <trkpt lat="43.76509" lon="4.14046">
        <ele>76.24</ele>
        <time>2025-06-07T17:45:36.274Z</time>
      </trkpt>
      <trkpt lat="43.76506" lon="4.14054">
        <ele>75.66</ele>
        <time>2025-06-07T17:45:41.532Z</time>
      </trkpt>
      <trkpt lat="43.76499" lon="4.14054">
        <ele>74.93</ele>
        <time>2025-06-07T17:45:47.173Z</time>
      </trkpt>
      <trkpt lat="43.76492" lon="4.14054">
        <ele>75.12</ele>
        <time>2025-06-07T17:45:52.283Z</time>
      </trkpt>
      <trkpt lat="43.76485" lon="4.14057">
        <ele>74.54</ele>
        <time>2025-06-07T17:45:57.310Z</time>
      </trkpt>
      <trkpt lat="43.76479" lon="4.1406">
        <ele>72.87</ele>
        <time>2025-06-07T17:46:02.315Z</time>
      </trkpt>
      <trkpt lat="43.76477" lon="4.14067">
        <ele>73.94</ele>
        <time>2025-06-07T17:46:07.599Z</time>
      </trkpt>
      <trkpt lat="43.76475" lon="4.14073">
        <ele>71.36</ele>
        <time>2025-06-07T17:46:13.196Z</time>
      </trkpt>
      <trkpt lat="43.76474" lon="4.14082">
        <ele>73.08</ele>
        <time>2025-06-07T17:46:18.317Z</time>
      </trkpt>
      <trkpt lat="43.76472" lon="4.14092">
        <ele>71.73</ele>
        <time>2025-06-07T17:46:23.815Z</time>
      </trkpt>
      <trkpt lat="43.7647" lon="4.14101">
        <ele>73.65</ele>
        <time>2025-06-07T17:46:29.043Z</time>
      </trkpt>
      <trkpt lat="43.76467" lon="4.14108">
        <ele>77.52</ele>
        <time>2025-06-07T17:46:34.489Z</time>
      </trkpt>
      <trkpt lat="43.76461" lon="4.14111">
        <ele>74.29</ele>
        <time>2025-06-07T17:46:40.081Z</time>
      </trkpt>
      <trkpt lat="43.76456" lon="4.14117">
        <ele>75.14</ele>
        <time>2025-06-07T17:46:46.321Z</time>
      </trkpt>
      <trkpt lat="43.76452" lon="4.14123">
        <ele>77.42</ele>
        <time>2025-06-07T17:46:51.659Z</time>
      </trkpt>
      <trkpt lat="43.76451" lon="4.14132">
        <ele>76.97</ele>
        <time>2025-06-07T17:46:56.765Z</time>
      </trkpt>
      <trkpt lat="43.76454" lon="4.14142">
        <ele>77.22</ele>
        <time>2025-06-07T17:47:02.085Z</time>
      </trkpt>
      <trkpt lat="43.76459" lon="4.14146">
        <ele>76.97</ele>
        <time>2025-06-07T17:47:07.251Z</time>
      </trkpt>
      <trkpt lat="43.76464" lon="4.14151">
        <ele>73.57</ele>
        <time>2025-06-07T17:47:12.266Z</time>
      </trkpt>
      <trkpt lat="43.76466" lon="4.14157">
        <ele>73.93</ele>
        <time>2025-06-07T17:47:17.280Z</time>
      </trkpt>
      <trkpt lat="43.76471" lon="4.1416">
        <ele>77.59</ele>
        <time>2025-06-07T17:47:22.530Z</time>
      </trkpt>
      <trkpt lat="43.76475" lon="4.14163">
        <ele>64.4</ele>
        <time>2025-06-07T17:47:27.556Z</time>
      </trkpt>
      <trkpt lat="43.7648" lon="4.1417">
        <ele>77.74</ele>
        <time>2025-06-07T17:47:32.972Z</time>
      </trkpt>
      <trkpt lat="43.76484" lon="4.14179">
        <ele>72.52</ele>
        <time>2025-06-07T17:47:38.592Z</time>
      </trkpt>
      <trkpt lat="43.76487" lon="4.14185">
        <ele>71.2</ele>
        <time>2025-06-07T17:47:44.280Z</time>
      </trkpt>
      <trkpt lat="43.76491" lon="4.14187">
        <ele>69.12</ele>
        <time>2025-06-07T17:47:49.483Z</time>
      </trkpt>
      <trkpt lat="43.76496" lon="4.14182">
        <ele>68.46</ele>
        <time>2025-06-07T17:47:54.849Z</time>
      </trkpt>
      <trkpt lat="43.76503" lon="4.14193">
        <ele>66.72</ele>
        <time>2025-06-07T17:48:00.051Z</time>
      </trkpt>
      <trkpt lat="43.76505" lon="4.142">
        <ele>65.41</ele>
        <time>2025-06-07T17:48:05.351Z</time>
      </trkpt>
      <trkpt lat="43.76508" lon="4.14202">
        <ele>64.09</ele>
        <time>2025-06-07T17:48:10.475Z</time>
      </trkpt>
      <trkpt lat="43.76512" lon="4.14205">
        <ele>63.43</ele>
        <time>2025-06-07T17:48:15.970Z</time>
      </trkpt>
      <trkpt lat="43.76517" lon="4.14211">
        <ele>62.4</ele>
        <time>2025-06-07T17:48:21.133Z</time>
      </trkpt>
      <trkpt lat="43.7652" lon="4.14219">
        <ele>61.25</ele>
        <time>2025-06-07T17:48:26.731Z</time>
      </trkpt>
      <trkpt lat="43.76523" lon="4.14228">
        <ele>60.61</ele>
        <time>2025-06-07T17:48:32.310Z</time>
      </trkpt>
      <trkpt lat="43.76527" lon="4.14234">
        <ele>60.21</ele>
        <time>2025-06-07T17:48:37.321Z</time>
      </trkpt>
      <trkpt lat="43.76531" lon="4.14242">
        <ele>59.24</ele>
        <time>2025-06-07T17:48:43.150Z</time>
      </trkpt>
      <trkpt lat="43.76531" lon="4.14248">
        <ele>57.38</ele>
        <time>2025-06-07T17:48:48.234Z</time>
      </trkpt>
      <trkpt lat="43.76536" lon="4.14257">
        <ele>56.27</ele>
        <time>2025-06-07T17:48:53.891Z</time>
      </trkpt>
      <trkpt lat="43.76539" lon="4.14267">
        <ele>56.06</ele>
        <time>2025-06-07T17:48:59.211Z</time>
      </trkpt>
      <trkpt lat="43.76544" lon="4.14272">
        <ele>55.34</ele>
        <time>2025-06-07T17:49:04.321Z</time>
      </trkpt>
      <trkpt lat="43.76546" lon="4.14279">
        <ele>54.63</ele>
        <time>2025-06-07T17:49:09.337Z</time>
      </trkpt>
      <trkpt lat="43.76545" lon="4.14288">
        <ele>54.74</ele>
        <time>2025-06-07T17:49:15.313Z</time>
      </trkpt>
      <trkpt lat="43.76543" lon="4.14286">
        <ele>48.56</ele>
        <time>2025-06-07T17:49:20.829Z</time>
      </trkpt>
      <trkpt lat="43.76543" lon="4.1429">
        <ele>53.33</ele>
        <time>2025-06-07T17:49:26.192Z</time>
      </trkpt>
      <trkpt lat="43.76542" lon="4.14291">
        <ele>50.27</ele>
        <time>2025-06-07T17:49:31.832Z</time>
      </trkpt>
      <trkpt lat="43.76539" lon="4.14293">
        <ele>52.86</ele>
        <time>2025-06-07T17:49:36.857Z</time>
      </trkpt>
      <trkpt lat="43.76539" lon="4.14297">
        <ele>50.44</ele>
        <time>2025-06-07T17:49:42.315Z</time>
      </trkpt>
      <trkpt lat="43.76542" lon="4.14306">
        <ele>49.04</ele>
        <time>2025-06-07T17:49:47.493Z</time>
      </trkpt>
      <trkpt lat="43.76523" lon="4.1432">
        <ele>50.34</ele>
        <time>2025-06-07T17:49:53.255Z</time>
      </trkpt>
      <trkpt lat="43.7652" lon="4.14324">
        <ele>52.42</ele>
        <time>2025-06-07T17:49:58.322Z</time>
      </trkpt>
      <trkpt lat="43.76524" lon="4.1432">
        <ele>50.21</ele>
        <time>2025-06-07T17:50:03.473Z</time>
      </trkpt>
      <trkpt lat="43.76529" lon="4.1431">
        <ele>52.8</ele>
        <time>2025-06-07T17:50:09.213Z</time>
      </trkpt>
      <trkpt lat="43.76532" lon="4.14302">
        <ele>50.04</ele>
        <time>2025-06-07T17:50:14.330Z</time>
      </trkpt>
      <trkpt lat="43.76533" lon="4.14293">
        <ele>50.06</ele>
        <time>2025-06-07T17:50:19.651Z</time>
      </trkpt>
      <trkpt lat="43.76538" lon="4.14288">
        <ele>51.32</ele>
        <time>2025-06-07T17:50:24.812Z</time>
      </trkpt>
      <trkpt lat="43.76544" lon="4.14285">
        <ele>51.59</ele>
        <time>2025-06-07T17:50:30.339Z</time>
      </trkpt>
      <trkpt lat="43.76549" lon="4.1429">
        <ele>52.38</ele>
        <time>2025-06-07T17:50:35.994Z</time>
      </trkpt>
      <trkpt lat="43.76555" lon="4.14294">
        <ele>51.69</ele>
        <time>2025-06-07T17:50:41.224Z</time>
      </trkpt>
      <trkpt lat="43.76557" lon="4.14301">
        <ele>53.06</ele>
        <time>2025-06-07T17:50:46.346Z</time>
      </trkpt>
      <trkpt lat="43.76563" lon="4.14301">
        <ele>49.84</ele>
        <time>2025-06-07T17:50:51.568Z</time>
      </trkpt>
      <trkpt lat="43.76567" lon="4.143">
        <ele>52.19</ele>
        <time>2025-06-07T17:50:57.111Z</time>
      </trkpt>
      <trkpt lat="43.76571" lon="4.14294">
        <ele>51.89</ele>
        <time>2025-06-07T17:51:02.354Z</time>
      </trkpt>
      <trkpt lat="43.76576" lon="4.14286">
        <ele>52.49</ele>
        <time>2025-06-07T17:51:08.110Z</time>
      </trkpt>
      <trkpt lat="43.76577" lon="4.14278">
        <ele>60.05</ele>
        <time>2025-06-07T17:51:13.355Z</time>
      </trkpt>
      <trkpt lat="43.76582" lon="4.14273">
        <ele>54.32</ele>
        <time>2025-06-07T17:51:19.331Z</time>
      </trkpt>
      <trkpt lat="43.76585" lon="4.14266">
        <ele>50.06</ele>
        <time>2025-06-07T17:51:24.670Z</time>
      </trkpt>
      <trkpt lat="43.76587" lon="4.14257">
        <ele>53.2</ele>
        <time>2025-06-07T17:51:29.908Z</time>
      </trkpt>
      <trkpt lat="43.7659" lon="4.14247">
        <ele>59.69</ele>
        <time>2025-06-07T17:51:35.339Z</time>
      </trkpt>
      <trkpt lat="43.76594" lon="4.14241">
        <ele>57.06</ele>
        <time>2025-06-07T17:51:41.209Z</time>
      </trkpt>
      <trkpt lat="43.766" lon="4.14236">
        <ele>56.68</ele>
        <time>2025-06-07T17:51:46.225Z</time>
      </trkpt>
      <trkpt lat="43.76609" lon="4.14232">
        <ele>57.43</ele>
        <time>2025-06-07T17:51:51.767Z</time>
      </trkpt>
      <trkpt lat="43.76609" lon="4.14224">
        <ele>56.95</ele>
        <time>2025-06-07T17:51:56.829Z</time>
      </trkpt>
      <trkpt lat="43.76611" lon="4.14214">
        <ele>57.76</ele>
        <time>2025-06-07T17:52:02.339Z</time>
      </trkpt>
      <trkpt lat="43.76613" lon="4.14207">
        <ele>58.69</ele>
        <time>2025-06-07T17:52:07.782Z</time>
      </trkpt>
      <trkpt lat="43.76616" lon="4.142">
        <ele>58.84</ele>
        <time>2025-06-07T17:52:12.798Z</time>
      </trkpt>
      <trkpt lat="43.7662" lon="4.14196">
        <ele>56.51</ele>
        <time>2025-06-07T17:52:18.241Z</time>
      </trkpt>
      <trkpt lat="43.76624" lon="4.14195">
        <ele>57.17</ele>
        <time>2025-06-07T17:52:23.256Z</time>
      </trkpt>
      <trkpt lat="43.7663" lon="4.14184">
        <ele>59.75</ele>
        <time>2025-06-07T17:52:28.836Z</time>
      </trkpt>
      <trkpt lat="43.76632" lon="4.14173">
        <ele>59.2</ele>
        <time>2025-06-07T17:52:33.870Z</time>
      </trkpt>
      <trkpt lat="43.76635" lon="4.14164">
        <ele>58.6</ele>
        <time>2025-06-07T17:52:39.265Z</time>
      </trkpt>
      <trkpt lat="43.76636" lon="4.14156">
        <ele>63.81</ele>
        <time>2025-06-07T17:52:44.656Z</time>
      </trkpt>
      <trkpt lat="43.76634" lon="4.14147">
        <ele>63.93</ele>
        <time>2025-06-07T17:52:50.174Z</time>
      </trkpt>
      <trkpt lat="43.76636" lon="4.1414">
        <ele>64.88</ele>
        <time>2025-06-07T17:52:55.272Z</time>
      </trkpt>
      <trkpt lat="43.76637" lon="4.14134">
        <ele>66.68</ele>
        <time>2025-06-07T17:53:01.215Z</time>
      </trkpt>
      <trkpt lat="43.76638" lon="4.14129">
        <ele>64.35</ele>
        <time>2025-06-07T17:53:06.264Z</time>
      </trkpt>
      <trkpt lat="43.76641" lon="4.14128">
        <ele>63.34</ele>
        <time>2025-06-07T17:53:11.279Z</time>
      </trkpt>
      <trkpt lat="43.76642" lon="4.14118">
        <ele>67.48</ele>
        <time>2025-06-07T17:53:16.874Z</time>
      </trkpt>
      <trkpt lat="43.76645" lon="4.14113">
        <ele>63.79</ele>
        <time>2025-06-07T17:53:22.271Z</time>
      </trkpt>
      <trkpt lat="43.76646" lon="4.14106">
        <ele>64.03</ele>
        <time>2025-06-07T17:53:27.287Z</time>
      </trkpt>
      <trkpt lat="43.76643" lon="4.141">
        <ele>67.67</ele>
        <time>2025-06-07T17:53:32.304Z</time>
      </trkpt>
      <trkpt lat="43.76644" lon="4.14095">
        <ele>67.21</ele>
        <time>2025-06-07T17:53:37.319Z</time>
      </trkpt>
      <trkpt lat="43.76647" lon="4.14087">
        <ele>67.58</ele>
        <time>2025-06-07T17:53:43.049Z</time>
      </trkpt>
      <trkpt lat="43.76648" lon="4.1408">
        <ele>70.37</ele>
        <time>2025-06-07T17:53:48.312Z</time>
      </trkpt>
      <trkpt lat="43.76649" lon="4.14074">
        <ele>70.91</ele>
        <time>2025-06-07T17:53:54.288Z</time>
      </trkpt>
      <trkpt lat="43.76646" lon="4.14068">
        <ele>70.49</ele>
        <time>2025-06-07T17:53:59.476Z</time>
      </trkpt>
      <trkpt lat="43.76642" lon="4.14061">
        <ele>70.39</ele>
        <time>2025-06-07T17:54:04.876Z</time>
      </trkpt>
      <trkpt lat="43.76637" lon="4.14057">
        <ele>70.46</ele>
        <time>2025-06-07T17:54:10.288Z</time>
      </trkpt>
      <trkpt lat="43.76636" lon="4.14051">
        <ele>70.78</ele>
        <time>2025-06-07T17:54:15.750Z</time>
      </trkpt>
      <trkpt lat="43.76635" lon="4.14042">
        <ele>72.23</ele>
        <time>2025-06-07T17:54:20.855Z</time>
      </trkpt>
      <trkpt lat="43.76628" lon="4.14041">
        <ele>70.54</ele>
        <time>2025-06-07T17:54:25.915Z</time>
      </trkpt>
      <trkpt lat="43.76622" lon="4.14042">
        <ele>72.5</ele>
        <time>2025-06-07T17:54:30.991Z</time>
      </trkpt>
      <trkpt lat="43.76619" lon="4.14035">
        <ele>75.44</ele>
        <time>2025-06-07T17:54:36.335Z</time>
      </trkpt>
      <trkpt lat="43.76613" lon="4.14033">
        <ele>73.41</ele>
        <time>2025-06-07T17:54:42.190Z</time>
      </trkpt>
      <trkpt lat="43.76608" lon="4.14029">
        <ele>77.48</ele>
        <time>2025-06-07T17:54:48.286Z</time>
      </trkpt>
      <trkpt lat="43.76601" lon="4.14025">
        <ele>76.14</ele>
        <time>2025-06-07T17:54:53.794Z</time>
      </trkpt>
      <trkpt lat="43.76595" lon="4.14027">
        <ele>78.37</ele>
        <time>2025-06-07T17:54:59.129Z</time>
      </trkpt>
      <trkpt lat="43.7659" lon="4.14031">
        <ele>81.38</ele>
        <time>2025-06-07T17:55:04.294Z</time>
      </trkpt>
      <trkpt lat="43.76585" lon="4.1403">
        <ele>81.63</ele>
        <time>2025-06-07T17:55:09.655Z</time>
      </trkpt>
      <trkpt lat="43.76581" lon="4.14026">
        <ele>80.82</ele>
        <time>2025-06-07T17:55:14.776Z</time>
      </trkpt>
      <trkpt lat="43.76579" lon="4.14021">
        <ele>79.81</ele>
        <time>2025-06-07T17:55:20.092Z</time>
      </trkpt>
      <trkpt lat="43.76577" lon="4.14015">
        <ele>79.42</ele>
        <time>2025-06-07T17:55:26.112Z</time>
      </trkpt>
      <trkpt lat="43.76572" lon="4.14013">
        <ele>80.45</ele>
        <time>2025-06-07T17:55:32.254Z</time>
      </trkpt>
      <trkpt lat="43.76571" lon="4.14016">
        <ele>79.23</ele>
        <time>2025-06-07T17:55:37.269Z</time>
      </trkpt>
      <trkpt lat="43.76569" lon="4.14017">
        <ele>78.91</ele>
        <time>2025-06-07T17:55:42.285Z</time>
      </trkpt>
      <trkpt lat="43.76568" lon="4.14017">
        <ele>80.22</ele>
        <time>2025-06-07T17:55:51.252Z</time>
      </trkpt>
      <trkpt lat="43.76567" lon="4.14016">
        <ele>80.11</ele>
        <time>2025-06-07T17:55:56.406Z</time>
      </trkpt>
      <trkpt lat="43.76564" lon="4.14012">
        <ele>80.25</ele>
        <time>2025-06-07T17:56:02.348Z</time>
      </trkpt>
      <trkpt lat="43.76565" lon="4.14014">
        <ele>73.41</ele>
        <time>2025-06-07T17:56:08.324Z</time>
      </trkpt>
      <trkpt lat="43.76564" lon="4.14013">
        <ele>78.36</ele>
        <time>2025-06-07T17:56:20.276Z</time>
      </trkpt>
      <trkpt lat="43.76565" lon="4.14012">
        <ele>80.19</ele>
        <time>2025-06-07T17:56:26.359Z</time>
      </trkpt>
      <trkpt lat="43.76568" lon="4.14004">
        <ele>79.57</ele>
        <time>2025-06-07T17:56:32.335Z</time>
      </trkpt>
      <trkpt lat="43.76569" lon="4.13996">
        <ele>80.84</ele>
        <time>2025-06-07T17:56:37.657Z</time>
      </trkpt>
      <trkpt lat="43.76569" lon="4.13988">
        <ele>82.74</ele>
        <time>2025-06-07T17:56:43.327Z</time>
      </trkpt>
      <trkpt lat="43.76568" lon="4.13979">
        <ele>80.25</ele>
        <time>2025-06-07T17:56:48.343Z</time>
      </trkpt>
      <trkpt lat="43.76571" lon="4.13971">
        <ele>83.17</ele>
        <time>2025-06-07T17:56:53.771Z</time>
      </trkpt>
      <trkpt lat="43.76574" lon="4.13966">
        <ele>81.82</ele>
        <time>2025-06-07T17:56:58.990Z</time>
      </trkpt>
      <trkpt lat="43.76579" lon="4.13961">
        <ele>83.26</ele>
        <time>2025-06-07T17:57:04.256Z</time>
      </trkpt>
      <trkpt lat="43.76582" lon="4.13957">
        <ele>86.57</ele>
        <time>2025-06-07T17:57:09.259Z</time>
      </trkpt>
      <trkpt lat="43.76589" lon="4.13957">
        <ele>83.88</ele>
        <time>2025-06-07T17:57:14.872Z</time>
      </trkpt>
      <trkpt lat="43.76596" lon="4.13956">
        <ele>83.24</ele>
        <time>2025-06-07T17:57:20.112Z</time>
      </trkpt>
      <trkpt lat="43.766" lon="4.13953">
        <ele>84.99</ele>
        <time>2025-06-07T17:57:25.313Z</time>
      </trkpt>
      <trkpt lat="43.76603" lon="4.13947">
        <ele>80.78</ele>
        <time>2025-06-07T17:57:31.013Z</time>
      </trkpt>
      <trkpt lat="43.76607" lon="4.13944">
        <ele>84.93</ele>
        <time>2025-06-07T17:57:36.259Z</time>
      </trkpt>
      <trkpt lat="43.76611" lon="4.1394">
        <ele>84.51</ele>
        <time>2025-06-07T17:57:41.346Z</time>
      </trkpt>
      <trkpt lat="43.76612" lon="4.13934">
        <ele>86.83</ele>
        <time>2025-06-07T17:57:46.808Z</time>
      </trkpt>
      <trkpt lat="43.76613" lon="4.13925">
        <ele>86.89</ele>
        <time>2025-06-07T17:57:52.170Z</time>
      </trkpt>
      <trkpt lat="43.76615" lon="4.13916">
        <ele>86.88</ele>
        <time>2025-06-07T17:57:57.612Z</time>
      </trkpt>
      <trkpt lat="43.76616" lon="4.13908">
        <ele>88.16</ele>
        <time>2025-06-07T17:58:03.258Z</time>
      </trkpt>
      <trkpt lat="43.76616" lon="4.13904">
        <ele>87.61</ele>
        <time>2025-06-07T17:58:08.302Z</time>
      </trkpt>
      <trkpt lat="43.7662" lon="4.13899">
        <ele>90.24</ele>
        <time>2025-06-07T17:58:13.772Z</time>
      </trkpt>
      <trkpt lat="43.76626" lon="4.139">
        <ele>88.92</ele>
        <time>2025-06-07T17:58:18.813Z</time>
      </trkpt>
      <trkpt lat="43.76632" lon="4.13899">
        <ele>91.17</ele>
        <time>2025-06-07T17:58:24.071Z</time>
      </trkpt>
      <trkpt lat="43.76635" lon="4.13893">
        <ele>89.5</ele>
        <time>2025-06-07T17:58:29.096Z</time>
      </trkpt>
      <trkpt lat="43.76641" lon="4.13891">
        <ele>91.08</ele>
        <time>2025-06-07T17:58:34.314Z</time>
      </trkpt>
      <trkpt lat="43.76645" lon="4.13896">
        <ele>89.32</ele>
        <time>2025-06-07T17:58:39.953Z</time>
      </trkpt>
      <trkpt lat="43.76647" lon="4.13904">
        <ele>89.53</ele>
        <time>2025-06-07T17:58:45.254Z</time>
      </trkpt>
      <trkpt lat="43.76653" lon="4.13907">
        <ele>92.04</ele>
        <time>2025-06-07T17:58:50.321Z</time>
      </trkpt>
      <trkpt lat="43.7666" lon="4.13911">
        <ele>90.47</ele>
        <time>2025-06-07T17:58:56.231Z</time>
      </trkpt>
      <trkpt lat="43.76664" lon="4.13908">
        <ele>91.26</ele>
        <time>2025-06-07T17:59:01.313Z</time>
      </trkpt>
      <trkpt lat="43.7667" lon="4.13901">
        <ele>89.64</ele>
        <time>2025-06-07T17:59:06.411Z</time>
      </trkpt>
      <trkpt lat="43.76673" lon="4.13894">
        <ele>90.89</ele>
        <time>2025-06-07T17:59:11.889Z</time>
      </trkpt>
      <trkpt lat="43.76678" lon="4.13891">
        <ele>91.16</ele>
        <time>2025-06-07T17:59:16.934Z</time>
      </trkpt>
      <trkpt lat="43.7668" lon="4.13895">
        <ele>91.23</ele>
        <time>2025-06-07T17:59:22.336Z</time>
      </trkpt>
      <trkpt lat="43.76685" lon="4.139">
        <ele>90.18</ele>
        <time>2025-06-07T17:59:27.791Z</time>
      </trkpt>
      <trkpt lat="43.76687" lon="4.13907">
        <ele>91.6</ele>
        <time>2025-06-07T17:59:33.328Z</time>
      </trkpt>
      <trkpt lat="43.76687" lon="4.13915">
        <ele>90.59</ele>
        <time>2025-06-07T17:59:38.344Z</time>
      </trkpt>
      <trkpt lat="43.76692" lon="4.13915">
        <ele>90.09</ele>
        <time>2025-06-07T17:59:43.850Z</time>
      </trkpt>
      <trkpt lat="43.76697" lon="4.13917">
        <ele>89.67</ele>
        <time>2025-06-07T17:59:49.277Z</time>
      </trkpt>
      <trkpt lat="43.767" lon="4.13927">
        <ele>88.24</ele>
        <time>2025-06-07T17:59:55.312Z</time>
      </trkpt>
      <trkpt lat="43.76705" lon="4.13932">
        <ele>88.23</ele>
        <time>2025-06-07T18:00:00.327Z</time>
      </trkpt>
      <trkpt lat="43.76702" lon="4.13941">
        <ele>88.39</ele>
        <time>2025-06-07T18:00:05.468Z</time>
      </trkpt>
      <trkpt lat="43.76704" lon="4.1395">
        <ele>86.42</ele>
        <time>2025-06-07T18:00:10.917Z</time>
      </trkpt>
      <trkpt lat="43.76708" lon="4.13953">
        <ele>87.95</ele>
        <time>2025-06-07T18:00:16.029Z</time>
      </trkpt>
      <trkpt lat="43.76711" lon="4.13959">
        <ele>86.67</ele>
        <time>2025-06-07T18:00:21.064Z</time>
      </trkpt>
      <trkpt lat="43.76712" lon="4.13967">
        <ele>91.45</ele>
        <time>2025-06-07T18:00:26.268Z</time>
      </trkpt>
      <trkpt lat="43.76711" lon="4.13974">
        <ele>87.2</ele>
        <time>2025-06-07T18:00:31.285Z</time>
      </trkpt>
      <trkpt lat="43.76715" lon="4.1398">
        <ele>85.51</ele>
        <time>2025-06-07T18:00:36.753Z</time>
      </trkpt>
      <trkpt lat="43.76719" lon="4.13987">
        <ele>83.81</ele>
        <time>2025-06-07T18:00:41.781Z</time>
      </trkpt>
      <trkpt lat="43.76725" lon="4.13992">
        <ele>84.75</ele>
        <time>2025-06-07T18:00:47.293Z</time>
      </trkpt>
      <trkpt lat="43.76731" lon="4.1399">
        <ele>82.75</ele>
        <time>2025-06-07T18:00:53.268Z</time>
      </trkpt>
      <trkpt lat="43.76732" lon="4.13996">
        <ele>82.89</ele>
        <time>2025-06-07T18:00:58.767Z</time>
      </trkpt>
      <trkpt lat="43.76729" lon="4.14003">
        <ele>82.61</ele>
        <time>2025-06-07T18:01:04.072Z</time>
      </trkpt>
      <trkpt lat="43.76729" lon="4.14013">
        <ele>80.79</ele>
        <time>2025-06-07T18:01:09.145Z</time>
      </trkpt>
      <trkpt lat="43.76725" lon="4.14026">
        <ele>80.47</ele>
        <time>2025-06-07T18:01:14.479Z</time>
      </trkpt>
      <trkpt lat="43.76723" lon="4.14036">
        <ele>81.62</ele>
        <time>2025-06-07T18:01:19.905Z</time>
      </trkpt>
      <trkpt lat="43.76721" lon="4.14045">
        <ele>80.1</ele>
        <time>2025-06-07T18:01:25.283Z</time>
      </trkpt>
      <trkpt lat="43.7672" lon="4.14052">
        <ele>77.73</ele>
        <time>2025-06-07T18:01:30.925Z</time>
      </trkpt>
      <trkpt lat="43.76722" lon="4.1406">
        <ele>78.02</ele>
        <time>2025-06-07T18:01:36.365Z</time>
      </trkpt>
      <trkpt lat="43.76723" lon="4.14069">
        <ele>73.26</ele>
        <time>2025-06-07T18:01:42.281Z</time>
      </trkpt>
      <trkpt lat="43.76726" lon="4.14076">
        <ele>74.37</ele>
        <time>2025-06-07T18:01:47.787Z</time>
      </trkpt>
      <trkpt lat="43.76724" lon="4.14084">
        <ele>74.32</ele>
        <time>2025-06-07T18:01:53.349Z</time>
      </trkpt>
      <trkpt lat="43.7672" lon="4.1409">
        <ele>73.79</ele>
        <time>2025-06-07T18:01:59.325Z</time>
      </trkpt>
      <trkpt lat="43.76718" lon="4.141">
        <ele>77.4</ele>
        <time>2025-06-07T18:02:04.762Z</time>
      </trkpt>
      <trkpt lat="43.76719" lon="4.14106">
        <ele>73.72</ele>
        <time>2025-06-07T18:02:10.129Z</time>
      </trkpt>
      <trkpt lat="43.76721" lon="4.14115">
        <ele>73.28</ele>
        <time>2025-06-07T18:02:15.333Z</time>
      </trkpt>
      <trkpt lat="43.76722" lon="4.14123">
        <ele>72.31</ele>
        <time>2025-06-07T18:02:20.628Z</time>
      </trkpt>
      <trkpt lat="43.76721" lon="4.14133">
        <ele>70.22</ele>
        <time>2025-06-07T18:02:26.060Z</time>
      </trkpt>
      <trkpt lat="43.76725" lon="4.14141">
        <ele>69.04</ele>
        <time>2025-06-07T18:02:31.325Z</time>
      </trkpt>
      <trkpt lat="43.76724" lon="4.14151">
        <ele>71.27</ele>
        <time>2025-06-07T18:02:36.356Z</time>
      </trkpt>
      <trkpt lat="43.76722" lon="4.14161">
        <ele>70.21</ele>
        <time>2025-06-07T18:02:41.481Z</time>
      </trkpt>
      <trkpt lat="43.76724" lon="4.1417">
        <ele>67.84</ele>
        <time>2025-06-07T18:02:46.924Z</time>
      </trkpt>
      <trkpt lat="43.76727" lon="4.14168">
        <ele>68</ele>
        <time>2025-06-07T18:02:52.363Z</time>
      </trkpt>
      <trkpt lat="43.76729" lon="4.14171">
        <ele>69.27</ele>
        <time>2025-06-07T18:02:57.641Z</time>
      </trkpt>
      <trkpt lat="43.76734" lon="4.14168">
        <ele>66.42</ele>
        <time>2025-06-07T18:03:02.968Z</time>
      </trkpt>
      <trkpt lat="43.76742" lon="4.14171">
        <ele>64.91</ele>
        <time>2025-06-07T18:03:08.265Z</time>
      </trkpt>
      <trkpt lat="43.76741" lon="4.14184">
        <ele>71.71</ele>
        <time>2025-06-07T18:03:14.128Z</time>
      </trkpt>
      <trkpt lat="43.76741" lon="4.14196">
        <ele>63.83</ele>
        <time>2025-06-07T18:03:19.303Z</time>
      </trkpt>
      <trkpt lat="43.7674" lon="4.14206">
        <ele>59.77</ele>
        <time>2025-06-07T18:03:24.763Z</time>
      </trkpt>
      <trkpt lat="43.76735" lon="4.14217">
        <ele>65.89</ele>
        <time>2025-06-07T18:03:30.354Z</time>
      </trkpt>
      <trkpt lat="43.76736" lon="4.14225">
        <ele>64.1</ele>
        <time>2025-06-07T18:03:35.923Z</time>
      </trkpt>
      <trkpt lat="43.76736" lon="4.14234">
        <ele>61.66</ele>
        <time>2025-06-07T18:03:41.347Z</time>
      </trkpt>
      <trkpt lat="43.76737" lon="4.14244">
        <ele>60.42</ele>
        <time>2025-06-07T18:03:46.799Z</time>
      </trkpt>
      <trkpt lat="43.76739" lon="4.14255">
        <ele>58.15</ele>
        <time>2025-06-07T18:03:52.080Z</time>
      </trkpt>
      <trkpt lat="43.76742" lon="4.14265">
        <ele>57.32</ele>
        <time>2025-06-07T18:03:57.549Z</time>
      </trkpt>
      <trkpt lat="43.76737" lon="4.14272">
        <ele>58.34</ele>
        <time>2025-06-07T18:04:03.240Z</time>
      </trkpt>
      <trkpt lat="43.76736" lon="4.14281">
        <ele>57.64</ele>
        <time>2025-06-07T18:04:08.313Z</time>
      </trkpt>
      <trkpt lat="43.7673" lon="4.14287">
        <ele>57.97</ele>
        <time>2025-06-07T18:04:13.727Z</time>
      </trkpt>
      <trkpt lat="43.76725" lon="4.14294">
        <ele>55.7</ele>
        <time>2025-06-07T18:04:19.355Z</time>
      </trkpt>
      <trkpt lat="43.7672" lon="4.143">
        <ele>52.42</ele>
        <time>2025-06-07T18:04:24.854Z</time>
      </trkpt>
      <trkpt lat="43.76717" lon="4.14305">
        <ele>55.13</ele>
        <time>2025-06-07T18:04:30.028Z</time>
      </trkpt>
      <trkpt lat="43.76711" lon="4.14303">
        <ele>56.17</ele>
        <time>2025-06-07T18:04:35.231Z</time>
      </trkpt>
      <trkpt lat="43.76704" lon="4.14308">
        <ele>55.52</ele>
        <time>2025-06-07T18:04:40.708Z</time>
      </trkpt>
      <trkpt lat="43.76699" lon="4.14314">
        <ele>53.18</ele>
        <time>2025-06-07T18:04:46.169Z</time>
      </trkpt>
      <trkpt lat="43.76696" lon="4.14322">
        <ele>57.39</ele>
        <time>2025-06-07T18:04:52.015Z</time>
      </trkpt>
      <trkpt lat="43.76699" lon="4.14332">
        <ele>50.49</ele>
        <time>2025-06-07T18:04:57.348Z</time>
      </trkpt>
      <trkpt lat="43.76702" lon="4.14342">
        <ele>54.72</ele>
        <time>2025-06-07T18:05:02.362Z</time>
      </trkpt>
      <trkpt lat="43.767" lon="4.14352">
        <ele>51.69</ele>
        <time>2025-06-07T18:05:08.109Z</time>
      </trkpt>
      <trkpt lat="43.76696" lon="4.14361">
        <ele>52.57</ele>
        <time>2025-06-07T18:05:13.473Z</time>
      </trkpt>
      <trkpt lat="43.76689" lon="4.14367">
        <ele>51.47</ele>
        <time>2025-06-07T18:05:18.790Z</time>
      </trkpt>
      <trkpt lat="43.76682" lon="4.14371">
        <ele>50.94</ele>
        <time>2025-06-07T18:05:24.047Z</time>
      </trkpt>
      <trkpt lat="43.76676" lon="4.14375">
        <ele>50.91</ele>
        <time>2025-06-07T18:05:29.682Z</time>
      </trkpt>
      <trkpt lat="43.76675" lon="4.14373">
        <ele>51.72</ele>
        <time>2025-06-07T18:05:35.338Z</time>
      </trkpt>
      <trkpt lat="43.76676" lon="4.14373">
        <ele>49.45</ele>
        <time>2025-06-07T18:05:48.251Z</time>
      </trkpt>
      <trkpt lat="43.76677" lon="4.14376">
        <ele>54.98</ele>
        <time>2025-06-07T18:05:54.189Z</time>
      </trkpt>
      <trkpt lat="43.76678" lon="4.14377">
        <ele>51</ele>
        <time>2025-06-07T18:05:59.189Z</time>
      </trkpt>
      <trkpt lat="43.7668" lon="4.14385">
        <ele>50.8</ele>
        <time>2025-06-07T18:06:04.260Z</time>
      </trkpt>
      <trkpt lat="43.76679" lon="4.14384">
        <ele>51.68</ele>
        <time>2025-06-07T18:06:09.276Z</time>
      </trkpt>
      <trkpt lat="43.76679" lon="4.14382">
        <ele>49.9</ele>
        <time>2025-06-07T18:06:14.302Z</time>
      </trkpt>
      <trkpt lat="43.76673" lon="4.14384">
        <ele>52</ele>
        <time>2025-06-07T18:06:19.363Z</time>
      </trkpt>
      <trkpt lat="43.76665" lon="4.14385">
        <ele>56.38</ele>
        <time>2025-06-07T18:06:24.378Z</time>
      </trkpt>
      <trkpt lat="43.76658" lon="4.1439">
        <ele>54.43</ele>
        <time>2025-06-07T18:06:29.920Z</time>
      </trkpt>
      <trkpt lat="43.76659" lon="4.14398">
        <ele>54.29</ele>
        <time>2025-06-07T18:06:35.158Z</time>
      </trkpt>
      <trkpt lat="43.76658" lon="4.14405">
        <ele>57.45</ele>
        <time>2025-06-07T18:06:40.332Z</time>
      </trkpt>
      <trkpt lat="43.76662" lon="4.1441">
        <ele>57.11</ele>
        <time>2025-06-07T18:06:46.000Z</time>
      </trkpt>
      <trkpt lat="43.76669" lon="4.14402">
        <ele>55.61</ele>
        <time>2025-06-07T18:06:51.431Z</time>
      </trkpt>
      <trkpt lat="43.76675" lon="4.14396">
        <ele>56.32</ele>
        <time>2025-06-07T18:06:56.938Z</time>
      </trkpt>
      <trkpt lat="43.76682" lon="4.14396">
        <ele>57.64</ele>
        <time>2025-06-07T18:07:02.398Z</time>
      </trkpt>
      <trkpt lat="43.76689" lon="4.14401">
        <ele>56.23</ele>
        <time>2025-06-07T18:07:07.601Z</time>
      </trkpt>
      <trkpt lat="43.76696" lon="4.14401">
        <ele>55.31</ele>
        <time>2025-06-07T18:07:12.901Z</time>
      </trkpt>
      <trkpt lat="43.76702" lon="4.14407">
        <ele>56.06</ele>
        <time>2025-06-07T18:07:18.121Z</time>
      </trkpt>
      <trkpt lat="43.76703" lon="4.14416">
        <ele>55.73</ele>
        <time>2025-06-07T18:07:23.183Z</time>
      </trkpt>
      <trkpt lat="43.76707" lon="4.1442">
        <ele>52.49</ele>
        <time>2025-06-07T18:07:28.356Z</time>
      </trkpt>
      <trkpt lat="43.76707" lon="4.1443">
        <ele>57.16</ele>
        <time>2025-06-07T18:07:33.980Z</time>
      </trkpt>
      <trkpt lat="43.7671" lon="4.14435">
        <ele>60.41</ele>
        <time>2025-06-07T18:07:39.983Z</time>
      </trkpt>
      <trkpt lat="43.76715" lon="4.14435">
        <ele>57.82</ele>
        <time>2025-06-07T18:07:45.043Z</time>
      </trkpt>
      <trkpt lat="43.76719" lon="4.14439">
        <ele>57.73</ele>
        <time>2025-06-07T18:07:50.044Z</time>
      </trkpt>
      <trkpt lat="43.76725" lon="4.1444">
        <ele>56.2</ele>
        <time>2025-06-07T18:07:55.356Z</time>
      </trkpt>
      <trkpt lat="43.76731" lon="4.14442">
        <ele>54.88</ele>
        <time>2025-06-07T18:08:00.366Z</time>
      </trkpt>
      <trkpt lat="43.76739" lon="4.14436">
        <ele>55.71</ele>
        <time>2025-06-07T18:08:06.349Z</time>
      </trkpt>
      <trkpt lat="43.76744" lon="4.14441">
        <ele>54.31</ele>
        <time>2025-06-07T18:08:11.365Z</time>
      </trkpt>
      <trkpt lat="43.76749" lon="4.14449">
        <ele>54.83</ele>
        <time>2025-06-07T18:08:16.711Z</time>
      </trkpt>
      <trkpt lat="43.76752" lon="4.1446">
        <ele>56.31</ele>
        <time>2025-06-07T18:08:22.259Z</time>
      </trkpt>
      <trkpt lat="43.76755" lon="4.14469">
        <ele>55.59</ele>
        <time>2025-06-07T18:08:27.275Z</time>
      </trkpt>
      <trkpt lat="43.76759" lon="4.14475">
        <ele>54.14</ele>
        <time>2025-06-07T18:08:32.285Z</time>
      </trkpt>
      <trkpt lat="43.76762" lon="4.14482">
        <ele>60.87</ele>
        <time>2025-06-07T18:08:37.307Z</time>
      </trkpt>
      <trkpt lat="43.76761" lon="4.14493">
        <ele>57.68</ele>
        <time>2025-06-07T18:08:42.937Z</time>
      </trkpt>
      <trkpt lat="43.76762" lon="4.14502">
        <ele>57.14</ele>
        <time>2025-06-07T18:08:48.159Z</time>
      </trkpt>
      <trkpt lat="43.76765" lon="4.14508">
        <ele>57.85</ele>
        <time>2025-06-07T18:08:53.362Z</time>
      </trkpt>
      <trkpt lat="43.76764" lon="4.14517">
        <ele>55.81</ele>
        <time>2025-06-07T18:08:58.964Z</time>
      </trkpt>
      <trkpt lat="43.76765" lon="4.14525">
        <ele>58.01</ele>
        <time>2025-06-07T18:09:04.307Z</time>
      </trkpt>
      <trkpt lat="43.76766" lon="4.14534">
        <ele>60.55</ele>
        <time>2025-06-07T18:09:09.323Z</time>
      </trkpt>
      <trkpt lat="43.76766" lon="4.14546">
        <ele>58.17</ele>
        <time>2025-06-07T18:09:15.239Z</time>
      </trkpt>
      <trkpt lat="43.76767" lon="4.14556">
        <ele>57.91</ele>
        <time>2025-06-07T18:09:20.485Z</time>
      </trkpt>
      <trkpt lat="43.76766" lon="4.14565">
        <ele>58.89</ele>
        <time>2025-06-07T18:09:26.259Z</time>
      </trkpt>
      <trkpt lat="43.76766" lon="4.14574">
        <ele>64.7</ele>
        <time>2025-06-07T18:09:31.348Z</time>
      </trkpt>
      <trkpt lat="43.76766" lon="4.14584">
        <ele>67.45</ele>
        <time>2025-06-07T18:09:36.382Z</time>
      </trkpt>
      <trkpt lat="43.76767" lon="4.146">
        <ele>64.69</ele>
        <time>2025-06-07T18:09:42.382Z</time>
      </trkpt>
      <trkpt lat="43.76765" lon="4.14613">
        <ele>64.27</ele>
        <time>2025-06-07T18:09:48.021Z</time>
      </trkpt>
      <trkpt lat="43.76765" lon="4.14626">
        <ele>65.17</ele>
        <time>2025-06-07T18:09:53.293Z</time>
      </trkpt>
      <trkpt lat="43.76767" lon="4.14634">
        <ele>62.97</ele>
        <time>2025-06-07T18:09:58.310Z</time>
      </trkpt>
      <trkpt lat="43.76768" lon="4.14648">
        <ele>64.2</ele>
        <time>2025-06-07T18:10:03.383Z</time>
      </trkpt>
      <trkpt lat="43.76769" lon="4.14664">
        <ele>68.24</ele>
        <time>2025-06-07T18:10:08.823Z</time>
      </trkpt>
      <trkpt lat="43.76766" lon="4.14673">
        <ele>67.21</ele>
        <time>2025-06-07T18:10:14.061Z</time>
      </trkpt>
      <trkpt lat="43.76765" lon="4.14679">
        <ele>68.54</ele>
        <time>2025-06-07T18:10:19.345Z</time>
      </trkpt>
      <trkpt lat="43.76763" lon="4.1469">
        <ele>68.77</ele>
        <time>2025-06-07T18:10:24.777Z</time>
      </trkpt>
      <trkpt lat="43.76763" lon="4.14699">
        <ele>66.68</ele>
        <time>2025-06-07T18:10:29.812Z</time>
      </trkpt>
      <trkpt lat="43.76765" lon="4.14707">
        <ele>67.07</ele>
        <time>2025-06-07T18:10:34.907Z</time>
      </trkpt>
      <trkpt lat="43.76766" lon="4.14715">
        <ele>68.97</ele>
        <time>2025-06-07T18:10:40.243Z</time>
      </trkpt>
      <trkpt lat="43.76765" lon="4.14725">
        <ele>66.92</ele>
        <time>2025-06-07T18:10:45.687Z</time>
      </trkpt>
      <trkpt lat="43.76764" lon="4.14735">
        <ele>69.93</ele>
        <time>2025-06-07T18:10:51.350Z</time>
      </trkpt>
      <trkpt lat="43.76764" lon="4.14745">
        <ele>68.68</ele>
        <time>2025-06-07T18:10:57.046Z</time>
      </trkpt>
      <trkpt lat="43.76764" lon="4.14754">
        <ele>66.49</ele>
        <time>2025-06-07T18:11:02.376Z</time>
      </trkpt>
      <trkpt lat="43.76763" lon="4.14764">
        <ele>70.61</ele>
        <time>2025-06-07T18:11:08.205Z</time>
      </trkpt>
      <trkpt lat="43.7676" lon="4.14775">
        <ele>71.05</ele>
        <time>2025-06-07T18:11:13.714Z</time>
      </trkpt>
      <trkpt lat="43.76759" lon="4.14784">
        <ele>70.22</ele>
        <time>2025-06-07T18:11:18.986Z</time>
      </trkpt>
      <trkpt lat="43.76757" lon="4.14792">
        <ele>68.78</ele>
        <time>2025-06-07T18:11:24.013Z</time>
      </trkpt>
      <trkpt lat="43.76756" lon="4.148">
        <ele>68.23</ele>
        <time>2025-06-07T18:11:29.489Z</time>
      </trkpt>
      <trkpt lat="43.76755" lon="4.14809">
        <ele>67.57</ele>
        <time>2025-06-07T18:11:34.961Z</time>
      </trkpt>
      <trkpt lat="43.76756" lon="4.14819">
        <ele>68.04</ele>
        <time>2025-06-07T18:11:40.304Z</time>
      </trkpt>
      <trkpt lat="43.76752" lon="4.14827">
        <ele>69.34</ele>
        <time>2025-06-07T18:11:45.705Z</time>
      </trkpt>
      <trkpt lat="43.76752" lon="4.14837">
        <ele>67.4</ele>
        <time>2025-06-07T18:11:50.716Z</time>
      </trkpt>
      <trkpt lat="43.76755" lon="4.14847">
        <ele>68.64</ele>
        <time>2025-06-07T18:11:56.372Z</time>
      </trkpt>
      <trkpt lat="43.76755" lon="4.14859">
        <ele>71.15</ele>
        <time>2025-06-07T18:12:01.586Z</time>
      </trkpt>
      <trkpt lat="43.76756" lon="4.1487">
        <ele>73.54</ele>
        <time>2025-06-07T18:12:07.082Z</time>
      </trkpt>
      <trkpt lat="43.76753" lon="4.14879">
        <ele>67.94</ele>
        <time>2025-06-07T18:12:12.543Z</time>
      </trkpt>
      <trkpt lat="43.76752" lon="4.14888">
        <ele>69.73</ele>
        <time>2025-06-07T18:12:17.960Z</time>
      </trkpt>
      <trkpt lat="43.76752" lon="4.14898">
        <ele>69.05</ele>
        <time>2025-06-07T18:12:23.373Z</time>
      </trkpt>
      <trkpt lat="43.76755" lon="4.14902">
        <ele>69.17</ele>
        <time>2025-06-07T18:12:28.489Z</time>
      </trkpt>
      <trkpt lat="43.7675" lon="4.14911">
        <ele>70.81</ele>
        <time>2025-06-07T18:12:34.306Z</time>
      </trkpt>
      <trkpt lat="43.76744" lon="4.14917">
        <ele>71.38</ele>
        <time>2025-06-07T18:12:39.687Z</time>
      </trkpt>
      <trkpt lat="43.76741" lon="4.14924">
        <ele>75.24</ele>
        <time>2025-06-07T18:12:44.924Z</time>
      </trkpt>
      <trkpt lat="43.76737" lon="4.14929">
        <ele>72.96</ele>
        <time>2025-06-07T18:12:50.373Z</time>
      </trkpt>
      <trkpt lat="43.76733" lon="4.14936">
        <ele>74.17</ele>
        <time>2025-06-07T18:12:55.816Z</time>
      </trkpt>
      <trkpt lat="43.76732" lon="4.14943">
        <ele>72.9</ele>
        <time>2025-06-07T18:13:00.832Z</time>
      </trkpt>
      <trkpt lat="43.76735" lon="4.14954">
        <ele>72.14</ele>
        <time>2025-06-07T18:13:05.888Z</time>
      </trkpt>
      <trkpt lat="43.76735" lon="4.14964">
        <ele>74</ele>
        <time>2025-06-07T18:13:11.559Z</time>
      </trkpt>
      <trkpt lat="43.76735" lon="4.14975">
        <ele>75.35</ele>
        <time>2025-06-07T18:13:17.242Z</time>
      </trkpt>
      <trkpt lat="43.76733" lon="4.14983">
        <ele>72.63</ele>
        <time>2025-06-07T18:13:22.283Z</time>
      </trkpt>
      <trkpt lat="43.76728" lon="4.14991">
        <ele>72.66</ele>
        <time>2025-06-07T18:13:27.800Z</time>
      </trkpt>
      <trkpt lat="43.76726" lon="4.14998">
        <ele>73.91</ele>
        <time>2025-06-07T18:13:32.923Z</time>
      </trkpt>
      <trkpt lat="43.76725" lon="4.15008">
        <ele>74.98</ele>
        <time>2025-06-07T18:13:38.291Z</time>
      </trkpt>
      <trkpt lat="43.76725" lon="4.15018">
        <ele>75.27</ele>
        <time>2025-06-07T18:13:44.375Z</time>
      </trkpt>
      <trkpt lat="43.76722" lon="4.15027">
        <ele>73.79</ele>
        <time>2025-06-07T18:13:49.509Z</time>
      </trkpt>
      <trkpt lat="43.76716" lon="4.15032">
        <ele>75.39</ele>
        <time>2025-06-07T18:13:54.941Z</time>
      </trkpt>
      <trkpt lat="43.76712" lon="4.15029">
        <ele>80.37</ele>
        <time>2025-06-07T18:14:00.278Z</time>
      </trkpt>
      <trkpt lat="43.76708" lon="4.15022">
        <ele>77.2</ele>
        <time>2025-06-07T18:14:05.560Z</time>
      </trkpt>
      <trkpt lat="43.76705" lon="4.15023">
        <ele>78.53</ele>
        <time>2025-06-07T18:14:11.090Z</time>
      </trkpt>
      <trkpt lat="43.76699" lon="4.15027">
        <ele>79.53</ele>
        <time>2025-06-07T18:14:16.212Z</time>
      </trkpt>
      <trkpt lat="43.76693" lon="4.15023">
        <ele>79.89</ele>
        <time>2025-06-07T18:14:21.229Z</time>
      </trkpt>
      <trkpt lat="43.76686" lon="4.1502">
        <ele>81.51</ele>
        <time>2025-06-07T18:14:26.745Z</time>
      </trkpt>
      <trkpt lat="43.7668" lon="4.15019">
        <ele>83.44</ele>
        <time>2025-06-07T18:14:32.328Z</time>
      </trkpt>
      <trkpt lat="43.76674" lon="4.15019">
        <ele>82.24</ele>
        <time>2025-06-07T18:14:37.380Z</time>
      </trkpt>
      <trkpt lat="43.76671" lon="4.15011">
        <ele>83.53</ele>
        <time>2025-06-07T18:14:43.033Z</time>
      </trkpt>
      <trkpt lat="43.7667" lon="4.15002">
        <ele>83.28</ele>
        <time>2025-06-07T18:14:48.525Z</time>
      </trkpt>
      <trkpt lat="43.76672" lon="4.14994">
        <ele>83.4</ele>
        <time>2025-06-07T18:14:53.984Z</time>
      </trkpt>
      <trkpt lat="43.76671" lon="4.14983">
        <ele>85.58</ele>
        <time>2025-06-07T18:14:59.284Z</time>
      </trkpt>
      <trkpt lat="43.76668" lon="4.14974">
        <ele>83.23</ele>
        <time>2025-06-07T18:15:04.344Z</time>
      </trkpt>
      <trkpt lat="43.76667" lon="4.14967">
        <ele>80.8</ele>
        <time>2025-06-07T18:15:09.359Z</time>
      </trkpt>
      <trkpt lat="43.76667" lon="4.14957">
        <ele>81.49</ele>
        <time>2025-06-07T18:15:14.804Z</time>
      </trkpt>
      <trkpt lat="43.76661" lon="4.14951">
        <ele>83.3</ele>
        <time>2025-06-07T18:15:19.883Z</time>
      </trkpt>
      <trkpt lat="43.76655" lon="4.14946">
        <ele>82.71</ele>
        <time>2025-06-07T18:15:25.296Z</time>
      </trkpt>
      <trkpt lat="43.76649" lon="4.14942">
        <ele>83.73</ele>
        <time>2025-06-07T18:15:30.802Z</time>
      </trkpt>
      <trkpt lat="43.76643" lon="4.14941">
        <ele>84.91</ele>
        <time>2025-06-07T18:15:35.828Z</time>
      </trkpt>
      <trkpt lat="43.76637" lon="4.14942">
        <ele>82.27</ele>
        <time>2025-06-07T18:15:40.869Z</time>
      </trkpt>
      <trkpt lat="43.7663" lon="4.14943">
        <ele>81.62</ele>
        <time>2025-06-07T18:15:46.382Z</time>
      </trkpt>
      <trkpt lat="43.76622" lon="4.14947">
        <ele>82.62</ele>
        <time>2025-06-07T18:15:51.623Z</time>
      </trkpt>
      <trkpt lat="43.76617" lon="4.14947">
        <ele>87.08</ele>
        <time>2025-06-07T18:15:56.670Z</time>
      </trkpt>
      <trkpt lat="43.7661" lon="4.14944">
        <ele>84.24</ele>
        <time>2025-06-07T18:16:02.328Z</time>
      </trkpt>
      <trkpt lat="43.76603" lon="4.14944">
        <ele>83.11</ele>
        <time>2025-06-07T18:16:07.342Z</time>
      </trkpt>
      <trkpt lat="43.76596" lon="4.14944">
        <ele>82.87</ele>
        <time>2025-06-07T18:16:12.902Z</time>
      </trkpt>
      <trkpt lat="43.76589" lon="4.14948">
        <ele>86.19</ele>
        <time>2025-06-07T18:16:17.946Z</time>
      </trkpt>
      <trkpt lat="43.76586" lon="4.14957">
        <ele>85.48</ele>
        <time>2025-06-07T18:16:23.165Z</time>
      </trkpt>
      <trkpt lat="43.76583" lon="4.14965">
        <ele>85.04</ele>
        <time>2025-06-07T18:16:28.366Z</time>
      </trkpt>
      <trkpt lat="43.76582" lon="4.14972">
        <ele>87.48</ele>
        <time>2025-06-07T18:16:33.767Z</time>
      </trkpt>
      <trkpt lat="43.76586" lon="4.14979">
        <ele>88.49</ele>
        <time>2025-06-07T18:16:38.941Z</time>
      </trkpt>
      <trkpt lat="43.7659" lon="4.14987">
        <ele>86.99</ele>
        <time>2025-06-07T18:16:44.402Z</time>
      </trkpt>
      <trkpt lat="43.76589" lon="4.15">
        <ele>88.74</ele>
        <time>2025-06-07T18:16:50.282Z</time>
      </trkpt>
      <trkpt lat="43.76586" lon="4.15008">
        <ele>89.72</ele>
        <time>2025-06-07T18:16:55.866Z</time>
      </trkpt>
      <trkpt lat="43.76581" lon="4.15014">
        <ele>86.55</ele>
        <time>2025-06-07T18:17:00.866Z</time>
      </trkpt>
      <trkpt lat="43.76575" lon="4.15023">
        <ele>90.14</ele>
        <time>2025-06-07T18:17:06.358Z</time>
      </trkpt>
      <trkpt lat="43.76574" lon="4.15034">
        <ele>89.09</ele>
        <time>2025-06-07T18:17:11.448Z</time>
      </trkpt>
      <trkpt lat="43.76575" lon="4.15043">
        <ele>89.49</ele>
        <time>2025-06-07T18:17:16.606Z</time>
      </trkpt>
      <trkpt lat="43.76575" lon="4.1505">
        <ele>89.86</ele>
        <time>2025-06-07T18:17:21.649Z</time>
      </trkpt>
      <trkpt lat="43.76578" lon="4.15057">
        <ele>90.48</ele>
        <time>2025-06-07T18:17:27.382Z</time>
      </trkpt>
      <trkpt lat="43.76577" lon="4.1506">
        <ele>90.61</ele>
        <time>2025-06-07T18:17:33.168Z</time>
      </trkpt>
      <trkpt lat="43.76575" lon="4.15071">
        <ele>90.39</ele>
        <time>2025-06-07T18:17:38.369Z</time>
      </trkpt>
      <trkpt lat="43.76574" lon="4.15079">
        <ele>90.93</ele>
        <time>2025-06-07T18:17:43.400Z</time>
      </trkpt>
      <trkpt lat="43.76575" lon="4.15092">
        <ele>91.22</ele>
        <time>2025-06-07T18:17:49.132Z</time>
      </trkpt>
      <trkpt lat="43.76575" lon="4.15102">
        <ele>92.38</ele>
        <time>2025-06-07T18:17:54.608Z</time>
      </trkpt>
      <trkpt lat="43.76576" lon="4.1511">
        <ele>91.56</ele>
        <time>2025-06-07T18:17:59.834Z</time>
      </trkpt>
      <trkpt lat="43.76576" lon="4.15119">
        <ele>91.89</ele>
        <time>2025-06-07T18:18:04.850Z</time>
      </trkpt>
      <trkpt lat="43.76579" lon="4.15124">
        <ele>91.58</ele>
        <time>2025-06-07T18:18:09.866Z</time>
      </trkpt>
      <trkpt lat="43.76582" lon="4.15128">
        <ele>91.68</ele>
        <time>2025-06-07T18:18:14.946Z</time>
      </trkpt>
      <trkpt lat="43.76582" lon="4.15137">
        <ele>91.53</ele>
        <time>2025-06-07T18:18:20.325Z</time>
      </trkpt>
      <trkpt lat="43.76586" lon="4.15143">
        <ele>91.57</ele>
        <time>2025-06-07T18:18:25.407Z</time>
      </trkpt>
      <trkpt lat="43.7659" lon="4.15153">
        <ele>91.17</ele>
        <time>2025-06-07T18:18:30.866Z</time>
      </trkpt>
      <trkpt lat="43.76592" lon="4.15163">
        <ele>90.47</ele>
        <time>2025-06-07T18:18:36.105Z</time>
      </trkpt>
      <trkpt lat="43.76592" lon="4.15172">
        <ele>90.63</ele>
        <time>2025-06-07T18:18:41.348Z</time>
      </trkpt>
      <trkpt lat="43.76591" lon="4.15183">
        <ele>90.45</ele>
        <time>2025-06-07T18:18:46.364Z</time>
      </trkpt>
      <trkpt lat="43.76588" lon="4.15194">
        <ele>90.87</ele>
        <time>2025-06-07T18:18:52.267Z</time>
      </trkpt>
      <trkpt lat="43.76586" lon="4.15204">
        <ele>90.11</ele>
        <time>2025-06-07T18:18:57.357Z</time>
      </trkpt>
      <trkpt lat="43.76584" lon="4.15212">
        <ele>90.45</ele>
        <time>2025-06-07T18:19:02.372Z</time>
      </trkpt>
      <trkpt lat="43.7658" lon="4.15221">
        <ele>90.3</ele>
        <time>2025-06-07T18:19:08.324Z</time>
      </trkpt>
      <trkpt lat="43.76578" lon="4.15231">
        <ele>89.91</ele>
        <time>2025-06-07T18:19:13.722Z</time>
      </trkpt>
      <trkpt lat="43.76576" lon="4.1524">
        <ele>90.15</ele>
        <time>2025-06-07T18:19:19.084Z</time>
      </trkpt>
      <trkpt lat="43.76574" lon="4.1525">
        <ele>90.32</ele>
        <time>2025-06-07T18:19:24.356Z</time>
      </trkpt>
      <trkpt lat="43.76572" lon="4.1526">
        <ele>89.5</ele>
        <time>2025-06-07T18:19:29.372Z</time>
      </trkpt>
      <trkpt lat="43.76568" lon="4.1527">
        <ele>89.38</ele>
        <time>2025-06-07T18:19:34.391Z</time>
      </trkpt>
      <trkpt lat="43.76564" lon="4.15281">
        <ele>89.7</ele>
        <time>2025-06-07T18:19:39.922Z</time>
      </trkpt>
      <trkpt lat="43.76561" lon="4.1529">
        <ele>89.02</ele>
        <time>2025-06-07T18:19:45.365Z</time>
      </trkpt>
      <trkpt lat="43.76559" lon="4.15299">
        <ele>89.2</ele>
        <time>2025-06-07T18:19:50.395Z</time>
      </trkpt>
      <trkpt lat="43.76555" lon="4.15308">
        <ele>88.7</ele>
        <time>2025-06-07T18:19:56.268Z</time>
      </trkpt>
      <trkpt lat="43.76552" lon="4.15316">
        <ele>88.25</ele>
        <time>2025-06-07T18:20:01.282Z</time>
      </trkpt>
      <trkpt lat="43.7655" lon="4.15325">
        <ele>88.13</ele>
        <time>2025-06-07T18:20:06.583Z</time>
      </trkpt>
      <trkpt lat="43.76547" lon="4.15332">
        <ele>87.46</ele>
        <time>2025-06-07T18:20:11.661Z</time>
      </trkpt>
      <trkpt lat="43.7654" lon="4.15334">
        <ele>87.72</ele>
        <time>2025-06-07T18:20:16.861Z</time>
      </trkpt>
      <trkpt lat="43.76534" lon="4.15335">
        <ele>88.22</ele>
        <time>2025-06-07T18:20:21.877Z</time>
      </trkpt>
      <trkpt lat="43.76526" lon="4.15337">
        <ele>87.97</ele>
        <time>2025-06-07T18:20:27.320Z</time>
      </trkpt>
      <trkpt lat="43.7652" lon="4.15339">
        <ele>87.6</ele>
        <time>2025-06-07T18:20:32.464Z</time>
      </trkpt>
      <trkpt lat="43.76513" lon="4.15342">
        <ele>88.15</ele>
        <time>2025-06-07T18:20:37.504Z</time>
      </trkpt>
      <trkpt lat="43.76508" lon="4.15348">
        <ele>87.34</ele>
        <time>2025-06-07T18:20:42.886Z</time>
      </trkpt>
      <trkpt lat="43.76504" lon="4.15355">
        <ele>87.35</ele>
        <time>2025-06-07T18:20:48.301Z</time>
      </trkpt>
      <trkpt lat="43.76499" lon="4.1536">
        <ele>86.27</ele>
        <time>2025-06-07T18:20:53.359Z</time>
      </trkpt>
      <trkpt lat="43.76493" lon="4.15367">
        <ele>86.21</ele>
        <time>2025-06-07T18:20:59.223Z</time>
      </trkpt>
      <trkpt lat="43.76489" lon="4.15375">
        <ele>85.93</ele>
        <time>2025-06-07T18:21:04.746Z</time>
      </trkpt>
      <trkpt lat="43.76485" lon="4.1538">
        <ele>85.74</ele>
        <time>2025-06-07T18:21:10.206Z</time>
      </trkpt>
      <trkpt lat="43.76479" lon="4.15379">
        <ele>85.43</ele>
        <time>2025-06-07T18:21:15.344Z</time>
      </trkpt>
      <trkpt lat="43.76479" lon="4.15381">
        <ele>87.46</ele>
        <time>2025-06-07T18:21:20.359Z</time>
      </trkpt>
      <trkpt lat="43.76481" lon="4.15381">
        <ele>83.1</ele>
        <time>2025-06-07T18:21:26.335Z</time>
      </trkpt>
      <trkpt lat="43.76481" lon="4.15382">
        <ele>85.83</ele>
        <time>2025-06-07T18:21:36.367Z</time>
      </trkpt>
      <trkpt lat="43.76477" lon="4.15395">
        <ele>86.05</ele>
        <time>2025-06-07T18:21:41.706Z</time>
      </trkpt>
      <trkpt lat="43.76476" lon="4.15406">
        <ele>85.15</ele>
        <time>2025-06-07T18:21:47.426Z</time>
      </trkpt>
      <trkpt lat="43.76474" lon="4.15415">
        <ele>86.14</ele>
        <time>2025-06-07T18:21:52.771Z</time>
      </trkpt>
      <trkpt lat="43.76475" lon="4.15424">
        <ele>88.94</ele>
        <time>2025-06-07T18:21:58.352Z</time>
      </trkpt>
      <trkpt lat="43.7648" lon="4.15426">
        <ele>87.63</ele>
        <time>2025-06-07T18:22:03.711Z</time>
      </trkpt>
      <trkpt lat="43.76485" lon="4.15429">
        <ele>86.36</ele>
        <time>2025-06-07T18:22:09.266Z</time>
      </trkpt>
      <trkpt lat="43.7649" lon="4.15433">
        <ele>85.56</ele>
        <time>2025-06-07T18:22:14.359Z</time>
      </trkpt>
      <trkpt lat="43.76498" lon="4.15433">
        <ele>85.86</ele>
        <time>2025-06-07T18:22:20.366Z</time>
      </trkpt>
      <trkpt lat="43.76498" lon="4.15441">
        <ele>85.27</ele>
        <time>2025-06-07T18:22:25.808Z</time>
      </trkpt>
      <trkpt lat="43.76503" lon="4.15446">
        <ele>85.23</ele>
        <time>2025-06-07T18:22:30.948Z</time>
      </trkpt>
      <trkpt lat="43.76506" lon="4.15448">
        <ele>82.47</ele>
        <time>2025-06-07T18:22:35.958Z</time>
      </trkpt>
      <trkpt lat="43.76511" lon="4.15455">
        <ele>87.52</ele>
        <time>2025-06-07T18:22:41.368Z</time>
      </trkpt>
      <trkpt lat="43.76513" lon="4.15465">
        <ele>85.19</ele>
        <time>2025-06-07T18:22:46.770Z</time>
      </trkpt>
      <trkpt lat="43.76517" lon="4.15476">
        <ele>84.06</ele>
        <time>2025-06-07T18:22:52.282Z</time>
      </trkpt>
      <trkpt lat="43.76515" lon="4.15485">
        <ele>84</ele>
        <time>2025-06-07T18:22:57.691Z</time>
      </trkpt>
      <trkpt lat="43.76516" lon="4.15493">
        <ele>85.41</ele>
        <time>2025-06-07T18:23:03.062Z</time>
      </trkpt>
      <trkpt lat="43.76515" lon="4.15503">
        <ele>83.93</ele>
        <time>2025-06-07T18:23:08.369Z</time>
      </trkpt>
      <trkpt lat="43.76517" lon="4.15513">
        <ele>85.02</ele>
        <time>2025-06-07T18:23:14.344Z</time>
      </trkpt>
      <trkpt lat="43.76515" lon="4.15523">
        <ele>86.24</ele>
        <time>2025-06-07T18:23:19.344Z</time>
      </trkpt>
      <trkpt lat="43.76513" lon="4.15531">
        <ele>84.13</ele>
        <time>2025-06-07T18:23:24.377Z</time>
      </trkpt>
      <trkpt lat="43.76511" lon="4.15541">
        <ele>89.7</ele>
        <time>2025-06-07T18:23:29.892Z</time>
      </trkpt>
      <trkpt lat="43.76508" lon="4.15547">
        <ele>87.19</ele>
        <time>2025-06-07T18:23:35.068Z</time>
      </trkpt>
      <trkpt lat="43.76506" lon="4.15556">
        <ele>87.23</ele>
        <time>2025-06-07T18:23:40.516Z</time>
      </trkpt>
      <trkpt lat="43.76506" lon="4.15564">
        <ele>87.78</ele>
        <time>2025-06-07T18:23:46.098Z</time>
      </trkpt>
      <trkpt lat="43.76506" lon="4.15572">
        <ele>88.78</ele>
        <time>2025-06-07T18:23:51.130Z</time>
      </trkpt>
      <trkpt lat="43.76507" lon="4.15578">
        <ele>90.15</ele>
        <time>2025-06-07T18:23:56.170Z</time>
      </trkpt>
      <trkpt lat="43.76505" lon="4.15585">
        <ele>86.43</ele>
        <time>2025-06-07T18:24:01.514Z</time>
      </trkpt>
      <trkpt lat="43.76505" lon="4.15596">
        <ele>88.16</ele>
        <time>2025-06-07T18:24:07.199Z</time>
      </trkpt>
      <trkpt lat="43.76503" lon="4.15601">
        <ele>88.92</ele>
        <time>2025-06-07T18:24:12.292Z</time>
      </trkpt>
      <trkpt lat="43.76502" lon="4.1561">
        <ele>88.66</ele>
        <time>2025-06-07T18:24:17.338Z</time>
      </trkpt>
      <trkpt lat="43.76503" lon="4.15619">
        <ele>89.09</ele>
        <time>2025-06-07T18:24:22.915Z</time>
      </trkpt>
      <trkpt lat="43.76506" lon="4.15627">
        <ele>89.87</ele>
        <time>2025-06-07T18:24:28.339Z</time>
      </trkpt>
      <trkpt lat="43.76504" lon="4.15636">
        <ele>89.23</ele>
        <time>2025-06-07T18:24:33.389Z</time>
      </trkpt>
      <trkpt lat="43.76503" lon="4.15645">
        <ele>89.98</ele>
        <time>2025-06-07T18:24:38.949Z</time>
      </trkpt>
      <trkpt lat="43.76504" lon="4.15654">
        <ele>90.41</ele>
        <time>2025-06-07T18:24:44.274Z</time>
      </trkpt>
      <trkpt lat="43.76503" lon="4.15662">
        <ele>90.46</ele>
        <time>2025-06-07T18:24:49.332Z</time>
      </trkpt>
      <trkpt lat="43.76504" lon="4.15669">
        <ele>90.52</ele>
        <time>2025-06-07T18:24:54.348Z</time>
      </trkpt>
      <trkpt lat="43.76502" lon="4.1568">
        <ele>90.84</ele>
        <time>2025-06-07T18:24:59.936Z</time>
      </trkpt>
      <trkpt lat="43.76497" lon="4.1569">
        <ele>91.31</ele>
        <time>2025-06-07T18:25:05.271Z</time>
      </trkpt>
      <trkpt lat="43.76493" lon="4.15698">
        <ele>91.13</ele>
        <time>2025-06-07T18:25:10.331Z</time>
      </trkpt>
      <trkpt lat="43.76494" lon="4.15707">
        <ele>90.42</ele>
        <time>2025-06-07T18:25:15.371Z</time>
      </trkpt>
      <trkpt lat="43.7649" lon="4.15718">
        <ele>90.54</ele>
        <time>2025-06-07T18:25:21.157Z</time>
      </trkpt>
      <trkpt lat="43.76488" lon="4.15727">
        <ele>90.25</ele>
        <time>2025-06-07T18:25:26.363Z</time>
      </trkpt>
      <trkpt lat="43.76486" lon="4.15737">
        <ele>89.57</ele>
        <time>2025-06-07T18:25:32.012Z</time>
      </trkpt>
      <trkpt lat="43.76482" lon="4.15744">
        <ele>89.44</ele>
        <time>2025-06-07T18:25:37.356Z</time>
      </trkpt>
      <trkpt lat="43.7648" lon="4.15752">
        <ele>88.5</ele>
        <time>2025-06-07T18:25:42.371Z</time>
      </trkpt>
      <trkpt lat="43.76479" lon="4.15759">
        <ele>88.67</ele>
        <time>2025-06-07T18:25:47.387Z</time>
      </trkpt>
      <trkpt lat="43.76476" lon="4.15767">
        <ele>88.83</ele>
        <time>2025-06-07T18:25:52.402Z</time>
      </trkpt>
      <trkpt lat="43.76471" lon="4.15774">
        <ele>88.46</ele>
        <time>2025-06-07T18:25:58.378Z</time>
      </trkpt>
      <trkpt lat="43.76469" lon="4.15782">
        <ele>87.93</ele>
        <time>2025-06-07T18:26:03.393Z</time>
      </trkpt>
      <trkpt lat="43.76466" lon="4.15792">
        <ele>88.09</ele>
        <time>2025-06-07T18:26:09.369Z</time>
      </trkpt>
      <trkpt lat="43.76458" lon="4.15794">
        <ele>87.44</ele>
        <time>2025-06-07T18:26:15.134Z</time>
      </trkpt>
      <trkpt lat="43.76453" lon="4.15797">
        <ele>87.51</ele>
        <time>2025-06-07T18:26:20.362Z</time>
      </trkpt>
      <trkpt lat="43.76452" lon="4.15805">
        <ele>88.16</ele>
        <time>2025-06-07T18:26:25.378Z</time>
      </trkpt>
      <trkpt lat="43.76448" lon="4.15814">
        <ele>86.91</ele>
        <time>2025-06-07T18:26:30.393Z</time>
      </trkpt>
      <trkpt lat="43.76441" lon="4.15816">
        <ele>87</ele>
        <time>2025-06-07T18:26:36.335Z</time>
      </trkpt>
      <trkpt lat="43.76437" lon="4.15811">
        <ele>86.93</ele>
        <time>2025-06-07T18:26:41.851Z</time>
      </trkpt>
      <trkpt lat="43.7643" lon="4.1581">
        <ele>87.6</ele>
        <time>2025-06-07T18:26:47.291Z</time>
      </trkpt>
      <trkpt lat="43.76423" lon="4.15813">
        <ele>88.09</ele>
        <time>2025-06-07T18:26:52.672Z</time>
      </trkpt>
      <trkpt lat="43.7642" lon="4.15815">
        <ele>87.63</ele>
        <time>2025-06-07T18:26:57.934Z</time>
      </trkpt>
      <trkpt lat="43.76411" lon="4.15819">
        <ele>87.31</ele>
        <time>2025-06-07T18:27:03.377Z</time>
      </trkpt>
      <trkpt lat="43.7641" lon="4.1582">
        <ele>89.61</ele>
        <time>2025-06-07T18:27:09.353Z</time>
      </trkpt>
      <trkpt lat="43.7641" lon="4.15824">
        <ele>80.1</ele>
        <time>2025-06-07T18:27:14.369Z</time>
      </trkpt>
      <trkpt lat="43.76417" lon="4.15828">
        <ele>84.54</ele>
        <time>2025-06-07T18:27:20.407Z</time>
      </trkpt>
      <trkpt lat="43.76418" lon="4.15836">
        <ele>90.2</ele>
        <time>2025-06-07T18:27:26.207Z</time>
      </trkpt>
      <trkpt lat="43.76417" lon="4.15846">
        <ele>83.55</ele>
        <time>2025-06-07T18:27:31.553Z</time>
      </trkpt>
      <trkpt lat="43.76417" lon="4.15856">
        <ele>84.44</ele>
        <time>2025-06-07T18:27:37.350Z</time>
      </trkpt>
      <trkpt lat="43.76417" lon="4.15863">
        <ele>86.94</ele>
        <time>2025-06-07T18:27:43.086Z</time>
      </trkpt>
      <trkpt lat="43.76422" lon="4.15869">
        <ele>83.36</ele>
        <time>2025-06-07T18:27:48.091Z</time>
      </trkpt>
      <trkpt lat="43.76429" lon="4.15869">
        <ele>89.76</ele>
        <time>2025-06-07T18:27:53.367Z</time>
      </trkpt>
      <trkpt lat="43.76432" lon="4.1587">
        <ele>81.17</ele>
        <time>2025-06-07T18:27:59.297Z</time>
      </trkpt>
      <trkpt lat="43.76431" lon="4.15869">
        <ele>85.7</ele>
        <time>2025-06-07T18:28:04.312Z</time>
      </trkpt>
      <trkpt lat="43.76431" lon="4.1587">
        <ele>84.86</ele>
        <time>2025-06-07T18:28:11.927Z</time>
      </trkpt>
      <trkpt lat="43.76439" lon="4.1588">
        <ele>85.22</ele>
        <time>2025-06-07T18:28:17.354Z</time>
      </trkpt>
      <trkpt lat="43.76449" lon="4.1588">
        <ele>83.44</ele>
        <time>2025-06-07T18:28:22.850Z</time>
      </trkpt>
      <trkpt lat="43.76456" lon="4.15881">
        <ele>80.67</ele>
        <time>2025-06-07T18:28:28.407Z</time>
      </trkpt>
      <trkpt lat="43.76462" lon="4.15878">
        <ele>81.12</ele>
        <time>2025-06-07T18:28:33.653Z</time>
      </trkpt>
      <trkpt lat="43.76465" lon="4.15883">
        <ele>81.5</ele>
        <time>2025-06-07T18:28:38.912Z</time>
      </trkpt>
      <trkpt lat="43.76468" lon="4.15888">
        <ele>82.27</ele>
        <time>2025-06-07T18:28:44.288Z</time>
      </trkpt>
      <trkpt lat="43.7647" lon="4.15893">
        <ele>82.84</ele>
        <time>2025-06-07T18:28:49.365Z</time>
      </trkpt>
      <trkpt lat="43.76473" lon="4.15899">
        <ele>80.5</ele>
        <time>2025-06-07T18:28:54.489Z</time>
      </trkpt>
      <trkpt lat="43.76474" lon="4.15911">
        <ele>78.67</ele>
        <time>2025-06-07T18:29:00.176Z</time>
      </trkpt>
      <trkpt lat="43.76473" lon="4.1592">
        <ele>78.99</ele>
        <time>2025-06-07T18:29:05.197Z</time>
      </trkpt>
      <trkpt lat="43.76477" lon="4.1593">
        <ele>75.76</ele>
        <time>2025-06-07T18:29:10.408Z</time>
      </trkpt>
      <trkpt lat="43.76486" lon="4.1593">
        <ele>75.89</ele>
        <time>2025-06-07T18:29:15.932Z</time>
      </trkpt>
      <trkpt lat="43.76491" lon="4.15926">
        <ele>76.25</ele>
        <time>2025-06-07T18:29:21.407Z</time>
      </trkpt>
      <trkpt lat="43.7649" lon="4.15922">
        <ele>75.78</ele>
        <time>2025-06-07T18:29:26.414Z</time>
      </trkpt>
      <trkpt lat="43.76499" lon="4.15916">
        <ele>75.67</ele>
        <time>2025-06-07T18:29:31.736Z</time>
      </trkpt>
      <trkpt lat="43.76506" lon="4.15914">
        <ele>75.13</ele>
        <time>2025-06-07T18:29:37.406Z</time>
      </trkpt>
      <trkpt lat="43.76515" lon="4.15917">
        <ele>74.36</ele>
        <time>2025-06-07T18:29:43.057Z</time>
      </trkpt>
      <trkpt lat="43.76523" lon="4.15921">
        <ele>74.41</ele>
        <time>2025-06-07T18:29:48.401Z</time>
      </trkpt>
      <trkpt lat="43.76531" lon="4.15922">
        <ele>73.88</ele>
        <time>2025-06-07T18:29:53.414Z</time>
      </trkpt>
      <trkpt lat="43.7654" lon="4.15926">
        <ele>73.35</ele>
        <time>2025-06-07T18:29:59.294Z</time>
      </trkpt>
      <trkpt lat="43.76546" lon="4.15929">
        <ele>73.79</ele>
        <time>2025-06-07T18:30:04.406Z</time>
      </trkpt>
      <trkpt lat="43.76555" lon="4.15932">
        <ele>72.26</ele>
        <time>2025-06-07T18:30:10.901Z</time>
      </trkpt>
      <trkpt lat="43.76565" lon="4.15928">
        <ele>72.54</ele>
        <time>2025-06-07T18:30:15.996Z</time>
      </trkpt>
      <trkpt lat="43.76571" lon="4.15925">
        <ele>72.29</ele>
        <time>2025-06-07T18:30:21.373Z</time>
      </trkpt>
      <trkpt lat="43.7657" lon="4.15923">
        <ele>67.24</ele>
        <time>2025-06-07T18:30:26.675Z</time>
      </trkpt>
      <trkpt lat="43.76575" lon="4.15928">
        <ele>73.51</ele>
        <time>2025-06-07T18:30:32.135Z</time>
      </trkpt>
      <trkpt lat="43.76583" lon="4.15931">
        <ele>71.07</ele>
        <time>2025-06-07T18:30:37.694Z</time>
      </trkpt>
      <trkpt lat="43.76589" lon="4.15933">
        <ele>69.88</ele>
        <time>2025-06-07T18:30:42.736Z</time>
      </trkpt>
      <trkpt lat="43.76593" lon="4.15938">
        <ele>65.33</ele>
        <time>2025-06-07T18:30:48.372Z</time>
      </trkpt>
      <trkpt lat="43.76597" lon="4.15943">
        <ele>62.52</ele>
        <time>2025-06-07T18:30:53.407Z</time>
      </trkpt>
      <trkpt lat="43.76602" lon="4.1594">
        <ele>77.41</ele>
        <time>2025-06-07T18:30:59.393Z</time>
      </trkpt>
      <trkpt lat="43.76605" lon="4.15933">
        <ele>66.99</ele>
        <time>2025-06-07T18:31:04.416Z</time>
      </trkpt>
      <trkpt lat="43.7661" lon="4.15925">
        <ele>66.38</ele>
        <time>2025-06-07T18:31:10.234Z</time>
      </trkpt>
      <trkpt lat="43.76613" lon="4.15915">
        <ele>70.68</ele>
        <time>2025-06-07T18:31:15.657Z</time>
      </trkpt>
      <trkpt lat="43.76619" lon="4.15908">
        <ele>67.04</ele>
        <time>2025-06-07T18:31:20.996Z</time>
      </trkpt>
      <trkpt lat="43.76626" lon="4.15903">
        <ele>68.4</ele>
        <time>2025-06-07T18:31:27.324Z</time>
      </trkpt>
      <trkpt lat="43.76632" lon="4.15904">
        <ele>68.08</ele>
        <time>2025-06-07T18:31:32.408Z</time>
      </trkpt>
      <trkpt lat="43.76637" lon="4.15894">
        <ele>68.67</ele>
        <time>2025-06-07T18:31:37.906Z</time>
      </trkpt>
      <trkpt lat="43.76643" lon="4.15888">
        <ele>66.57</ele>
        <time>2025-06-07T18:31:43.056Z</time>
      </trkpt>
      <trkpt lat="43.76648" lon="4.15881">
        <ele>64.72</ele>
        <time>2025-06-07T18:31:48.408Z</time>
      </trkpt>
      <trkpt lat="43.76651" lon="4.15872">
        <ele>67.65</ele>
        <time>2025-06-07T18:31:53.932Z</time>
      </trkpt>
      <trkpt lat="43.76656" lon="4.1587">
        <ele>66.91</ele>
        <time>2025-06-07T18:31:59.181Z</time>
      </trkpt>
      <trkpt lat="43.76662" lon="4.1587">
        <ele>66.88</ele>
        <time>2025-06-07T18:32:04.372Z</time>
      </trkpt>
      <trkpt lat="43.7667" lon="4.15865">
        <ele>66.3</ele>
        <time>2025-06-07T18:32:10.356Z</time>
      </trkpt>
      <trkpt lat="43.76675" lon="4.15855">
        <ele>68.29</ele>
        <time>2025-06-07T18:32:15.553Z</time>
      </trkpt>
      <trkpt lat="43.76674" lon="4.15846">
        <ele>65.72</ele>
        <time>2025-06-07T18:32:21.154Z</time>
      </trkpt>
      <trkpt lat="43.76672" lon="4.15836">
        <ele>68.34</ele>
        <time>2025-06-07T18:32:26.372Z</time>
      </trkpt>
      <trkpt lat="43.76674" lon="4.15825">
        <ele>66.12</ele>
        <time>2025-06-07T18:32:31.388Z</time>
      </trkpt>
      <trkpt lat="43.76674" lon="4.15815">
        <ele>64.77</ele>
        <time>2025-06-07T18:32:36.405Z</time>
      </trkpt>
      <trkpt lat="43.76674" lon="4.15805">
        <ele>68.64</ele>
        <time>2025-06-07T18:32:41.929Z</time>
      </trkpt>
      <trkpt lat="43.76677" lon="4.15796">
        <ele>67.36</ele>
        <time>2025-06-07T18:32:47.288Z</time>
      </trkpt>
      <trkpt lat="43.76681" lon="4.15794">
        <ele>62.31</ele>
        <time>2025-06-07T18:32:52.304Z</time>
      </trkpt>
      <trkpt lat="43.76681" lon="4.15793">
        <ele>60.36</ele>
        <time>2025-06-07T18:32:58.387Z</time>
      </trkpt>
      <trkpt lat="43.76683" lon="4.15791">
        <ele>67.88</ele>
        <time>2025-06-07T18:33:05.789Z</time>
      </trkpt>
      <trkpt lat="43.76688" lon="4.1578">
        <ele>66.85</ele>
        <time>2025-06-07T18:33:10.989Z</time>
      </trkpt>
      <trkpt lat="43.76689" lon="4.1577">
        <ele>67.94</ele>
        <time>2025-06-07T18:33:16.272Z</time>
      </trkpt>
      <trkpt lat="43.76693" lon="4.15761">
        <ele>67.34</ele>
        <time>2025-06-07T18:33:21.688Z</time>
      </trkpt>
      <trkpt lat="43.76695" lon="4.1575">
        <ele>65.06</ele>
        <time>2025-06-07T18:33:27.210Z</time>
      </trkpt>
      <trkpt lat="43.76694" lon="4.15741">
        <ele>66.41</ele>
        <time>2025-06-07T18:33:32.322Z</time>
      </trkpt>
      <trkpt lat="43.76694" lon="4.15731">
        <ele>67.04</ele>
        <time>2025-06-07T18:33:37.458Z</time>
      </trkpt>
      <trkpt lat="43.76695" lon="4.1572">
        <ele>67.04</ele>
        <time>2025-06-07T18:33:43.351Z</time>
      </trkpt>
      <trkpt lat="43.76696" lon="4.15708">
        <ele>66.57</ele>
        <time>2025-06-07T18:33:48.812Z</time>
      </trkpt>
      <trkpt lat="43.76697" lon="4.15698">
        <ele>66.93</ele>
        <time>2025-06-07T18:33:54.412Z</time>
      </trkpt>
      <trkpt lat="43.76697" lon="4.15688">
        <ele>69.73</ele>
        <time>2025-06-07T18:33:59.991Z</time>
      </trkpt>
      <trkpt lat="43.76699" lon="4.15679">
        <ele>65.4</ele>
        <time>2025-06-07T18:34:05.405Z</time>
      </trkpt>
      <trkpt lat="43.76702" lon="4.15668">
        <ele>67.5</ele>
        <time>2025-06-07T18:34:10.831Z</time>
      </trkpt>
      <trkpt lat="43.76702" lon="4.1566">
        <ele>66.08</ele>
        <time>2025-06-07T18:34:15.924Z</time>
      </trkpt>
      <trkpt lat="43.767" lon="4.15656">
        <ele>68.54</ele>
        <time>2025-06-07T18:34:20.951Z</time>
      </trkpt>
      <trkpt lat="43.76698" lon="4.15654">
        <ele>68.19</ele>
        <time>2025-06-07T18:34:26.121Z</time>
      </trkpt>
      <trkpt lat="43.76695" lon="4.15645">
        <ele>66.94</ele>
        <time>2025-06-07T18:34:31.459Z</time>
      </trkpt>
      <trkpt lat="43.76697" lon="4.15632">
        <ele>68.51</ele>
        <time>2025-06-07T18:34:37.233Z</time>
      </trkpt>
      <trkpt lat="43.76698" lon="4.15624">
        <ele>69.45</ele>
        <time>2025-06-07T18:34:42.326Z</time>
      </trkpt>
      <trkpt lat="43.76699" lon="4.15616">
        <ele>67.95</ele>
        <time>2025-06-07T18:34:47.407Z</time>
      </trkpt>
      <trkpt lat="43.76704" lon="4.15609">
        <ele>66.71</ele>
        <time>2025-06-07T18:34:53.417Z</time>
      </trkpt>
      <trkpt lat="43.76709" lon="4.15601">
        <ele>67.07</ele>
        <time>2025-06-07T18:34:59.471Z</time>
      </trkpt>
      <trkpt lat="43.76708" lon="4.15593">
        <ele>67.94</ele>
        <time>2025-06-07T18:35:05.147Z</time>
      </trkpt>
      <trkpt lat="43.76711" lon="4.15584">
        <ele>66.22</ele>
        <time>2025-06-07T18:35:10.407Z</time>
      </trkpt>
      <trkpt lat="43.76711" lon="4.15574">
        <ele>71.48</ele>
        <time>2025-06-07T18:35:16.376Z</time>
      </trkpt>
      <trkpt lat="43.76708" lon="4.15565">
        <ele>67.66</ele>
        <time>2025-06-07T18:35:21.819Z</time>
      </trkpt>
      <trkpt lat="43.76702" lon="4.15558">
        <ele>64.96</ele>
        <time>2025-06-07T18:35:26.843Z</time>
      </trkpt>
      <trkpt lat="43.76699" lon="4.15549">
        <ele>71.54</ele>
        <time>2025-06-07T18:35:31.876Z</time>
      </trkpt>
      <trkpt lat="43.76699" lon="4.15545">
        <ele>70.24</ele>
        <time>2025-06-07T18:35:36.892Z</time>
      </trkpt>
      <trkpt lat="43.76698" lon="4.15546">
        <ele>67.6</ele>
        <time>2025-06-07T18:35:44.362Z</time>
      </trkpt>
      <trkpt lat="43.76698" lon="4.15542">
        <ele>68.03</ele>
        <time>2025-06-07T18:35:49.377Z</time>
      </trkpt>
      <trkpt lat="43.76696" lon="4.15528">
        <ele>67.76</ele>
        <time>2025-06-07T18:35:55.063Z</time>
      </trkpt>
      <trkpt lat="43.76692" lon="4.15519">
        <ele>69.57</ele>
        <time>2025-06-07T18:36:00.369Z</time>
      </trkpt>
      <trkpt lat="43.7669" lon="4.1551">
        <ele>68.71</ele>
        <time>2025-06-07T18:36:06.284Z</time>
      </trkpt>
      <trkpt lat="43.76683" lon="4.15507">
        <ele>66.5</ele>
        <time>2025-06-07T18:36:12.065Z</time>
      </trkpt>
      <trkpt lat="43.76676" lon="4.15504">
        <ele>69.02</ele>
        <time>2025-06-07T18:36:17.224Z</time>
      </trkpt>
      <trkpt lat="43.76671" lon="4.15499">
        <ele>65.62</ele>
        <time>2025-06-07T18:36:22.351Z</time>
      </trkpt>
      <trkpt lat="43.76663" lon="4.15501">
        <ele>69.33</ele>
        <time>2025-06-07T18:36:27.367Z</time>
      </trkpt>
      <trkpt lat="43.76655" lon="4.15504">
        <ele>71.81</ele>
        <time>2025-06-07T18:36:32.806Z</time>
      </trkpt>
      <trkpt lat="43.76649" lon="4.155">
        <ele>70.02</ele>
        <time>2025-06-07T18:36:38.122Z</time>
      </trkpt>
      <trkpt lat="43.76642" lon="4.15498">
        <ele>70.04</ele>
        <time>2025-06-07T18:36:43.375Z</time>
      </trkpt>
      <trkpt lat="43.76634" lon="4.15495">
        <ele>71.79</ele>
        <time>2025-06-07T18:36:49.350Z</time>
      </trkpt>
      <trkpt lat="43.76625" lon="4.15496">
        <ele>72.28</ele>
        <time>2025-06-07T18:36:54.564Z</time>
      </trkpt>
      <trkpt lat="43.76617" lon="4.15495">
        <ele>74.9</ele>
        <time>2025-06-07T18:37:00.343Z</time>
      </trkpt>
      <trkpt lat="43.76611" lon="4.1549">
        <ele>72.41</ele>
        <time>2025-06-07T18:37:05.680Z</time>
      </trkpt>
      <trkpt lat="43.76604" lon="4.15483">
        <ele>76.38</ele>
        <time>2025-06-07T18:37:11.334Z</time>
      </trkpt>
      <trkpt lat="43.76599" lon="4.15476">
        <ele>74.7</ele>
        <time>2025-06-07T18:37:16.600Z</time>
      </trkpt>
      <trkpt lat="43.76594" lon="4.15469">
        <ele>76.87</ele>
        <time>2025-06-07T18:37:22.325Z</time>
      </trkpt>
      <trkpt lat="43.7659" lon="4.15464">
        <ele>78.84</ele>
        <time>2025-06-07T18:37:27.340Z</time>
      </trkpt>
      <trkpt lat="43.76586" lon="4.15458">
        <ele>77.3</ele>
        <time>2025-06-07T18:37:32.624Z</time>
      </trkpt>
      <trkpt lat="43.76584" lon="4.15456">
        <ele>75.29</ele>
        <time>2025-06-07T18:37:38.380Z</time>
      </trkpt>
      <trkpt lat="43.76583" lon="4.15455">
        <ele>77.11</ele>
        <time>2025-06-07T18:37:45.360Z</time>
      </trkpt>
      <trkpt lat="43.76578" lon="4.15449">
        <ele>79.36</ele>
        <time>2025-06-07T18:37:51.425Z</time>
      </trkpt>
      <trkpt lat="43.76574" lon="4.15445">
        <ele>79.64</ele>
        <time>2025-06-07T18:37:57.327Z</time>
      </trkpt>
      <trkpt lat="43.76568" lon="4.15444">
        <ele>79.83</ele>
        <time>2025-06-07T18:38:02.860Z</time>
      </trkpt>
      <trkpt lat="43.76561" lon="4.15442">
        <ele>79.28</ele>
        <time>2025-06-07T18:38:08.425Z</time>
      </trkpt>
      <trkpt lat="43.76556" lon="4.15436">
        <ele>80.34</ele>
        <time>2025-06-07T18:38:13.867Z</time>
      </trkpt>
      <trkpt lat="43.7655" lon="4.15431">
        <ele>81.97</ele>
        <time>2025-06-07T18:38:19.197Z</time>
      </trkpt>
      <trkpt lat="43.76544" lon="4.15427">
        <ele>81.78</ele>
        <time>2025-06-07T18:38:25.100Z</time>
      </trkpt>
      <trkpt lat="43.76537" lon="4.1542">
        <ele>82.11</ele>
        <time>2025-06-07T18:38:30.333Z</time>
      </trkpt>
      <trkpt lat="43.76529" lon="4.15413">
        <ele>83.68</ele>
        <time>2025-06-07T18:38:35.423Z</time>
      </trkpt>
      <trkpt lat="43.76521" lon="4.15406">
        <ele>83.56</ele>
        <time>2025-06-07T18:38:41.118Z</time>
      </trkpt>
      <trkpt lat="43.76514" lon="4.15402">
        <ele>84.17</ele>
        <time>2025-06-07T18:38:46.447Z</time>
      </trkpt>
      <trkpt lat="43.76507" lon="4.15398">
        <ele>83.52</ele>
        <time>2025-06-07T18:38:51.826Z</time>
      </trkpt>
      <trkpt lat="43.76502" lon="4.154">
        <ele>85.8</ele>
        <time>2025-06-07T18:38:57.002Z</time>
      </trkpt>
      <trkpt lat="43.76497" lon="4.15399">
        <ele>80.22</ele>
        <time>2025-06-07T18:39:02.333Z</time>
      </trkpt>
      <trkpt lat="43.76491" lon="4.15399">
        <ele>83.65</ele>
        <time>2025-06-07T18:39:07.378Z</time>
      </trkpt>
      <trkpt lat="43.76482" lon="4.15393">
        <ele>84.21</ele>
        <time>2025-06-07T18:39:13.397Z</time>
      </trkpt>
      <trkpt lat="43.76473" lon="4.15389">
        <ele>85.53</ele>
        <time>2025-06-07T18:39:19.407Z</time>
      </trkpt>
      <trkpt lat="43.76467" lon="4.1538">
        <ele>83.41</ele>
        <time>2025-06-07T18:39:25.261Z</time>
      </trkpt>
      <trkpt lat="43.76457" lon="4.15377">
        <ele>82.6</ele>
        <time>2025-06-07T18:39:30.399Z</time>
      </trkpt>
      <trkpt lat="43.76449" lon="4.15373">
        <ele>84.15</ele>
        <time>2025-06-07T18:39:36.374Z</time>
      </trkpt>
      <trkpt lat="43.76442" lon="4.15372">
        <ele>83.75</ele>
        <time>2025-06-07T18:39:41.390Z</time>
      </trkpt>
      <trkpt lat="43.76434" lon="4.15371">
        <ele>83.19</ele>
        <time>2025-06-07T18:39:47.367Z</time>
      </trkpt>
      <trkpt lat="43.76428" lon="4.15371">
        <ele>81.05</ele>
        <time>2025-06-07T18:39:52.383Z</time>
      </trkpt>
      <trkpt lat="43.76421" lon="4.15368">
        <ele>85.1</ele>
        <time>2025-06-07T18:39:58.199Z</time>
      </trkpt>
      <trkpt lat="43.76414" lon="4.15363">
        <ele>83.51</ele>
        <time>2025-06-07T18:40:03.324Z</time>
      </trkpt>
      <trkpt lat="43.76405" lon="4.15359">
        <ele>82.81</ele>
        <time>2025-06-07T18:40:08.390Z</time>
      </trkpt>
      <trkpt lat="43.76395" lon="4.15357">
        <ele>82.49</ele>
        <time>2025-06-07T18:40:13.940Z</time>
      </trkpt>
      <trkpt lat="43.76387" lon="4.15355">
        <ele>82.75</ele>
        <time>2025-06-07T18:40:19.380Z</time>
      </trkpt>
      <trkpt lat="43.76379" lon="4.15351">
        <ele>78.7</ele>
        <time>2025-06-07T18:40:24.397Z</time>
      </trkpt>
      <trkpt lat="43.76371" lon="4.15346">
        <ele>80.87</ele>
        <time>2025-06-07T18:40:30.372Z</time>
      </trkpt>
      <trkpt lat="43.76364" lon="4.15346">
        <ele>78.46</ele>
        <time>2025-06-07T18:40:35.717Z</time>
      </trkpt>
      <trkpt lat="43.76357" lon="4.15344">
        <ele>81.4</ele>
        <time>2025-06-07T18:40:41.364Z</time>
      </trkpt>
      <trkpt lat="43.76351" lon="4.15344">
        <ele>86.05</ele>
        <time>2025-06-07T18:40:46.387Z</time>
      </trkpt>
      <trkpt lat="43.76345" lon="4.15339">
        <ele>74.68</ele>
        <time>2025-06-07T18:40:51.403Z</time>
      </trkpt>
      <trkpt lat="43.76335" lon="4.15341">
        <ele>77.49</ele>
        <time>2025-06-07T18:40:56.903Z</time>
      </trkpt>
      <trkpt lat="43.76328" lon="4.15343">
        <ele>80.2</ele>
        <time>2025-06-07T18:41:02.238Z</time>
      </trkpt>
      <trkpt lat="43.7632" lon="4.15343">
        <ele>77.26</ele>
        <time>2025-06-07T18:41:07.410Z</time>
      </trkpt>
      <trkpt lat="43.76313" lon="4.15344">
        <ele>80.31</ele>
        <time>2025-06-07T18:41:12.723Z</time>
      </trkpt>
      <trkpt lat="43.76306" lon="4.15343">
        <ele>77.62</ele>
        <time>2025-06-07T18:41:17.976Z</time>
      </trkpt>
      <trkpt lat="43.76299" lon="4.15343">
        <ele>81.39</ele>
        <time>2025-06-07T18:41:23.143Z</time>
      </trkpt>
      <trkpt lat="43.76291" lon="4.15345">
        <ele>75.55</ele>
        <time>2025-06-07T18:41:28.942Z</time>
      </trkpt>
      <trkpt lat="43.76282" lon="4.15343">
        <ele>73.85</ele>
        <time>2025-06-07T18:41:34.275Z</time>
      </trkpt>
      <trkpt lat="43.76275" lon="4.15342">
        <ele>73.9</ele>
        <time>2025-06-07T18:41:39.743Z</time>
      </trkpt>
      <trkpt lat="43.76268" lon="4.15337">
        <ele>76.53</ele>
        <time>2025-06-07T18:41:44.796Z</time>
      </trkpt>
      <trkpt lat="43.76263" lon="4.15329">
        <ele>76.42</ele>
        <time>2025-06-07T18:41:50.308Z</time>
      </trkpt>
      <trkpt lat="43.76257" lon="4.15322">
        <ele>77.61</ele>
        <time>2025-06-07T18:41:55.323Z</time>
      </trkpt>
      <trkpt lat="43.76252" lon="4.15313">
        <ele>78.15</ele>
        <time>2025-06-07T18:42:00.526Z</time>
      </trkpt>
      <trkpt lat="43.76249" lon="4.15305">
        <ele>79</ele>
        <time>2025-06-07T18:42:05.531Z</time>
      </trkpt>
      <trkpt lat="43.76246" lon="4.15293">
        <ele>78.07</ele>
        <time>2025-06-07T18:42:10.880Z</time>
      </trkpt>
      <trkpt lat="43.76245" lon="4.15282">
        <ele>79.58</ele>
        <time>2025-06-07T18:42:16.347Z</time>
      </trkpt>
      <trkpt lat="43.76248" lon="4.15273">
        <ele>79.58</ele>
        <time>2025-06-07T18:42:21.400Z</time>
      </trkpt>
      <trkpt lat="43.7625" lon="4.15264">
        <ele>78.01</ele>
        <time>2025-06-07T18:42:26.830Z</time>
      </trkpt>
      <trkpt lat="43.76254" lon="4.15255">
        <ele>81.12</ele>
        <time>2025-06-07T18:42:32.353Z</time>
      </trkpt>
      <trkpt lat="43.76258" lon="4.15247">
        <ele>83.53</ele>
        <time>2025-06-07T18:42:37.369Z</time>
      </trkpt>
      <trkpt lat="43.7626" lon="4.15238">
        <ele>76.21</ele>
        <time>2025-06-07T18:42:42.406Z</time>
      </trkpt>
      <trkpt lat="43.7626" lon="4.15226">
        <ele>80.59</ele>
        <time>2025-06-07T18:42:48.360Z</time>
      </trkpt>
      <trkpt lat="43.7626" lon="4.15215">
        <ele>79.59</ele>
        <time>2025-06-07T18:42:53.904Z</time>
      </trkpt>
      <trkpt lat="43.76259" lon="4.15204">
        <ele>76.37</ele>
        <time>2025-06-07T18:42:59.352Z</time>
      </trkpt>
      <trkpt lat="43.76257" lon="4.15194">
        <ele>73.63</ele>
        <time>2025-06-07T18:43:04.367Z</time>
      </trkpt>
      <trkpt lat="43.76258" lon="4.15185">
        <ele>75.27</ele>
        <time>2025-06-07T18:43:09.810Z</time>
      </trkpt>
      <trkpt lat="43.76258" lon="4.15173">
        <ele>75.01</ele>
        <time>2025-06-07T18:43:15.360Z</time>
      </trkpt>
      <trkpt lat="43.76258" lon="4.15162">
        <ele>73.64</ele>
        <time>2025-06-07T18:43:20.616Z</time>
      </trkpt>
      <trkpt lat="43.7626" lon="4.15152">
        <ele>73.8</ele>
        <time>2025-06-07T18:43:25.899Z</time>
      </trkpt>
      <trkpt lat="43.76262" lon="4.15142">
        <ele>72.54</ele>
        <time>2025-06-07T18:43:31.365Z</time>
      </trkpt>
      <trkpt lat="43.76264" lon="4.15134">
        <ele>71.96</ele>
        <time>2025-06-07T18:43:36.381Z</time>
      </trkpt>
      <trkpt lat="43.76267" lon="4.15125">
        <ele>70.57</ele>
        <time>2025-06-07T18:43:41.396Z</time>
      </trkpt>
      <trkpt lat="43.7627" lon="4.15116">
        <ele>71.92</ele>
        <time>2025-06-07T18:43:46.412Z</time>
      </trkpt>
      <trkpt lat="43.76272" lon="4.15106">
        <ele>71.76</ele>
        <time>2025-06-07T18:43:51.600Z</time>
      </trkpt>
      <trkpt lat="43.76274" lon="4.15097">
        <ele>69.86</ele>
        <time>2025-06-07T18:43:56.988Z</time>
      </trkpt>
      <trkpt lat="43.76275" lon="4.15088">
        <ele>71.6</ele>
        <time>2025-06-07T18:44:02.330Z</time>
      </trkpt>
      <trkpt lat="43.76277" lon="4.15079">
        <ele>68.61</ele>
        <time>2025-06-07T18:44:08.264Z</time>
      </trkpt>
      <trkpt lat="43.76276" lon="4.1507">
        <ele>76.03</ele>
        <time>2025-06-07T18:44:13.321Z</time>
      </trkpt>
      <trkpt lat="43.7628" lon="4.15063">
        <ele>70.24</ele>
        <time>2025-06-07T18:44:18.464Z</time>
      </trkpt>
      <trkpt lat="43.76282" lon="4.15053">
        <ele>70.33</ele>
        <time>2025-06-07T18:44:23.887Z</time>
      </trkpt>
      <trkpt lat="43.76285" lon="4.15044">
        <ele>69.68</ele>
        <time>2025-06-07T18:44:29.247Z</time>
      </trkpt>
      <trkpt lat="43.76287" lon="4.15033">
        <ele>69.28</ele>
        <time>2025-06-07T18:44:34.344Z</time>
      </trkpt>
      <trkpt lat="43.76288" lon="4.15024">
        <ele>68.12</ele>
        <time>2025-06-07T18:44:39.892Z</time>
      </trkpt>
      <trkpt lat="43.7629" lon="4.15015">
        <ele>68.28</ele>
        <time>2025-06-07T18:44:44.948Z</time>
      </trkpt>
      <trkpt lat="43.76293" lon="4.15007">
        <ele>68.65</ele>
        <time>2025-06-07T18:44:49.954Z</time>
      </trkpt>
      <trkpt lat="43.76294" lon="4.14999">
        <ele>67.5</ele>
        <time>2025-06-07T18:44:55.383Z</time>
      </trkpt>
      <trkpt lat="43.76295" lon="4.14992">
        <ele>67.1</ele>
        <time>2025-06-07T18:45:00.400Z</time>
      </trkpt>
      <trkpt lat="43.76295" lon="4.14989">
        <ele>67.49</ele>
        <time>2025-06-07T18:45:05.656Z</time>
      </trkpt>
      <trkpt lat="43.76297" lon="4.14978">
        <ele>61.61</ele>
        <time>2025-06-07T18:45:11.217Z</time>
      </trkpt>
      <trkpt lat="43.76299" lon="4.14968">
        <ele>66.72</ele>
        <time>2025-06-07T18:45:16.406Z</time>
      </trkpt>
      <trkpt lat="43.76304" lon="4.1496">
        <ele>65.57</ele>
        <time>2025-06-07T18:45:21.852Z</time>
      </trkpt>
      <trkpt lat="43.76309" lon="4.14953">
        <ele>65.15</ele>
        <time>2025-06-07T18:45:27.000Z</time>
      </trkpt>
      <trkpt lat="43.76313" lon="4.14947">
        <ele>65.98</ele>
        <time>2025-06-07T18:45:32.413Z</time>
      </trkpt>
      <trkpt lat="43.76315" lon="4.14939">
        <ele>65.65</ele>
        <time>2025-06-07T18:45:37.912Z</time>
      </trkpt>
      <trkpt lat="43.76314" lon="4.14936">
        <ele>63.47</ele>
        <time>2025-06-07T18:45:43.307Z</time>
      </trkpt>
      <trkpt lat="43.76308" lon="4.14936">
        <ele>64.7</ele>
        <time>2025-06-07T18:45:48.351Z</time>
      </trkpt>
      <trkpt lat="43.76301" lon="4.14939">
        <ele>64.43</ele>
        <time>2025-06-07T18:45:54.133Z</time>
      </trkpt>
      <trkpt lat="43.76293" lon="4.14944">
        <ele>62.41</ele>
        <time>2025-06-07T18:45:59.313Z</time>
      </trkpt>
      <trkpt lat="43.76285" lon="4.14947">
        <ele>66.72</ele>
        <time>2025-06-07T18:46:04.855Z</time>
      </trkpt>
      <trkpt lat="43.76278" lon="4.14945">
        <ele>62.93</ele>
        <time>2025-06-07T18:46:10.315Z</time>
      </trkpt>
      <trkpt lat="43.76271" lon="4.14942">
        <ele>65.02</ele>
        <time>2025-06-07T18:46:15.752Z</time>
      </trkpt>
      <trkpt lat="43.76263" lon="4.1494">
        <ele>63.39</ele>
        <time>2025-06-07T18:46:21.157Z</time>
      </trkpt>
      <trkpt lat="43.76256" lon="4.14938">
        <ele>58.23</ele>
        <time>2025-06-07T18:46:26.419Z</time>
      </trkpt>
      <trkpt lat="43.76248" lon="4.14937">
        <ele>59.92</ele>
        <time>2025-06-07T18:46:32.394Z</time>
      </trkpt>
      <trkpt lat="43.76241" lon="4.14937">
        <ele>60.79</ele>
        <time>2025-06-07T18:46:37.410Z</time>
      </trkpt>
      <trkpt lat="43.76233" lon="4.14934">
        <ele>66.64</ele>
        <time>2025-06-07T18:46:43.387Z</time>
      </trkpt>
      <trkpt lat="43.76227" lon="4.14929">
        <ele>63.73</ele>
        <time>2025-06-07T18:46:48.401Z</time>
      </trkpt>
      <trkpt lat="43.76219" lon="4.14925">
        <ele>61.51</ele>
        <time>2025-06-07T18:46:54.377Z</time>
      </trkpt>
      <trkpt lat="43.76212" lon="4.14925">
        <ele>60.3</ele>
        <time>2025-06-07T18:47:00.391Z</time>
      </trkpt>
      <trkpt lat="43.76206" lon="4.14924">
        <ele>60.78</ele>
        <time>2025-06-07T18:47:05.631Z</time>
      </trkpt>
      <trkpt lat="43.76204" lon="4.14916">
        <ele>58.65</ele>
        <time>2025-06-07T18:47:11.277Z</time>
      </trkpt>
      <trkpt lat="43.76206" lon="4.14908">
        <ele>62.78</ele>
        <time>2025-06-07T18:47:16.360Z</time>
      </trkpt>
      <trkpt lat="43.7621" lon="4.14898">
        <ele>59.69</ele>
        <time>2025-06-07T18:47:22.169Z</time>
      </trkpt>
      <trkpt lat="43.76213" lon="4.14888">
        <ele>58.21</ele>
        <time>2025-06-07T18:47:27.575Z</time>
      </trkpt>
      <trkpt lat="43.76215" lon="4.14878">
        <ele>58.47</ele>
        <time>2025-06-07T18:47:33.009Z</time>
      </trkpt>
      <trkpt lat="43.76217" lon="4.14869">
        <ele>62.24</ele>
        <time>2025-06-07T18:47:38.344Z</time>
      </trkpt>
      <trkpt lat="43.7622" lon="4.14862">
        <ele>58.61</ele>
        <time>2025-06-07T18:47:43.358Z</time>
      </trkpt>
      <trkpt lat="43.76221" lon="4.14854">
        <ele>61.47</ele>
        <time>2025-06-07T18:47:48.374Z</time>
      </trkpt>
      <trkpt lat="43.76222" lon="4.14845">
        <ele>59.36</ele>
        <time>2025-06-07T18:47:53.390Z</time>
      </trkpt>
      <trkpt lat="43.76224" lon="4.14836">
        <ele>57.2</ele>
        <time>2025-06-07T18:47:58.612Z</time>
      </trkpt>
      <trkpt lat="43.76226" lon="4.14826">
        <ele>57.7</ele>
        <time>2025-06-07T18:48:04.381Z</time>
      </trkpt>
      <trkpt lat="43.76227" lon="4.14815">
        <ele>58.3</ele>
        <time>2025-06-07T18:48:09.397Z</time>
      </trkpt>
      <trkpt lat="43.76226" lon="4.14805">
        <ele>58.86</ele>
        <time>2025-06-07T18:48:14.756Z</time>
      </trkpt>
      <trkpt lat="43.76226" lon="4.14795">
        <ele>58.77</ele>
        <time>2025-06-07T18:48:20.213Z</time>
      </trkpt>
      <trkpt lat="43.76226" lon="4.14789">
        <ele>58.73</ele>
        <time>2025-06-07T18:48:25.290Z</time>
      </trkpt>
      <trkpt lat="43.76228" lon="4.14777">
        <ele>57.57</ele>
        <time>2025-06-07T18:48:30.428Z</time>
      </trkpt>
      <trkpt lat="43.76229" lon="4.14765">
        <ele>58.19</ele>
        <time>2025-06-07T18:48:36.255Z</time>
      </trkpt>
      <trkpt lat="43.76229" lon="4.14755">
        <ele>57.77</ele>
        <time>2025-06-07T18:48:41.734Z</time>
      </trkpt>
      <trkpt lat="43.7623" lon="4.14746">
        <ele>58.96</ele>
        <time>2025-06-07T18:48:47.077Z</time>
      </trkpt>
      <trkpt lat="43.76233" lon="4.14737">
        <ele>58.21</ele>
        <time>2025-06-07T18:48:52.734Z</time>
      </trkpt>
      <trkpt lat="43.76237" lon="4.14728">
        <ele>57.69</ele>
        <time>2025-06-07T18:48:58.177Z</time>
      </trkpt>
      <trkpt lat="43.76239" lon="4.14718">
        <ele>58.11</ele>
        <time>2025-06-07T18:49:03.401Z</time>
      </trkpt>
      <trkpt lat="43.76242" lon="4.14708">
        <ele>57.92</ele>
        <time>2025-06-07T18:49:09.273Z</time>
      </trkpt>
      <trkpt lat="43.76243" lon="4.14698">
        <ele>58.66</ele>
        <time>2025-06-07T18:49:14.499Z</time>
      </trkpt>
      <trkpt lat="43.76244" lon="4.14688">
        <ele>58.17</ele>
        <time>2025-06-07T18:49:20.131Z</time>
      </trkpt>
      <trkpt lat="43.76243" lon="4.14678">
        <ele>56.73</ele>
        <time>2025-06-07T18:49:25.385Z</time>
      </trkpt>
      <trkpt lat="43.7624" lon="4.14671">
        <ele>56.7</ele>
        <time>2025-06-07T18:49:30.536Z</time>
      </trkpt>
      <trkpt lat="43.76235" lon="4.14663">
        <ele>57.06</ele>
        <time>2025-06-07T18:49:36.082Z</time>
      </trkpt>
      <trkpt lat="43.76229" lon="4.14659">
        <ele>57.8</ele>
        <time>2025-06-07T18:49:41.216Z</time>
      </trkpt>
      <trkpt lat="43.76223" lon="4.14656">
        <ele>57.48</ele>
        <time>2025-06-07T18:49:46.447Z</time>
      </trkpt>
      <trkpt lat="43.76217" lon="4.14652">
        <ele>57.28</ele>
        <time>2025-06-07T18:49:51.956Z</time>
      </trkpt>
      <trkpt lat="43.76211" lon="4.14649">
        <ele>56.03</ele>
        <time>2025-06-07T18:49:56.971Z</time>
      </trkpt>
      <trkpt lat="43.76203" lon="4.14646">
        <ele>56.66</ele>
        <time>2025-06-07T18:50:02.548Z</time>
      </trkpt>
      <trkpt lat="43.76198" lon="4.14642">
        <ele>56.53</ele>
        <time>2025-06-07T18:50:08.073Z</time>
      </trkpt>
      <trkpt lat="43.76193" lon="4.14634">
        <ele>56.93</ele>
        <time>2025-06-07T18:50:14.365Z</time>
      </trkpt>
      <trkpt lat="43.76191" lon="4.14623">
        <ele>50.5</ele>
        <time>2025-06-07T18:50:20.273Z</time>
      </trkpt>
      <trkpt lat="43.76187" lon="4.14613">
        <ele>51.93</ele>
        <time>2025-06-07T18:50:26.317Z</time>
      </trkpt>
      <trkpt lat="43.76185" lon="4.14603">
        <ele>50.44</ele>
        <time>2025-06-07T18:50:31.638Z</time>
      </trkpt>
      <trkpt lat="43.76182" lon="4.14594">
        <ele>57.42</ele>
        <time>2025-06-07T18:50:37.309Z</time>
      </trkpt>
      <trkpt lat="43.76177" lon="4.14588">
        <ele>57.38</ele>
        <time>2025-06-07T18:50:42.415Z</time>
      </trkpt>
      <trkpt lat="43.76172" lon="4.1458">
        <ele>54.9</ele>
        <time>2025-06-07T18:50:47.751Z</time>
      </trkpt>
      <trkpt lat="43.76166" lon="4.14576">
        <ele>49.51</ele>
        <time>2025-06-07T18:50:53.219Z</time>
      </trkpt>
      <trkpt lat="43.76162" lon="4.14568">
        <ele>54.82</ele>
        <time>2025-06-07T18:50:58.340Z</time>
      </trkpt>
      <trkpt lat="43.76157" lon="4.14562">
        <ele>51.16</ele>
        <time>2025-06-07T18:51:03.419Z</time>
      </trkpt>
      <trkpt lat="43.76155" lon="4.14551">
        <ele>50.07</ele>
        <time>2025-06-07T18:51:09.396Z</time>
      </trkpt>
      <trkpt lat="43.76149" lon="4.14542">
        <ele>54.12</ele>
        <time>2025-06-07T18:51:15.398Z</time>
      </trkpt>
      <trkpt lat="43.76143" lon="4.14536">
        <ele>55.15</ele>
        <time>2025-06-07T18:51:20.636Z</time>
      </trkpt>
      <trkpt lat="43.76136" lon="4.14529">
        <ele>51.46</ele>
        <time>2025-06-07T18:51:25.998Z</time>
      </trkpt>
      <trkpt lat="43.7613" lon="4.14525">
        <ele>51.83</ele>
        <time>2025-06-07T18:51:31.123Z</time>
      </trkpt>
      <trkpt lat="43.76124" lon="4.14519">
        <ele>46.41</ele>
        <time>2025-06-07T18:51:36.341Z</time>
      </trkpt>
      <trkpt lat="43.76118" lon="4.14517">
        <ele>51.64</ele>
        <time>2025-06-07T18:51:42.310Z</time>
      </trkpt>
      <trkpt lat="43.76111" lon="4.14509">
        <ele>49.51</ele>
        <time>2025-06-07T18:51:47.610Z</time>
      </trkpt>
      <trkpt lat="43.76112" lon="4.14502">
        <ele>49.07</ele>
        <time>2025-06-07T18:51:53.268Z</time>
      </trkpt>
      <trkpt lat="43.76119" lon="4.14501">
        <ele>45.79</ele>
        <time>2025-06-07T18:51:59.313Z</time>
      </trkpt>
      <trkpt lat="43.76126" lon="4.14496">
        <ele>46.87</ele>
        <time>2025-06-07T18:52:04.583Z</time>
      </trkpt>
      <trkpt lat="43.76132" lon="4.1449">
        <ele>49.56</ele>
        <time>2025-06-07T18:52:09.930Z</time>
      </trkpt>
      <trkpt lat="43.76139" lon="4.14486">
        <ele>51.83</ele>
        <time>2025-06-07T18:52:15.291Z</time>
      </trkpt>
      <trkpt lat="43.76146" lon="4.14482">
        <ele>46.24</ele>
        <time>2025-06-07T18:52:20.591Z</time>
      </trkpt>
      <trkpt lat="43.76153" lon="4.14478">
        <ele>45.46</ele>
        <time>2025-06-07T18:52:25.848Z</time>
      </trkpt>
      <trkpt lat="43.76156" lon="4.1447">
        <ele>50.68</ele>
        <time>2025-06-07T18:52:31.340Z</time>
      </trkpt>
      <trkpt lat="43.76164" lon="4.14465">
        <ele>48.43</ele>
        <time>2025-06-07T18:52:36.846Z</time>
      </trkpt>
      <trkpt lat="43.76172" lon="4.14464">
        <ele>48.04</ele>
        <time>2025-06-07T18:52:42.331Z</time>
      </trkpt>
      <trkpt lat="43.76174" lon="4.1446">
        <ele>44.95</ele>
        <time>2025-06-07T18:52:47.347Z</time>
      </trkpt>
      <trkpt lat="43.76172" lon="4.14461">
        <ele>52.35</ele>
        <time>2025-06-07T18:52:53.005Z</time>
      </trkpt>
      <trkpt lat="43.76171" lon="4.14454">
        <ele>49.97</ele>
        <time>2025-06-07T18:52:59.329Z</time>
      </trkpt>
      <trkpt lat="43.7617" lon="4.1445">
        <ele>49.11</ele>
        <time>2025-06-07T18:53:04.405Z</time>
      </trkpt>
      <trkpt lat="43.76163" lon="4.14449">
        <ele>49.65</ele>
        <time>2025-06-07T18:53:10.327Z</time>
      </trkpt>
      <trkpt lat="43.76157" lon="4.1445">
        <ele>48.87</ele>
        <time>2025-06-07T18:53:15.412Z</time>
      </trkpt>
      <trkpt lat="43.76151" lon="4.14453">
        <ele>47.69</ele>
        <time>2025-06-07T18:53:20.427Z</time>
      </trkpt>
      <trkpt lat="43.76145" lon="4.14453">
        <ele>48.14</ele>
        <time>2025-06-07T18:53:26.193Z</time>
      </trkpt>
      <trkpt lat="43.76138" lon="4.14455">
        <ele>49.41</ele>
        <time>2025-06-07T18:53:31.209Z</time>
      </trkpt>
      <trkpt lat="43.7613" lon="4.14456">
        <ele>48.73</ele>
        <time>2025-06-07T18:53:36.968Z</time>
      </trkpt>
      <trkpt lat="43.76124" lon="4.14455">
        <ele>50.33</ele>
        <time>2025-06-07T18:53:41.983Z</time>
      </trkpt>
      <trkpt lat="43.76119" lon="4.14458">
        <ele>47.22</ele>
        <time>2025-06-07T18:53:46.999Z</time>
      </trkpt>
      <trkpt lat="43.76112" lon="4.14457">
        <ele>50.21</ele>
        <time>2025-06-07T18:53:52.014Z</time>
      </trkpt>
      <trkpt lat="43.76105" lon="4.14458">
        <ele>49.53</ele>
        <time>2025-06-07T18:53:57.309Z</time>
      </trkpt>
      <trkpt lat="43.761" lon="4.14455">
        <ele>48.75</ele>
        <time>2025-06-07T18:54:02.787Z</time>
      </trkpt>
      <trkpt lat="43.76102" lon="4.14448">
        <ele>50.34</ele>
        <time>2025-06-07T18:54:07.927Z</time>
      </trkpt>
      <trkpt lat="43.76099" lon="4.14441">
        <ele>50.98</ele>
        <time>2025-06-07T18:54:12.969Z</time>
      </trkpt>
      <trkpt lat="43.76102" lon="4.14435">
        <ele>49.33</ele>
        <time>2025-06-07T18:54:18.128Z</time>
      </trkpt>
      <trkpt lat="43.76105" lon="4.14429">
        <ele>55.58</ele>
        <time>2025-06-07T18:54:23.309Z</time>
      </trkpt>
      <trkpt lat="43.76111" lon="4.14425">
        <ele>53.32</ele>
        <time>2025-06-07T18:54:28.627Z</time>
      </trkpt>
      <trkpt lat="43.76116" lon="4.14421">
        <ele>53.24</ele>
        <time>2025-06-07T18:54:33.749Z</time>
      </trkpt>
      <trkpt lat="43.76122" lon="4.14416">
        <ele>54.54</ele>
        <time>2025-06-07T18:54:38.909Z</time>
      </trkpt>
      <trkpt lat="43.76129" lon="4.14414">
        <ele>53.41</ele>
        <time>2025-06-07T18:54:44.067Z</time>
      </trkpt>
      <trkpt lat="43.76131" lon="4.14406">
        <ele>53.05</ele>
        <time>2025-06-07T18:54:49.126Z</time>
      </trkpt>
      <trkpt lat="43.76133" lon="4.14399">
        <ele>51.82</ele>
        <time>2025-06-07T18:54:54.407Z</time>
      </trkpt>
      <trkpt lat="43.76134" lon="4.14389">
        <ele>55.78</ele>
        <time>2025-06-07T18:54:59.966Z</time>
      </trkpt>
      <trkpt lat="43.76137" lon="4.14381">
        <ele>56.67</ele>
        <time>2025-06-07T18:55:05.229Z</time>
      </trkpt>
      <trkpt lat="43.76143" lon="4.14381">
        <ele>59.29</ele>
        <time>2025-06-07T18:55:10.340Z</time>
      </trkpt>
      <trkpt lat="43.76151" lon="4.1438">
        <ele>55.36</ele>
        <time>2025-06-07T18:55:16.316Z</time>
      </trkpt>
      <trkpt lat="43.76154" lon="4.14374">
        <ele>55.15</ele>
        <time>2025-06-07T18:55:21.332Z</time>
      </trkpt>
      <trkpt lat="43.76159" lon="4.14368">
        <ele>58.54</ele>
        <time>2025-06-07T18:55:26.372Z</time>
      </trkpt>
      <trkpt lat="43.76164" lon="4.14359">
        <ele>57.15</ele>
        <time>2025-06-07T18:55:32.211Z</time>
      </trkpt>
      <trkpt lat="43.76165" lon="4.14349">
        <ele>59.78</ele>
        <time>2025-06-07T18:55:37.527Z</time>
      </trkpt>
      <trkpt lat="43.76169" lon="4.14342">
        <ele>56.38</ele>
        <time>2025-06-07T18:55:43.050Z</time>
      </trkpt>
      <trkpt lat="43.76174" lon="4.14341">
        <ele>58.7</ele>
        <time>2025-06-07T18:55:48.286Z</time>
      </trkpt>
      <trkpt lat="43.76178" lon="4.14335">
        <ele>58.83</ele>
        <time>2025-06-07T18:55:53.750Z</time>
      </trkpt>
      <trkpt lat="43.76184" lon="4.14329">
        <ele>59.06</ele>
        <time>2025-06-07T18:55:58.889Z</time>
      </trkpt>
      <trkpt lat="43.76188" lon="4.14323">
        <ele>59.78</ele>
        <time>2025-06-07T18:56:04.346Z</time>
      </trkpt>
      <trkpt lat="43.76192" lon="4.14317">
        <ele>60.33</ele>
        <time>2025-06-07T18:56:10.031Z</time>
      </trkpt>
      <trkpt lat="43.76197" lon="4.14311">
        <ele>60.44</ele>
        <time>2025-06-07T18:56:15.428Z</time>
      </trkpt>
      <trkpt lat="43.76203" lon="4.14308">
        <ele>64.02</ele>
        <time>2025-06-07T18:56:21.350Z</time>
      </trkpt>
      <trkpt lat="43.76207" lon="4.14302">
        <ele>62.29</ele>
        <time>2025-06-07T18:56:27.344Z</time>
      </trkpt>
      <trkpt lat="43.76212" lon="4.14296">
        <ele>63.15</ele>
        <time>2025-06-07T18:56:32.430Z</time>
      </trkpt>
      <trkpt lat="43.76217" lon="4.1429">
        <ele>63.18</ele>
        <time>2025-06-07T18:56:37.909Z</time>
      </trkpt>
      <trkpt lat="43.7622" lon="4.14283">
        <ele>64.07</ele>
        <time>2025-06-07T18:56:43.093Z</time>
      </trkpt>
      <trkpt lat="43.76223" lon="4.14276">
        <ele>65.38</ele>
        <time>2025-06-07T18:56:48.669Z</time>
      </trkpt>
      <trkpt lat="43.76228" lon="4.14279">
        <ele>71.09</ele>
        <time>2025-06-07T18:56:54.386Z</time>
      </trkpt>
      <trkpt lat="43.76231" lon="4.1427">
        <ele>67.12</ele>
        <time>2025-06-07T18:56:59.446Z</time>
      </trkpt>
      <trkpt lat="43.76235" lon="4.14261">
        <ele>67.45</ele>
        <time>2025-06-07T18:57:05.384Z</time>
      </trkpt>
      <trkpt lat="43.76239" lon="4.14254">
        <ele>67.52</ele>
        <time>2025-06-07T18:57:10.408Z</time>
      </trkpt>
      <trkpt lat="43.76244" lon="4.14247">
        <ele>67.56</ele>
        <time>2025-06-07T18:57:15.996Z</time>
      </trkpt>
      <trkpt lat="43.76248" lon="4.14242">
        <ele>68.05</ele>
        <time>2025-06-07T18:57:21.455Z</time>
      </trkpt>
      <trkpt lat="43.7625" lon="4.14235">
        <ele>68.3</ele>
        <time>2025-06-07T18:57:27.201Z</time>
      </trkpt>
      <trkpt lat="43.76254" lon="4.1423">
        <ele>68.42</ele>
        <time>2025-06-07T18:57:32.455Z</time>
      </trkpt>
      <trkpt lat="43.7626" lon="4.14222">
        <ele>65.94</ele>
        <time>2025-06-07T18:57:38.075Z</time>
      </trkpt>
      <trkpt lat="43.76261" lon="4.1421">
        <ele>68.32</ele>
        <time>2025-06-07T18:57:43.358Z</time>
      </trkpt>
      <trkpt lat="43.76257" lon="4.14203">
        <ele>70.62</ele>
        <time>2025-06-07T18:57:48.423Z</time>
      </trkpt>
      <trkpt lat="43.7625" lon="4.14199">
        <ele>66.48</ele>
        <time>2025-06-07T18:57:54.447Z</time>
      </trkpt>
      <trkpt lat="43.76244" lon="4.14201">
        <ele>68.07</ele>
        <time>2025-06-07T18:57:59.448Z</time>
      </trkpt>
      <trkpt lat="43.76237" lon="4.14204">
        <ele>66.68</ele>
        <time>2025-06-07T18:58:05.218Z</time>
      </trkpt>
      <trkpt lat="43.76229" lon="4.14205">
        <ele>67.31</ele>
        <time>2025-06-07T18:58:11.200Z</time>
      </trkpt>
      <trkpt lat="43.76223" lon="4.14204">
        <ele>66.54</ele>
        <time>2025-06-07T18:58:16.393Z</time>
      </trkpt>
      <trkpt lat="43.76216" lon="4.14203">
        <ele>66.79</ele>
        <time>2025-06-07T18:58:22.358Z</time>
      </trkpt>
      <trkpt lat="43.7621" lon="4.142">
        <ele>62.89</ele>
        <time>2025-06-07T18:58:27.373Z</time>
      </trkpt>
      <trkpt lat="43.76204" lon="4.14194">
        <ele>66.38</ele>
        <time>2025-06-07T18:58:32.406Z</time>
      </trkpt>
      <trkpt lat="43.76197" lon="4.14193">
        <ele>67.93</ele>
        <time>2025-06-07T18:58:38.062Z</time>
      </trkpt>
      <trkpt lat="43.76191" lon="4.1419">
        <ele>63.36</ele>
        <time>2025-06-07T18:58:43.397Z</time>
      </trkpt>
      <trkpt lat="43.76184" lon="4.14194">
        <ele>63.96</ele>
        <time>2025-06-07T18:58:49.223Z</time>
      </trkpt>
      <trkpt lat="43.76178" lon="4.14195">
        <ele>67.73</ele>
        <time>2025-06-07T18:58:54.388Z</time>
      </trkpt>
      <trkpt lat="43.76172" lon="4.14197">
        <ele>64.71</ele>
        <time>2025-06-07T18:58:59.404Z</time>
      </trkpt>
      <trkpt lat="43.76164" lon="4.14203">
        <ele>63.8</ele>
        <time>2025-06-07T18:59:04.742Z</time>
      </trkpt>
      <trkpt lat="43.76156" lon="4.14206">
        <ele>64.18</ele>
        <time>2025-06-07T18:59:10.343Z</time>
      </trkpt>
      <trkpt lat="43.7615" lon="4.142">
        <ele>63.85</ele>
        <time>2025-06-07T18:59:15.344Z</time>
      </trkpt>
      <trkpt lat="43.76147" lon="4.14192">
        <ele>64.4</ele>
        <time>2025-06-07T18:59:20.802Z</time>
      </trkpt>
      <trkpt lat="43.76145" lon="4.14183">
        <ele>63.88</ele>
        <time>2025-06-07T18:59:25.844Z</time>
      </trkpt>
      <trkpt lat="43.76142" lon="4.14175">
        <ele>62.32</ele>
        <time>2025-06-07T18:59:31.422Z</time>
      </trkpt>
      <trkpt lat="43.76138" lon="4.14167">
        <ele>63</ele>
        <time>2025-06-07T18:59:36.864Z</time>
      </trkpt>
      <trkpt lat="43.76137" lon="4.14157">
        <ele>62.87</ele>
        <time>2025-06-07T18:59:42.404Z</time>
      </trkpt>
      <trkpt lat="43.76142" lon="4.14151">
        <ele>61.87</ele>
        <time>2025-06-07T18:59:47.785Z</time>
      </trkpt>
      <trkpt lat="43.76149" lon="4.14147">
        <ele>63.02</ele>
        <time>2025-06-07T18:59:53.403Z</time>
      </trkpt>
      <trkpt lat="43.76156" lon="4.14142">
        <ele>64.23</ele>
        <time>2025-06-07T18:59:58.945Z</time>
      </trkpt>
      <trkpt lat="43.76162" lon="4.14137">
        <ele>63</ele>
        <time>2025-06-07T19:00:04.447Z</time>
      </trkpt>
      <trkpt lat="43.76169" lon="4.14131">
        <ele>63</ele>
        <time>2025-06-07T19:00:09.803Z</time>
      </trkpt>
      <trkpt lat="43.76175" lon="4.14127">
        <ele>62.98</ele>
        <time>2025-06-07T19:00:15.265Z</time>
      </trkpt>
      <trkpt lat="43.76183" lon="4.14123">
        <ele>62.22</ele>
        <time>2025-06-07T19:00:20.746Z</time>
      </trkpt>
      <trkpt lat="43.76189" lon="4.1412">
        <ele>62.78</ele>
        <time>2025-06-07T19:00:26.229Z</time>
      </trkpt>
      <trkpt lat="43.76197" lon="4.14123">
        <ele>64.23</ele>
        <time>2025-06-07T19:00:32.109Z</time>
      </trkpt>
      <trkpt lat="43.76204" lon="4.14123">
        <ele>62.33</ele>
        <time>2025-06-07T19:00:37.289Z</time>
      </trkpt>
      <trkpt lat="43.7621" lon="4.1412">
        <ele>64.23</ele>
        <time>2025-06-07T19:00:42.385Z</time>
      </trkpt>
      <trkpt lat="43.76216" lon="4.14117">
        <ele>63.77</ele>
        <time>2025-06-07T19:00:47.742Z</time>
      </trkpt>
      <trkpt lat="43.76223" lon="4.14111">
        <ele>61.28</ele>
        <time>2025-06-07T19:00:53.087Z</time>
      </trkpt>
      <trkpt lat="43.7623" lon="4.14105">
        <ele>64.23</ele>
        <time>2025-06-07T19:00:59.062Z</time>
      </trkpt>
      <trkpt lat="43.76235" lon="4.141">
        <ele>64.23</ele>
        <time>2025-06-07T19:01:04.442Z</time>
      </trkpt>
      <trkpt lat="43.76243" lon="4.14098">
        <ele>62.33</ele>
        <time>2025-06-07T19:01:09.885Z</time>
      </trkpt>
      <trkpt lat="43.7625" lon="4.14097">
        <ele>64.22</ele>
        <time>2025-06-07T19:01:15.264Z</time>
      </trkpt>
      <trkpt lat="43.76258" lon="4.14095">
        <ele>64.23</ele>
        <time>2025-06-07T19:01:20.743Z</time>
      </trkpt>
      <trkpt lat="43.76264" lon="4.14088">
        <ele>64.23</ele>
        <time>2025-06-07T19:01:26.167Z</time>
      </trkpt>
      <trkpt lat="43.76269" lon="4.1408">
        <ele>64.23</ele>
        <time>2025-06-07T19:01:31.699Z</time>
      </trkpt>
      <trkpt lat="43.76274" lon="4.14074">
        <ele>65.74</ele>
        <time>2025-06-07T19:01:36.823Z</time>
      </trkpt>
      <trkpt lat="43.76276" lon="4.14066">
        <ele>70.55</ele>
        <time>2025-06-07T19:01:41.942Z</time>
      </trkpt>
      <trkpt lat="43.76278" lon="4.14059">
        <ele>66.34</ele>
        <time>2025-06-07T19:01:47.393Z</time>
      </trkpt>
      <trkpt lat="43.76275" lon="4.14048">
        <ele>66.31</ele>
        <time>2025-06-07T19:01:53.122Z</time>
      </trkpt>
      <trkpt lat="43.76269" lon="4.14041">
        <ele>66.54</ele>
        <time>2025-06-07T19:01:58.761Z</time>
      </trkpt>
      <trkpt lat="43.76263" lon="4.14036">
        <ele>66.91</ele>
        <time>2025-06-07T19:02:03.933Z</time>
      </trkpt>
      <trkpt lat="43.76259" lon="4.14034">
        <ele>67.03</ele>
        <time>2025-06-07T19:02:09.385Z</time>
      </trkpt>
      <trkpt lat="43.76252" lon="4.14028">
        <ele>67.03</ele>
        <time>2025-06-07T19:02:15.040Z</time>
      </trkpt>
      <trkpt lat="43.76247" lon="4.14022">
        <ele>66.2</ele>
        <time>2025-06-07T19:02:20.447Z</time>
      </trkpt>
      <trkpt lat="43.76241" lon="4.1402">
        <ele>64.89</ele>
        <time>2025-06-07T19:02:25.544Z</time>
      </trkpt>
      <trkpt lat="43.76234" lon="4.14018">
        <ele>67.03</ele>
        <time>2025-06-07T19:02:31.263Z</time>
      </trkpt>
      <trkpt lat="43.76226" lon="4.14019">
        <ele>64.23</ele>
        <time>2025-06-07T19:02:36.383Z</time>
      </trkpt>
      <trkpt lat="43.76218" lon="4.14021">
        <ele>64.23</ele>
        <time>2025-06-07T19:02:42.406Z</time>
      </trkpt>
      <trkpt lat="43.76212" lon="4.14023">
        <ele>64.23</ele>
        <time>2025-06-07T19:02:47.966Z</time>
      </trkpt>
      <trkpt lat="43.76206" lon="4.14027">
        <ele>64.23</ele>
        <time>2025-06-07T19:02:53.350Z</time>
      </trkpt>
      <trkpt lat="43.76202" lon="4.14031">
        <ele>63.51</ele>
        <time>2025-06-07T19:02:59.188Z</time>
      </trkpt>
      <trkpt lat="43.76194" lon="4.14032">
        <ele>62.28</ele>
        <time>2025-06-07T19:03:04.351Z</time>
      </trkpt>
      <trkpt lat="43.76188" lon="4.14033">
        <ele>62.44</ele>
        <time>2025-06-07T19:03:09.366Z</time>
      </trkpt>
      <trkpt lat="43.76181" lon="4.14032">
        <ele>62.4</ele>
        <time>2025-06-07T19:03:15.129Z</time>
      </trkpt>
      <trkpt lat="43.76174" lon="4.14029">
        <ele>61.12</ele>
        <time>2025-06-07T19:03:20.447Z</time>
      </trkpt>
      <trkpt lat="43.76173" lon="4.1403">
        <ele>60.71</ele>
        <time>2025-06-07T19:03:25.543Z</time>
      </trkpt>
      <trkpt lat="43.76167" lon="4.14025">
        <ele>58.49</ele>
        <time>2025-06-07T19:03:30.845Z</time>
      </trkpt>
      <trkpt lat="43.76166" lon="4.14016">
        <ele>59.68</ele>
        <time>2025-06-07T19:03:35.905Z</time>
      </trkpt>
    </trkseg>
  </trk>
</gpx>